<?xml version="1.0" encoding="UTF-8" standalone="no" ?>
<gpx xmlns="http://www.topografix.com/GPX/1/1" xmlns:xsi="http://www.w3.org/2001/XMLSchema-instance" xsi:schemaLocation="http://www.topografix.com/GPX/1/1 http://www.topografix.com/GPX/1/1/gpx.xsd" version="1.1" creator="VisuGPX - https://www.visugpx.com">
  <metadata>
    <name>Pont des Sarrasins, Pré Faucon et grotte de Piaroux depuis Châteaudouble</name>
    <desc><![CDATA[Boucle au départ de Châteaudouble à la découverte de quelques curiosités de la barrière ouest du Vercors.

Circuit qui associe la boucle classique du Pont des Sarrasins décrite sur RandoSudEst ([url]http://www.rando-sud-est.com/2019/01/18/le-pont-des-sarrasins/[/url]), mais effectuée en sens inverse, à la boucle décrite par Pascal Sombardier sur son blog ([url]http://www.pascal-sombardier.com/2018/04/pont-des-sarrasins-pre-faucon-grotte-des-piaroux.html[/url]). Voir ces 2 topos pour les détails. La boucle du Pont des Sarrasins au départ de Châteaudouble est balisée en jaune.
]]></desc>
  </metadata>
  <trk>
    <name><![CDATA[2019-03-03 16:19:04]]></name>
    <trkseg>
      <trkpt lat="44.89935" lon="5.096">
        <ele>381.3</ele>
        <time>2019-03-03T08:40:51Z</time>
      </trkpt>
      <trkpt lat="44.89923" lon="5.09615">
        <ele>381.3</ele>
        <time>2019-03-03T08:41:09Z</time>
      </trkpt>
      <trkpt lat="44.89919" lon="5.09616">
        <ele>381.3</ele>
        <time>2019-03-03T08:41:43Z</time>
      </trkpt>
      <trkpt lat="44.89918" lon="5.09616">
        <ele>381.3</ele>
        <time>2019-03-03T08:42:04Z</time>
      </trkpt>
      <trkpt lat="44.89913" lon="5.0962">
        <ele>381.3</ele>
        <time>2019-03-03T08:42:18Z</time>
      </trkpt>
      <trkpt lat="44.89906" lon="5.09621">
        <ele>380.34</ele>
        <time>2019-03-03T08:42:27Z</time>
      </trkpt>
      <trkpt lat="44.89901" lon="5.09621">
        <ele>379.38</ele>
        <time>2019-03-03T08:42:34Z</time>
      </trkpt>
      <trkpt lat="44.89884" lon="5.09616">
        <ele>377.45</ele>
        <time>2019-03-03T08:42:52Z</time>
      </trkpt>
      <trkpt lat="44.89864" lon="5.09611">
        <ele>374.57</ele>
        <time>2019-03-03T08:43:10Z</time>
      </trkpt>
      <trkpt lat="44.89845" lon="5.09605">
        <ele>372.17</ele>
        <time>2019-03-03T08:43:27Z</time>
      </trkpt>
      <trkpt lat="44.89831" lon="5.09594">
        <ele>369.76</ele>
        <time>2019-03-03T08:43:43Z</time>
      </trkpt>
      <trkpt lat="44.89816" lon="5.09582">
        <ele>367.84</ele>
        <time>2019-03-03T08:44:01Z</time>
      </trkpt>
      <trkpt lat="44.89811" lon="5.0958">
        <ele>367.84</ele>
        <time>2019-03-03T08:44:05Z</time>
      </trkpt>
      <trkpt lat="44.89796" lon="5.09569">
        <ele>367.36</ele>
        <time>2019-03-03T08:44:19Z</time>
      </trkpt>
      <trkpt lat="44.89781" lon="5.09559">
        <ele>367.84</ele>
        <time>2019-03-03T08:44:35Z</time>
      </trkpt>
      <trkpt lat="44.89773" lon="5.09555">
        <ele>367.84</ele>
        <time>2019-03-03T08:44:43Z</time>
      </trkpt>
      <trkpt lat="44.89762" lon="5.09547">
        <ele>367.84</ele>
        <time>2019-03-03T08:44:57Z</time>
      </trkpt>
      <trkpt lat="44.89749" lon="5.09535">
        <ele>369.28</ele>
        <time>2019-03-03T08:45:12Z</time>
      </trkpt>
      <trkpt lat="44.89735" lon="5.09526">
        <ele>370.73</ele>
        <time>2019-03-03T08:45:27Z</time>
      </trkpt>
      <trkpt lat="44.89723" lon="5.09516">
        <ele>371.69</ele>
        <time>2019-03-03T08:45:40Z</time>
      </trkpt>
      <trkpt lat="44.89712" lon="5.09507">
        <ele>373.13</ele>
        <time>2019-03-03T08:45:53Z</time>
      </trkpt>
      <trkpt lat="44.897" lon="5.095">
        <ele>375.05</ele>
        <time>2019-03-03T08:46:07Z</time>
      </trkpt>
      <trkpt lat="44.89684" lon="5.09487">
        <ele>376.97</ele>
        <time>2019-03-03T08:46:22Z</time>
      </trkpt>
      <trkpt lat="44.89666" lon="5.09471">
        <ele>378.42</ele>
        <time>2019-03-03T08:46:38Z</time>
      </trkpt>
      <trkpt lat="44.89652" lon="5.09448">
        <ele>380.82</ele>
        <time>2019-03-03T08:46:55Z</time>
      </trkpt>
      <trkpt lat="44.8964" lon="5.09431">
        <ele>382.74</ele>
        <time>2019-03-03T08:47:11Z</time>
      </trkpt>
      <trkpt lat="44.89637" lon="5.09428">
        <ele>382.74</ele>
        <time>2019-03-03T08:47:15Z</time>
      </trkpt>
      <trkpt lat="44.89626" lon="5.09415">
        <ele>384.18</ele>
        <time>2019-03-03T08:47:29Z</time>
      </trkpt>
      <trkpt lat="44.89615" lon="5.09403">
        <ele>386.59</ele>
        <time>2019-03-03T08:47:43Z</time>
      </trkpt>
      <trkpt lat="44.89606" lon="5.09399">
        <ele>387.07</ele>
        <time>2019-03-03T08:47:53Z</time>
      </trkpt>
      <trkpt lat="44.89594" lon="5.09392">
        <ele>388.51</ele>
        <time>2019-03-03T08:48:07Z</time>
      </trkpt>
      <trkpt lat="44.89593" lon="5.09392">
        <ele>388.51</ele>
        <time>2019-03-03T08:48:08Z</time>
      </trkpt>
      <trkpt lat="44.89581" lon="5.09377">
        <ele>390.43</ele>
        <time>2019-03-03T08:48:22Z</time>
      </trkpt>
      <trkpt lat="44.89574" lon="5.09368">
        <ele>391.87</ele>
        <time>2019-03-03T08:48:32Z</time>
      </trkpt>
      <trkpt lat="44.89558" lon="5.09353">
        <ele>393.8</ele>
        <time>2019-03-03T08:48:46Z</time>
      </trkpt>
      <trkpt lat="44.89544" lon="5.09345">
        <ele>395.72</ele>
        <time>2019-03-03T08:49:00Z</time>
      </trkpt>
      <trkpt lat="44.89539" lon="5.09348">
        <ele>396.68</ele>
        <time>2019-03-03T08:49:06Z</time>
      </trkpt>
      <trkpt lat="44.89532" lon="5.09338">
        <ele>398.12</ele>
        <time>2019-03-03T08:49:21Z</time>
      </trkpt>
      <trkpt lat="44.89526" lon="5.09334">
        <ele>398.12</ele>
        <time>2019-03-03T08:49:36Z</time>
      </trkpt>
      <trkpt lat="44.89524" lon="5.09335">
        <ele>398.12</ele>
        <time>2019-03-03T08:49:52Z</time>
      </trkpt>
      <trkpt lat="44.89522" lon="5.09328">
        <ele>398.6</ele>
        <time>2019-03-03T08:50:08Z</time>
      </trkpt>
      <trkpt lat="44.89517" lon="5.09314">
        <ele>400.05</ele>
        <time>2019-03-03T08:50:22Z</time>
      </trkpt>
      <trkpt lat="44.89506" lon="5.09306">
        <ele>401.97</ele>
        <time>2019-03-03T08:50:35Z</time>
      </trkpt>
      <trkpt lat="44.89491" lon="5.09293">
        <ele>404.85</ele>
        <time>2019-03-03T08:50:52Z</time>
      </trkpt>
      <trkpt lat="44.89481" lon="5.09284">
        <ele>407.74</ele>
        <time>2019-03-03T08:51:07Z</time>
      </trkpt>
      <trkpt lat="44.89472" lon="5.09267">
        <ele>409.66</ele>
        <time>2019-03-03T08:51:22Z</time>
      </trkpt>
      <trkpt lat="44.89465" lon="5.09255">
        <ele>409.66</ele>
        <time>2019-03-03T08:51:30Z</time>
      </trkpt>
      <trkpt lat="44.89462" lon="5.09246">
        <ele>409.66</ele>
        <time>2019-03-03T08:51:36Z</time>
      </trkpt>
      <trkpt lat="44.89449" lon="5.09227">
        <ele>411.58</ele>
        <time>2019-03-03T08:51:52Z</time>
      </trkpt>
      <trkpt lat="44.89447" lon="5.09224">
        <ele>412.06</ele>
        <time>2019-03-03T08:51:55Z</time>
      </trkpt>
      <trkpt lat="44.89438" lon="5.092">
        <ele>413.5</ele>
        <time>2019-03-03T08:52:13Z</time>
      </trkpt>
      <trkpt lat="44.89426" lon="5.09184">
        <ele>414.47</ele>
        <time>2019-03-03T08:52:27Z</time>
      </trkpt>
      <trkpt lat="44.89413" lon="5.09164">
        <ele>415.91</ele>
        <time>2019-03-03T08:52:43Z</time>
      </trkpt>
      <trkpt lat="44.894" lon="5.09148">
        <ele>417.83</ele>
        <time>2019-03-03T08:52:59Z</time>
      </trkpt>
      <trkpt lat="44.89397" lon="5.09145">
        <ele>418.31</ele>
        <time>2019-03-03T08:53:03Z</time>
      </trkpt>
      <trkpt lat="44.89392" lon="5.0914">
        <ele>418.31</ele>
        <time>2019-03-03T08:53:09Z</time>
      </trkpt>
      <trkpt lat="44.89376" lon="5.09121">
        <ele>420.23</ele>
        <time>2019-03-03T08:53:24Z</time>
      </trkpt>
      <trkpt lat="44.89362" lon="5.09111">
        <ele>421.19</ele>
        <time>2019-03-03T08:53:37Z</time>
      </trkpt>
      <trkpt lat="44.89347" lon="5.09103">
        <ele>422.64</ele>
        <time>2019-03-03T08:53:50Z</time>
      </trkpt>
      <trkpt lat="44.89332" lon="5.09093">
        <ele>423.6</ele>
        <time>2019-03-03T08:54:03Z</time>
      </trkpt>
      <trkpt lat="44.89316" lon="5.09089">
        <ele>425.04</ele>
        <time>2019-03-03T08:54:18Z</time>
      </trkpt>
      <trkpt lat="44.89305" lon="5.09086">
        <ele>426.48</ele>
        <time>2019-03-03T08:54:31Z</time>
      </trkpt>
      <trkpt lat="44.89288" lon="5.0908">
        <ele>428.89</ele>
        <time>2019-03-03T08:54:45Z</time>
      </trkpt>
      <trkpt lat="44.89274" lon="5.0908">
        <ele>429.85</ele>
        <time>2019-03-03T08:54:58Z</time>
      </trkpt>
      <trkpt lat="44.89256" lon="5.09079">
        <ele>432.25</ele>
        <time>2019-03-03T08:55:14Z</time>
      </trkpt>
      <trkpt lat="44.89243" lon="5.09082">
        <ele>434.65</ele>
        <time>2019-03-03T08:55:29Z</time>
      </trkpt>
      <trkpt lat="44.8923" lon="5.09085">
        <ele>436.58</ele>
        <time>2019-03-03T08:55:42Z</time>
      </trkpt>
      <trkpt lat="44.89218" lon="5.0909">
        <ele>439.46</ele>
        <time>2019-03-03T08:55:55Z</time>
      </trkpt>
      <trkpt lat="44.89203" lon="5.09091">
        <ele>441.38</ele>
        <time>2019-03-03T08:56:08Z</time>
      </trkpt>
      <trkpt lat="44.89185" lon="5.0909">
        <ele>444.27</ele>
        <time>2019-03-03T08:56:24Z</time>
      </trkpt>
      <trkpt lat="44.89173" lon="5.0909">
        <ele>445.71</ele>
        <time>2019-03-03T08:56:36Z</time>
      </trkpt>
      <trkpt lat="44.89164" lon="5.09086">
        <ele>446.67</ele>
        <time>2019-03-03T08:56:47Z</time>
      </trkpt>
      <trkpt lat="44.8916" lon="5.09076">
        <ele>445.23</ele>
        <time>2019-03-03T08:56:56Z</time>
      </trkpt>
      <trkpt lat="44.89154" lon="5.0906">
        <ele>445.23</ele>
        <time>2019-03-03T08:57:09Z</time>
      </trkpt>
      <trkpt lat="44.89145" lon="5.09052">
        <ele>446.67</ele>
        <time>2019-03-03T08:57:15Z</time>
      </trkpt>
      <trkpt lat="44.89134" lon="5.09036">
        <ele>449.07</ele>
        <time>2019-03-03T08:57:29Z</time>
      </trkpt>
      <trkpt lat="44.89125" lon="5.09017">
        <ele>447.63</ele>
        <time>2019-03-03T08:57:42Z</time>
      </trkpt>
      <trkpt lat="44.89116" lon="5.09006">
        <ele>447.63</ele>
        <time>2019-03-03T08:57:54Z</time>
      </trkpt>
      <trkpt lat="44.89103" lon="5.08996">
        <ele>448.11</ele>
        <time>2019-03-03T08:58:07Z</time>
      </trkpt>
      <trkpt lat="44.89091" lon="5.08972">
        <ele>447.63</ele>
        <time>2019-03-03T08:58:22Z</time>
      </trkpt>
      <trkpt lat="44.89075" lon="5.08956">
        <ele>447.15</ele>
        <time>2019-03-03T08:58:38Z</time>
      </trkpt>
      <trkpt lat="44.8906" lon="5.08941">
        <ele>445.71</ele>
        <time>2019-03-03T08:58:51Z</time>
      </trkpt>
      <trkpt lat="44.89055" lon="5.08937">
        <ele>445.71</ele>
        <time>2019-03-03T08:58:56Z</time>
      </trkpt>
      <trkpt lat="44.89049" lon="5.08943">
        <ele>446.67</ele>
        <time>2019-03-03T08:59:07Z</time>
      </trkpt>
      <trkpt lat="44.89042" lon="5.08949">
        <ele>448.11</ele>
        <time>2019-03-03T08:59:21Z</time>
      </trkpt>
      <trkpt lat="44.8904" lon="5.08946">
        <ele>448.59</ele>
        <time>2019-03-03T09:01:21Z</time>
      </trkpt>
      <trkpt lat="44.89033" lon="5.08957">
        <ele>448.59</ele>
        <time>2019-03-03T09:01:40Z</time>
      </trkpt>
      <trkpt lat="44.89026" lon="5.08968">
        <ele>449.55</ele>
        <time>2019-03-03T09:01:50Z</time>
      </trkpt>
      <trkpt lat="44.89013" lon="5.08984">
        <ele>450.52</ele>
        <time>2019-03-03T09:02:04Z</time>
      </trkpt>
      <trkpt lat="44.89001" lon="5.08994">
        <ele>451</ele>
        <time>2019-03-03T09:02:17Z</time>
      </trkpt>
      <trkpt lat="44.88987" lon="5.09005">
        <ele>451.96</ele>
        <time>2019-03-03T09:02:33Z</time>
      </trkpt>
      <trkpt lat="44.88969" lon="5.0901">
        <ele>451</ele>
        <time>2019-03-03T09:02:45Z</time>
      </trkpt>
      <trkpt lat="44.88968" lon="5.0901">
        <ele>451</ele>
        <time>2019-03-03T09:02:46Z</time>
      </trkpt>
      <trkpt lat="44.88965" lon="5.09008">
        <ele>450.52</ele>
        <time>2019-03-03T09:02:49Z</time>
      </trkpt>
      <trkpt lat="44.88958" lon="5.08988">
        <ele>449.55</ele>
        <time>2019-03-03T09:03:04Z</time>
      </trkpt>
      <trkpt lat="44.88959" lon="5.08984">
        <ele>451</ele>
        <time>2019-03-03T09:03:09Z</time>
      </trkpt>
      <trkpt lat="44.88958" lon="5.08966">
        <ele>453.88</ele>
        <time>2019-03-03T09:03:23Z</time>
      </trkpt>
      <trkpt lat="44.88958" lon="5.08949">
        <ele>456.76</ele>
        <time>2019-03-03T09:03:36Z</time>
      </trkpt>
      <trkpt lat="44.88958" lon="5.08936">
        <ele>458.69</ele>
        <time>2019-03-03T09:03:48Z</time>
      </trkpt>
      <trkpt lat="44.88954" lon="5.08916">
        <ele>461.57</ele>
        <time>2019-03-03T09:04:00Z</time>
      </trkpt>
      <trkpt lat="44.88951" lon="5.08902">
        <ele>463.97</ele>
        <time>2019-03-03T09:04:14Z</time>
      </trkpt>
      <trkpt lat="44.88945" lon="5.08888">
        <ele>467.34</ele>
        <time>2019-03-03T09:04:28Z</time>
      </trkpt>
      <trkpt lat="44.88937" lon="5.08876">
        <ele>470.22</ele>
        <time>2019-03-03T09:04:44Z</time>
      </trkpt>
      <trkpt lat="44.88924" lon="5.08863">
        <ele>471.66</ele>
        <time>2019-03-03T09:05:00Z</time>
      </trkpt>
      <trkpt lat="44.88914" lon="5.08854">
        <ele>472.14</ele>
        <time>2019-03-03T09:05:13Z</time>
      </trkpt>
      <trkpt lat="44.88899" lon="5.08836">
        <ele>472.63</ele>
        <time>2019-03-03T09:05:29Z</time>
      </trkpt>
      <trkpt lat="44.88885" lon="5.0882">
        <ele>472.63</ele>
        <time>2019-03-03T09:05:43Z</time>
      </trkpt>
      <trkpt lat="44.88876" lon="5.08804">
        <ele>472.63</ele>
        <time>2019-03-03T09:05:55Z</time>
      </trkpt>
      <trkpt lat="44.88865" lon="5.08783">
        <ele>474.07</ele>
        <time>2019-03-03T09:06:09Z</time>
      </trkpt>
      <trkpt lat="44.88858" lon="5.08759">
        <ele>476.47</ele>
        <time>2019-03-03T09:06:23Z</time>
      </trkpt>
      <trkpt lat="44.8885" lon="5.08744">
        <ele>477.43</ele>
        <time>2019-03-03T09:06:36Z</time>
      </trkpt>
      <trkpt lat="44.88836" lon="5.08733">
        <ele>478.87</ele>
        <time>2019-03-03T09:06:49Z</time>
      </trkpt>
      <trkpt lat="44.88822" lon="5.08721">
        <ele>480.32</ele>
        <time>2019-03-03T09:07:02Z</time>
      </trkpt>
      <trkpt lat="44.88806" lon="5.08715">
        <ele>480.8</ele>
        <time>2019-03-03T09:07:16Z</time>
      </trkpt>
      <trkpt lat="44.88802" lon="5.08714">
        <ele>480.8</ele>
        <time>2019-03-03T09:07:19Z</time>
      </trkpt>
      <trkpt lat="44.88792" lon="5.08711">
        <ele>480.8</ele>
        <time>2019-03-03T09:07:25Z</time>
      </trkpt>
      <trkpt lat="44.88775" lon="5.08704">
        <ele>481.28</ele>
        <time>2019-03-03T09:07:40Z</time>
      </trkpt>
      <trkpt lat="44.88759" lon="5.08699">
        <ele>482.24</ele>
        <time>2019-03-03T09:07:53Z</time>
      </trkpt>
      <trkpt lat="44.88743" lon="5.0869">
        <ele>484.16</ele>
        <time>2019-03-03T09:08:06Z</time>
      </trkpt>
      <trkpt lat="44.8873" lon="5.08681">
        <ele>484.16</ele>
        <time>2019-03-03T09:08:20Z</time>
      </trkpt>
      <trkpt lat="44.88715" lon="5.08669">
        <ele>485.12</ele>
        <time>2019-03-03T09:08:33Z</time>
      </trkpt>
      <trkpt lat="44.88698" lon="5.0865">
        <ele>487.05</ele>
        <time>2019-03-03T09:08:49Z</time>
      </trkpt>
      <trkpt lat="44.8869" lon="5.08642">
        <ele>488.01</ele>
        <time>2019-03-03T09:09:08Z</time>
      </trkpt>
      <trkpt lat="44.88687" lon="5.08643">
        <ele>488.49</ele>
        <time>2019-03-03T09:09:32Z</time>
      </trkpt>
      <trkpt lat="44.88687" lon="5.0865">
        <ele>488.97</ele>
        <time>2019-03-03T09:11:08Z</time>
      </trkpt>
      <trkpt lat="44.88686" lon="5.08669">
        <ele>488.97</ele>
        <time>2019-03-03T09:11:24Z</time>
      </trkpt>
      <trkpt lat="44.88686" lon="5.08682">
        <ele>488.97</ele>
        <time>2019-03-03T09:11:32Z</time>
      </trkpt>
      <trkpt lat="44.88686" lon="5.08705">
        <ele>488.97</ele>
        <time>2019-03-03T09:11:47Z</time>
      </trkpt>
      <trkpt lat="44.88684" lon="5.08731">
        <ele>489.45</ele>
        <time>2019-03-03T09:12:01Z</time>
      </trkpt>
      <trkpt lat="44.88681" lon="5.08754">
        <ele>489.45</ele>
        <time>2019-03-03T09:12:12Z</time>
      </trkpt>
      <trkpt lat="44.8868" lon="5.08779">
        <ele>489.45</ele>
        <time>2019-03-03T09:12:27Z</time>
      </trkpt>
      <trkpt lat="44.88683" lon="5.08807">
        <ele>489.93</ele>
        <time>2019-03-03T09:12:44Z</time>
      </trkpt>
      <trkpt lat="44.88682" lon="5.08813">
        <ele>489.93</ele>
        <time>2019-03-03T09:12:48Z</time>
      </trkpt>
      <trkpt lat="44.88677" lon="5.08834">
        <ele>489.93</ele>
        <time>2019-03-03T09:13:02Z</time>
      </trkpt>
      <trkpt lat="44.88677" lon="5.08858">
        <ele>490.41</ele>
        <time>2019-03-03T09:13:17Z</time>
      </trkpt>
      <trkpt lat="44.88677" lon="5.08887">
        <ele>490.41</ele>
        <time>2019-03-03T09:13:32Z</time>
      </trkpt>
      <trkpt lat="44.88674" lon="5.08913">
        <ele>490.41</ele>
        <time>2019-03-03T09:13:47Z</time>
      </trkpt>
      <trkpt lat="44.88671" lon="5.08932">
        <ele>490.41</ele>
        <time>2019-03-03T09:13:57Z</time>
      </trkpt>
      <trkpt lat="44.8867" lon="5.08944">
        <ele>490.41</ele>
        <time>2019-03-03T09:14:03Z</time>
      </trkpt>
      <trkpt lat="44.88667" lon="5.08968">
        <ele>490.89</ele>
        <time>2019-03-03T09:14:17Z</time>
      </trkpt>
      <trkpt lat="44.88666" lon="5.08988">
        <ele>493.29</ele>
        <time>2019-03-03T09:14:30Z</time>
      </trkpt>
      <trkpt lat="44.8866" lon="5.0901">
        <ele>493.77</ele>
        <time>2019-03-03T09:14:43Z</time>
      </trkpt>
      <trkpt lat="44.88651" lon="5.09023">
        <ele>494.26</ele>
        <time>2019-03-03T09:14:56Z</time>
      </trkpt>
      <trkpt lat="44.88636" lon="5.09025">
        <ele>497.14</ele>
        <time>2019-03-03T09:15:09Z</time>
      </trkpt>
      <trkpt lat="44.88629" lon="5.09023">
        <ele>497.62</ele>
        <time>2019-03-03T09:15:16Z</time>
      </trkpt>
      <trkpt lat="44.88617" lon="5.09022">
        <ele>499.06</ele>
        <time>2019-03-03T09:15:30Z</time>
      </trkpt>
      <trkpt lat="44.88602" lon="5.09021">
        <ele>501.46</ele>
        <time>2019-03-03T09:15:44Z</time>
      </trkpt>
      <trkpt lat="44.88589" lon="5.0902">
        <ele>503.39</ele>
        <time>2019-03-03T09:15:56Z</time>
      </trkpt>
      <trkpt lat="44.88573" lon="5.09018">
        <ele>506.27</ele>
        <time>2019-03-03T09:16:11Z</time>
      </trkpt>
      <trkpt lat="44.88561" lon="5.09016">
        <ele>507.71</ele>
        <time>2019-03-03T09:16:22Z</time>
      </trkpt>
      <trkpt lat="44.88551" lon="5.09014">
        <ele>510.12</ele>
        <time>2019-03-03T09:16:34Z</time>
      </trkpt>
      <trkpt lat="44.88537" lon="5.09011">
        <ele>512.52</ele>
        <time>2019-03-03T09:16:47Z</time>
      </trkpt>
      <trkpt lat="44.88528" lon="5.09007">
        <ele>514.92</ele>
        <time>2019-03-03T09:16:57Z</time>
      </trkpt>
      <trkpt lat="44.88516" lon="5.08998">
        <ele>516.85</ele>
        <time>2019-03-03T09:17:09Z</time>
      </trkpt>
      <trkpt lat="44.88507" lon="5.08989">
        <ele>519.25</ele>
        <time>2019-03-03T09:17:21Z</time>
      </trkpt>
      <trkpt lat="44.88502" lon="5.08986">
        <ele>519.73</ele>
        <time>2019-03-03T09:17:26Z</time>
      </trkpt>
      <trkpt lat="44.88492" lon="5.08978">
        <ele>521.65</ele>
        <time>2019-03-03T09:17:39Z</time>
      </trkpt>
      <trkpt lat="44.88487" lon="5.08975">
        <ele>522.13</ele>
        <time>2019-03-03T09:17:59Z</time>
      </trkpt>
      <trkpt lat="44.88485" lon="5.08978">
        <ele>525.02</ele>
        <time>2019-03-03T09:22:05Z</time>
      </trkpt>
      <trkpt lat="44.88484" lon="5.08994">
        <ele>526.94</ele>
        <time>2019-03-03T09:22:18Z</time>
      </trkpt>
      <trkpt lat="44.88486" lon="5.0901">
        <ele>529.34</ele>
        <time>2019-03-03T09:22:31Z</time>
      </trkpt>
      <trkpt lat="44.88487" lon="5.09025">
        <ele>531.75</ele>
        <time>2019-03-03T09:22:42Z</time>
      </trkpt>
      <trkpt lat="44.88489" lon="5.09031">
        <ele>532.71</ele>
        <time>2019-03-03T09:22:48Z</time>
      </trkpt>
      <trkpt lat="44.88492" lon="5.09051">
        <ele>535.59</ele>
        <time>2019-03-03T09:23:01Z</time>
      </trkpt>
      <trkpt lat="44.88495" lon="5.09065">
        <ele>537.99</ele>
        <time>2019-03-03T09:23:15Z</time>
      </trkpt>
      <trkpt lat="44.88496" lon="5.09067">
        <ele>538.48</ele>
        <time>2019-03-03T09:23:17Z</time>
      </trkpt>
      <trkpt lat="44.88497" lon="5.09087">
        <ele>541.84</ele>
        <time>2019-03-03T09:23:31Z</time>
      </trkpt>
      <trkpt lat="44.885" lon="5.09101">
        <ele>544.24</ele>
        <time>2019-03-03T09:23:45Z</time>
      </trkpt>
      <trkpt lat="44.88502" lon="5.09119">
        <ele>547.13</ele>
        <time>2019-03-03T09:23:59Z</time>
      </trkpt>
      <trkpt lat="44.88504" lon="5.09124">
        <ele>547.61</ele>
        <time>2019-03-03T09:24:03Z</time>
      </trkpt>
      <trkpt lat="44.88512" lon="5.09137">
        <ele>550.49</ele>
        <time>2019-03-03T09:24:17Z</time>
      </trkpt>
      <trkpt lat="44.88518" lon="5.09147">
        <ele>551.45</ele>
        <time>2019-03-03T09:24:27Z</time>
      </trkpt>
      <trkpt lat="44.88528" lon="5.09161">
        <ele>553.38</ele>
        <time>2019-03-03T09:24:43Z</time>
      </trkpt>
      <trkpt lat="44.88538" lon="5.09179">
        <ele>556.26</ele>
        <time>2019-03-03T09:25:00Z</time>
      </trkpt>
      <trkpt lat="44.88544" lon="5.09191">
        <ele>558.18</ele>
        <time>2019-03-03T09:25:12Z</time>
      </trkpt>
      <trkpt lat="44.88549" lon="5.09207">
        <ele>560.59</ele>
        <time>2019-03-03T09:25:25Z</time>
      </trkpt>
      <trkpt lat="44.88558" lon="5.09219">
        <ele>563.47</ele>
        <time>2019-03-03T09:25:40Z</time>
      </trkpt>
      <trkpt lat="44.88566" lon="5.09231">
        <ele>566.35</ele>
        <time>2019-03-03T09:25:56Z</time>
      </trkpt>
      <trkpt lat="44.88569" lon="5.09244">
        <ele>568.76</ele>
        <time>2019-03-03T09:26:10Z</time>
      </trkpt>
      <trkpt lat="44.88575" lon="5.09256">
        <ele>571.64</ele>
        <time>2019-03-03T09:26:25Z</time>
      </trkpt>
      <trkpt lat="44.88579" lon="5.09271">
        <ele>575.01</ele>
        <time>2019-03-03T09:26:39Z</time>
      </trkpt>
      <trkpt lat="44.8858" lon="5.09286">
        <ele>576.93</ele>
        <time>2019-03-03T09:26:53Z</time>
      </trkpt>
      <trkpt lat="44.88581" lon="5.09297">
        <ele>578.85</ele>
        <time>2019-03-03T09:27:02Z</time>
      </trkpt>
      <trkpt lat="44.88578" lon="5.09312">
        <ele>580.29</ele>
        <time>2019-03-03T09:27:14Z</time>
      </trkpt>
      <trkpt lat="44.88573" lon="5.09331">
        <ele>581.73</ele>
        <time>2019-03-03T09:27:28Z</time>
      </trkpt>
      <trkpt lat="44.88571" lon="5.09342">
        <ele>583.18</ele>
        <time>2019-03-03T09:27:38Z</time>
      </trkpt>
      <trkpt lat="44.8857" lon="5.09345">
        <ele>583.66</ele>
        <time>2019-03-03T09:27:41Z</time>
      </trkpt>
      <trkpt lat="44.88568" lon="5.09351">
        <ele>584.14</ele>
        <time>2019-03-03T09:27:45Z</time>
      </trkpt>
      <trkpt lat="44.88564" lon="5.09368">
        <ele>585.58</ele>
        <time>2019-03-03T09:27:57Z</time>
      </trkpt>
      <trkpt lat="44.88559" lon="5.09391">
        <ele>587.02</ele>
        <time>2019-03-03T09:28:11Z</time>
      </trkpt>
      <trkpt lat="44.88558" lon="5.09394">
        <ele>587.5</ele>
        <time>2019-03-03T09:28:14Z</time>
      </trkpt>
      <trkpt lat="44.88551" lon="5.09412">
        <ele>588.95</ele>
        <time>2019-03-03T09:28:28Z</time>
      </trkpt>
      <trkpt lat="44.88548" lon="5.09419">
        <ele>589.91</ele>
        <time>2019-03-03T09:28:34Z</time>
      </trkpt>
      <trkpt lat="44.88541" lon="5.09438">
        <ele>591.83</ele>
        <time>2019-03-03T09:28:48Z</time>
      </trkpt>
      <trkpt lat="44.88532" lon="5.09455">
        <ele>593.27</ele>
        <time>2019-03-03T09:29:01Z</time>
      </trkpt>
      <trkpt lat="44.88524" lon="5.09466">
        <ele>595.19</ele>
        <time>2019-03-03T09:29:13Z</time>
      </trkpt>
      <trkpt lat="44.88515" lon="5.09479">
        <ele>595.67</ele>
        <time>2019-03-03T09:29:25Z</time>
      </trkpt>
      <trkpt lat="44.88504" lon="5.09489">
        <ele>597.6</ele>
        <time>2019-03-03T09:29:40Z</time>
      </trkpt>
      <trkpt lat="44.88493" lon="5.095">
        <ele>598.56</ele>
        <time>2019-03-03T09:29:53Z</time>
      </trkpt>
      <trkpt lat="44.88479" lon="5.09518">
        <ele>599.52</ele>
        <time>2019-03-03T09:30:05Z</time>
      </trkpt>
      <trkpt lat="44.88464" lon="5.09533">
        <ele>601.92</ele>
        <time>2019-03-03T09:30:19Z</time>
      </trkpt>
      <trkpt lat="44.88454" lon="5.09543">
        <ele>602.88</ele>
        <time>2019-03-03T09:30:33Z</time>
      </trkpt>
      <trkpt lat="44.88448" lon="5.09551">
        <ele>602.88</ele>
        <time>2019-03-03T09:30:48Z</time>
      </trkpt>
      <trkpt lat="44.88441" lon="5.09564">
        <ele>602.88</ele>
        <time>2019-03-03T09:31:01Z</time>
      </trkpt>
      <trkpt lat="44.88441" lon="5.09565">
        <ele>602.88</ele>
        <time>2019-03-03T09:31:02Z</time>
      </trkpt>
      <trkpt lat="44.88438" lon="5.09581">
        <ele>601.44</ele>
        <time>2019-03-03T09:31:17Z</time>
      </trkpt>
      <trkpt lat="44.88437" lon="5.09602">
        <ele>600.96</ele>
        <time>2019-03-03T09:31:32Z</time>
      </trkpt>
      <trkpt lat="44.88437" lon="5.09612">
        <ele>602.4</ele>
        <time>2019-03-03T09:31:40Z</time>
      </trkpt>
      <trkpt lat="44.88435" lon="5.09634">
        <ele>603.85</ele>
        <time>2019-03-03T09:31:52Z</time>
      </trkpt>
      <trkpt lat="44.88436" lon="5.09652">
        <ele>605.77</ele>
        <time>2019-03-03T09:32:04Z</time>
      </trkpt>
      <trkpt lat="44.88436" lon="5.09664">
        <ele>606.73</ele>
        <time>2019-03-03T09:32:14Z</time>
      </trkpt>
      <trkpt lat="44.88434" lon="5.09681">
        <ele>607.21</ele>
        <time>2019-03-03T09:32:28Z</time>
      </trkpt>
      <trkpt lat="44.88433" lon="5.097">
        <ele>608.65</ele>
        <time>2019-03-03T09:32:40Z</time>
      </trkpt>
      <trkpt lat="44.88429" lon="5.0972">
        <ele>609.61</ele>
        <time>2019-03-03T09:32:54Z</time>
      </trkpt>
      <trkpt lat="44.88428" lon="5.09736">
        <ele>611.06</ele>
        <time>2019-03-03T09:33:08Z</time>
      </trkpt>
      <trkpt lat="44.88424" lon="5.09755">
        <ele>612.02</ele>
        <time>2019-03-03T09:33:22Z</time>
      </trkpt>
      <trkpt lat="44.88422" lon="5.09769">
        <ele>612.02</ele>
        <time>2019-03-03T09:33:33Z</time>
      </trkpt>
      <trkpt lat="44.88423" lon="5.09788">
        <ele>612.5</ele>
        <time>2019-03-03T09:33:46Z</time>
      </trkpt>
      <trkpt lat="44.88425" lon="5.0979">
        <ele>612.5</ele>
        <time>2019-03-03T09:34:25Z</time>
      </trkpt>
      <trkpt lat="44.88426" lon="5.09794">
        <ele>612.5</ele>
        <time>2019-03-03T09:34:52Z</time>
      </trkpt>
      <trkpt lat="44.88425" lon="5.09805">
        <ele>612.5</ele>
        <time>2019-03-03T09:35:11Z</time>
      </trkpt>
      <trkpt lat="44.88423" lon="5.09811">
        <ele>612.5</ele>
        <time>2019-03-03T09:35:17Z</time>
      </trkpt>
      <trkpt lat="44.88421" lon="5.09828">
        <ele>613.46</ele>
        <time>2019-03-03T09:35:31Z</time>
      </trkpt>
      <trkpt lat="44.88421" lon="5.09844">
        <ele>614.42</ele>
        <time>2019-03-03T09:35:45Z</time>
      </trkpt>
      <trkpt lat="44.88421" lon="5.09846">
        <ele>614.42</ele>
        <time>2019-03-03T09:35:46Z</time>
      </trkpt>
      <trkpt lat="44.88416" lon="5.09862">
        <ele>616.34</ele>
        <time>2019-03-03T09:36:00Z</time>
      </trkpt>
      <trkpt lat="44.88415" lon="5.09862">
        <ele>616.34</ele>
        <time>2019-03-03T09:36:01Z</time>
      </trkpt>
      <trkpt lat="44.88407" lon="5.09878">
        <ele>619.23</ele>
        <time>2019-03-03T09:36:15Z</time>
      </trkpt>
      <trkpt lat="44.88406" lon="5.09881">
        <ele>619.71</ele>
        <time>2019-03-03T09:36:18Z</time>
      </trkpt>
      <trkpt lat="44.884" lon="5.09902">
        <ele>622.59</ele>
        <time>2019-03-03T09:36:34Z</time>
      </trkpt>
      <trkpt lat="44.88399" lon="5.09914">
        <ele>624.99</ele>
        <time>2019-03-03T09:36:46Z</time>
      </trkpt>
      <trkpt lat="44.88401" lon="5.09929">
        <ele>627.88</ele>
        <time>2019-03-03T09:37:00Z</time>
      </trkpt>
      <trkpt lat="44.88398" lon="5.09944">
        <ele>630.76</ele>
        <time>2019-03-03T09:37:13Z</time>
      </trkpt>
      <trkpt lat="44.88393" lon="5.09953">
        <ele>633.65</ele>
        <time>2019-03-03T09:37:26Z</time>
      </trkpt>
      <trkpt lat="44.88389" lon="5.09964">
        <ele>637.01</ele>
        <time>2019-03-03T09:37:40Z</time>
      </trkpt>
      <trkpt lat="44.88385" lon="5.09975">
        <ele>639.89</ele>
        <time>2019-03-03T09:37:55Z</time>
      </trkpt>
      <trkpt lat="44.88382" lon="5.09985">
        <ele>643.26</ele>
        <time>2019-03-03T09:38:09Z</time>
      </trkpt>
      <trkpt lat="44.88374" lon="5.09991">
        <ele>645.66</ele>
        <time>2019-03-03T09:38:23Z</time>
      </trkpt>
      <trkpt lat="44.88369" lon="5.10002">
        <ele>647.59</ele>
        <time>2019-03-03T09:38:40Z</time>
      </trkpt>
      <trkpt lat="44.88367" lon="5.10005">
        <ele>647.59</ele>
        <time>2019-03-03T09:38:59Z</time>
      </trkpt>
      <trkpt lat="44.88372" lon="5.10012">
        <ele>646.62</ele>
        <time>2019-03-03T09:40:45Z</time>
      </trkpt>
      <trkpt lat="44.88375" lon="5.10013">
        <ele>645.66</ele>
        <time>2019-03-03T09:40:48Z</time>
      </trkpt>
      <trkpt lat="44.88378" lon="5.10017">
        <ele>644.7</ele>
        <time>2019-03-03T09:40:53Z</time>
      </trkpt>
      <trkpt lat="44.88385" lon="5.10024">
        <ele>643.74</ele>
        <time>2019-03-03T09:41:01Z</time>
      </trkpt>
      <trkpt lat="44.88399" lon="5.10036">
        <ele>642.3</ele>
        <time>2019-03-03T09:41:17Z</time>
      </trkpt>
      <trkpt lat="44.88406" lon="5.10048">
        <ele>640.38</ele>
        <time>2019-03-03T09:41:26Z</time>
      </trkpt>
      <trkpt lat="44.88417" lon="5.10063">
        <ele>638.45</ele>
        <time>2019-03-03T09:41:41Z</time>
      </trkpt>
      <trkpt lat="44.8842" lon="5.10067">
        <ele>638.45</ele>
        <time>2019-03-03T09:41:45Z</time>
      </trkpt>
      <trkpt lat="44.88434" lon="5.10083">
        <ele>637.97</ele>
        <time>2019-03-03T09:42:00Z</time>
      </trkpt>
      <trkpt lat="44.8845" lon="5.10106">
        <ele>638.93</ele>
        <time>2019-03-03T09:42:18Z</time>
      </trkpt>
      <trkpt lat="44.8846" lon="5.10121">
        <ele>639.41</ele>
        <time>2019-03-03T09:42:32Z</time>
      </trkpt>
      <trkpt lat="44.88471" lon="5.10138">
        <ele>639.89</ele>
        <time>2019-03-03T09:42:45Z</time>
      </trkpt>
      <trkpt lat="44.88475" lon="5.10149">
        <ele>639.89</ele>
        <time>2019-03-03T09:42:52Z</time>
      </trkpt>
      <trkpt lat="44.88485" lon="5.10165">
        <ele>639.89</ele>
        <time>2019-03-03T09:43:04Z</time>
      </trkpt>
      <trkpt lat="44.88486" lon="5.10178">
        <ele>639.89</ele>
        <time>2019-03-03T09:43:13Z</time>
      </trkpt>
      <trkpt lat="44.88488" lon="5.10182">
        <ele>638.45</ele>
        <time>2019-03-03T09:43:16Z</time>
      </trkpt>
      <trkpt lat="44.88495" lon="5.10191">
        <ele>638.45</ele>
        <time>2019-03-03T09:43:24Z</time>
      </trkpt>
      <trkpt lat="44.88498" lon="5.10199">
        <ele>638.45</ele>
        <time>2019-03-03T09:43:29Z</time>
      </trkpt>
      <trkpt lat="44.88502" lon="5.10205">
        <ele>638.45</ele>
        <time>2019-03-03T09:43:34Z</time>
      </trkpt>
      <trkpt lat="44.88511" lon="5.10221">
        <ele>637.49</ele>
        <time>2019-03-03T09:43:47Z</time>
      </trkpt>
      <trkpt lat="44.88519" lon="5.10236">
        <ele>634.61</ele>
        <time>2019-03-03T09:43:59Z</time>
      </trkpt>
      <trkpt lat="44.88525" lon="5.10246">
        <ele>631.24</ele>
        <time>2019-03-03T09:44:10Z</time>
      </trkpt>
      <trkpt lat="44.88529" lon="5.10257">
        <ele>627.4</ele>
        <time>2019-03-03T09:44:22Z</time>
      </trkpt>
      <trkpt lat="44.88526" lon="5.10276">
        <ele>624.51</ele>
        <time>2019-03-03T09:44:36Z</time>
      </trkpt>
      <trkpt lat="44.88522" lon="5.10284">
        <ele>621.63</ele>
        <time>2019-03-03T09:44:43Z</time>
      </trkpt>
      <trkpt lat="44.88513" lon="5.10294">
        <ele>618.75</ele>
        <time>2019-03-03T09:44:56Z</time>
      </trkpt>
      <trkpt lat="44.88505" lon="5.10307">
        <ele>615.38</ele>
        <time>2019-03-03T09:45:09Z</time>
      </trkpt>
      <trkpt lat="44.88496" lon="5.10315">
        <ele>613.94</ele>
        <time>2019-03-03T09:45:23Z</time>
      </trkpt>
      <trkpt lat="44.88488" lon="5.10319">
        <ele>617.3</ele>
        <time>2019-03-03T09:45:33Z</time>
      </trkpt>
      <trkpt lat="44.88476" lon="5.10324">
        <ele>620.67</ele>
        <time>2019-03-03T09:45:47Z</time>
      </trkpt>
      <trkpt lat="44.88465" lon="5.10342">
        <ele>623.07</ele>
        <time>2019-03-03T09:46:02Z</time>
      </trkpt>
      <trkpt lat="44.88463" lon="5.10347">
        <ele>622.11</ele>
        <time>2019-03-03T09:46:08Z</time>
      </trkpt>
      <trkpt lat="44.88462" lon="5.10352">
        <ele>622.11</ele>
        <time>2019-03-03T09:46:23Z</time>
      </trkpt>
      <trkpt lat="44.88461" lon="5.10355">
        <ele>622.11</ele>
        <time>2019-03-03T09:46:45Z</time>
      </trkpt>
      <trkpt lat="44.88459" lon="5.10356">
        <ele>621.15</ele>
        <time>2019-03-03T09:47:32Z</time>
      </trkpt>
      <trkpt lat="44.88456" lon="5.1036">
        <ele>620.19</ele>
        <time>2019-03-03T09:47:49Z</time>
      </trkpt>
      <trkpt lat="44.88452" lon="5.10365">
        <ele>617.78</ele>
        <time>2019-03-03T09:48:05Z</time>
      </trkpt>
      <trkpt lat="44.88443" lon="5.10367">
        <ele>615.86</ele>
        <time>2019-03-03T09:48:17Z</time>
      </trkpt>
      <trkpt lat="44.88431" lon="5.10366">
        <ele>617.3</ele>
        <time>2019-03-03T09:48:31Z</time>
      </trkpt>
      <trkpt lat="44.88428" lon="5.10372">
        <ele>613.94</ele>
        <time>2019-03-03T09:48:42Z</time>
      </trkpt>
      <trkpt lat="44.88422" lon="5.10379">
        <ele>611.54</ele>
        <time>2019-03-03T09:48:55Z</time>
      </trkpt>
      <trkpt lat="44.88418" lon="5.10389">
        <ele>608.17</ele>
        <time>2019-03-03T09:49:04Z</time>
      </trkpt>
      <trkpt lat="44.88412" lon="5.104">
        <ele>604.81</ele>
        <time>2019-03-03T09:49:15Z</time>
      </trkpt>
      <trkpt lat="44.88406" lon="5.10408">
        <ele>601.44</ele>
        <time>2019-03-03T09:49:27Z</time>
      </trkpt>
      <trkpt lat="44.88397" lon="5.10415">
        <ele>599.52</ele>
        <time>2019-03-03T09:49:36Z</time>
      </trkpt>
      <trkpt lat="44.88394" lon="5.10426">
        <ele>597.12</ele>
        <time>2019-03-03T09:49:47Z</time>
      </trkpt>
      <trkpt lat="44.88391" lon="5.10434">
        <ele>595.19</ele>
        <time>2019-03-03T09:49:55Z</time>
      </trkpt>
      <trkpt lat="44.88382" lon="5.10456">
        <ele>591.83</ele>
        <time>2019-03-03T09:50:10Z</time>
      </trkpt>
      <trkpt lat="44.88373" lon="5.10478">
        <ele>590.39</ele>
        <time>2019-03-03T09:50:25Z</time>
      </trkpt>
      <trkpt lat="44.88364" lon="5.105">
        <ele>589.91</ele>
        <time>2019-03-03T09:50:40Z</time>
      </trkpt>
      <trkpt lat="44.88364" lon="5.10505">
        <ele>590.87</ele>
        <time>2019-03-03T09:50:43Z</time>
      </trkpt>
      <trkpt lat="44.88355" lon="5.10522">
        <ele>592.79</ele>
        <time>2019-03-03T09:50:55Z</time>
      </trkpt>
      <trkpt lat="44.8835" lon="5.10535">
        <ele>595.19</ele>
        <time>2019-03-03T09:51:05Z</time>
      </trkpt>
      <trkpt lat="44.88349" lon="5.10538">
        <ele>596.15</ele>
        <time>2019-03-03T09:51:07Z</time>
      </trkpt>
      <trkpt lat="44.88345" lon="5.10547">
        <ele>597.6</ele>
        <time>2019-03-03T09:51:14Z</time>
      </trkpt>
      <trkpt lat="44.88342" lon="5.10567">
        <ele>600.96</ele>
        <time>2019-03-03T09:51:28Z</time>
      </trkpt>
      <trkpt lat="44.88339" lon="5.10585">
        <ele>603.36</ele>
        <time>2019-03-03T09:51:41Z</time>
      </trkpt>
      <trkpt lat="44.88335" lon="5.10601">
        <ele>606.25</ele>
        <time>2019-03-03T09:51:55Z</time>
      </trkpt>
      <trkpt lat="44.88332" lon="5.10617">
        <ele>609.13</ele>
        <time>2019-03-03T09:52:10Z</time>
      </trkpt>
      <trkpt lat="44.88328" lon="5.10629">
        <ele>610.57</ele>
        <time>2019-03-03T09:52:22Z</time>
      </trkpt>
      <trkpt lat="44.88323" lon="5.10645">
        <ele>612.98</ele>
        <time>2019-03-03T09:52:37Z</time>
      </trkpt>
      <trkpt lat="44.88319" lon="5.1066">
        <ele>615.86</ele>
        <time>2019-03-03T09:52:53Z</time>
      </trkpt>
      <trkpt lat="44.88315" lon="5.10673">
        <ele>618.75</ele>
        <time>2019-03-03T09:53:06Z</time>
      </trkpt>
      <trkpt lat="44.88314" lon="5.10679">
        <ele>620.19</ele>
        <time>2019-03-03T09:53:11Z</time>
      </trkpt>
      <trkpt lat="44.88313" lon="5.10681">
        <ele>618.75</ele>
        <time>2019-03-03T09:53:13Z</time>
      </trkpt>
      <trkpt lat="44.88313" lon="5.10691">
        <ele>621.15</ele>
        <time>2019-03-03T09:53:22Z</time>
      </trkpt>
      <trkpt lat="44.88314" lon="5.10711">
        <ele>619.71</ele>
        <time>2019-03-03T09:53:37Z</time>
      </trkpt>
      <trkpt lat="44.88313" lon="5.10717">
        <ele>618.26</ele>
        <time>2019-03-03T09:53:42Z</time>
      </trkpt>
      <trkpt lat="44.88316" lon="5.10735">
        <ele>617.78</ele>
        <time>2019-03-03T09:53:55Z</time>
      </trkpt>
      <trkpt lat="44.88315" lon="5.10746">
        <ele>618.75</ele>
        <time>2019-03-03T09:54:01Z</time>
      </trkpt>
      <trkpt lat="44.88313" lon="5.1077">
        <ele>620.19</ele>
        <time>2019-03-03T09:54:16Z</time>
      </trkpt>
      <trkpt lat="44.88312" lon="5.1079">
        <ele>618.26</ele>
        <time>2019-03-03T09:54:29Z</time>
      </trkpt>
      <trkpt lat="44.88312" lon="5.10799">
        <ele>616.82</ele>
        <time>2019-03-03T09:54:35Z</time>
      </trkpt>
      <trkpt lat="44.88313" lon="5.10818">
        <ele>613.46</ele>
        <time>2019-03-03T09:54:46Z</time>
      </trkpt>
      <trkpt lat="44.88314" lon="5.10837">
        <ele>609.61</ele>
        <time>2019-03-03T09:54:58Z</time>
      </trkpt>
      <trkpt lat="44.88314" lon="5.10857">
        <ele>606.73</ele>
        <time>2019-03-03T09:55:10Z</time>
      </trkpt>
      <trkpt lat="44.88317" lon="5.10869">
        <ele>603.36</ele>
        <time>2019-03-03T09:55:20Z</time>
      </trkpt>
      <trkpt lat="44.88319" lon="5.10884">
        <ele>600</ele>
        <time>2019-03-03T09:55:33Z</time>
      </trkpt>
      <trkpt lat="44.8832" lon="5.10891">
        <ele>599.04</ele>
        <time>2019-03-03T09:55:37Z</time>
      </trkpt>
      <trkpt lat="44.88324" lon="5.10918">
        <ele>596.15</ele>
        <time>2019-03-03T09:55:53Z</time>
      </trkpt>
      <trkpt lat="44.88326" lon="5.10934">
        <ele>593.75</ele>
        <time>2019-03-03T09:56:02Z</time>
      </trkpt>
      <trkpt lat="44.88326" lon="5.10944">
        <ele>593.27</ele>
        <time>2019-03-03T09:56:06Z</time>
      </trkpt>
      <trkpt lat="44.8833" lon="5.10957">
        <ele>591.83</ele>
        <time>2019-03-03T09:56:14Z</time>
      </trkpt>
      <trkpt lat="44.88331" lon="5.1097">
        <ele>591.35</ele>
        <time>2019-03-03T09:56:20Z</time>
      </trkpt>
      <trkpt lat="44.8833" lon="5.10979">
        <ele>590.87</ele>
        <time>2019-03-03T09:56:23Z</time>
      </trkpt>
      <trkpt lat="44.88331" lon="5.1099">
        <ele>590.39</ele>
        <time>2019-03-03T09:56:30Z</time>
      </trkpt>
      <trkpt lat="44.88335" lon="5.11003">
        <ele>591.83</ele>
        <time>2019-03-03T09:56:40Z</time>
      </trkpt>
      <trkpt lat="44.88344" lon="5.11041">
        <ele>592.31</ele>
        <time>2019-03-03T09:56:58Z</time>
      </trkpt>
      <trkpt lat="44.88341" lon="5.11055">
        <ele>593.27</ele>
        <time>2019-03-03T09:57:10Z</time>
      </trkpt>
      <trkpt lat="44.88338" lon="5.11069">
        <ele>593.27</ele>
        <time>2019-03-03T09:57:19Z</time>
      </trkpt>
      <trkpt lat="44.88337" lon="5.1108">
        <ele>593.27</ele>
        <time>2019-03-03T09:57:24Z</time>
      </trkpt>
      <trkpt lat="44.88334" lon="5.11103">
        <ele>593.75</ele>
        <time>2019-03-03T09:57:36Z</time>
      </trkpt>
      <trkpt lat="44.88329" lon="5.11135">
        <ele>592.79</ele>
        <time>2019-03-03T09:57:52Z</time>
      </trkpt>
      <trkpt lat="44.88324" lon="5.11156">
        <ele>591.83</ele>
        <time>2019-03-03T09:58:06Z</time>
      </trkpt>
      <trkpt lat="44.88324" lon="5.11157">
        <ele>591.83</ele>
        <time>2019-03-03T09:58:07Z</time>
      </trkpt>
      <trkpt lat="44.88324" lon="5.11177">
        <ele>591.35</ele>
        <time>2019-03-03T09:58:19Z</time>
      </trkpt>
      <trkpt lat="44.88324" lon="5.11182">
        <ele>591.35</ele>
        <time>2019-03-03T09:58:22Z</time>
      </trkpt>
      <trkpt lat="44.88324" lon="5.11196">
        <ele>590.87</ele>
        <time>2019-03-03T09:58:29Z</time>
      </trkpt>
      <trkpt lat="44.88324" lon="5.11206">
        <ele>590.39</ele>
        <time>2019-03-03T09:58:35Z</time>
      </trkpt>
      <trkpt lat="44.88324" lon="5.11231">
        <ele>590.39</ele>
        <time>2019-03-03T09:58:48Z</time>
      </trkpt>
      <trkpt lat="44.88327" lon="5.11253">
        <ele>591.35</ele>
        <time>2019-03-03T09:59:02Z</time>
      </trkpt>
      <trkpt lat="44.88326" lon="5.11275">
        <ele>592.31</ele>
        <time>2019-03-03T09:59:19Z</time>
      </trkpt>
      <trkpt lat="44.88328" lon="5.11278">
        <ele>592.31</ele>
        <time>2019-03-03T09:59:40Z</time>
      </trkpt>
      <trkpt lat="44.8833" lon="5.11282">
        <ele>593.27</ele>
        <time>2019-03-03T10:02:43Z</time>
      </trkpt>
      <trkpt lat="44.88333" lon="5.11288">
        <ele>593.27</ele>
        <time>2019-03-03T10:03:08Z</time>
      </trkpt>
      <trkpt lat="44.88334" lon="5.11303">
        <ele>593.75</ele>
        <time>2019-03-03T10:03:18Z</time>
      </trkpt>
      <trkpt lat="44.8833" lon="5.11309">
        <ele>593.75</ele>
        <time>2019-03-03T10:03:25Z</time>
      </trkpt>
      <trkpt lat="44.88328" lon="5.11311">
        <ele>594.23</ele>
        <time>2019-03-03T10:03:27Z</time>
      </trkpt>
      <trkpt lat="44.88322" lon="5.11325">
        <ele>596.64</ele>
        <time>2019-03-03T10:03:39Z</time>
      </trkpt>
      <trkpt lat="44.88316" lon="5.11345">
        <ele>599.04</ele>
        <time>2019-03-03T10:03:52Z</time>
      </trkpt>
      <trkpt lat="44.88312" lon="5.11352">
        <ele>599.52</ele>
        <time>2019-03-03T10:03:54Z</time>
      </trkpt>
      <trkpt lat="44.88309" lon="5.11371">
        <ele>600.96</ele>
        <time>2019-03-03T10:04:08Z</time>
      </trkpt>
      <trkpt lat="44.88306" lon="5.11389">
        <ele>603.36</ele>
        <time>2019-03-03T10:04:21Z</time>
      </trkpt>
      <trkpt lat="44.88306" lon="5.11407">
        <ele>605.77</ele>
        <time>2019-03-03T10:04:34Z</time>
      </trkpt>
      <trkpt lat="44.88306" lon="5.11427">
        <ele>608.17</ele>
        <time>2019-03-03T10:04:44Z</time>
      </trkpt>
      <trkpt lat="44.88306" lon="5.11449">
        <ele>610.57</ele>
        <time>2019-03-03T10:04:59Z</time>
      </trkpt>
      <trkpt lat="44.88311" lon="5.11466">
        <ele>612.98</ele>
        <time>2019-03-03T10:05:10Z</time>
      </trkpt>
      <trkpt lat="44.88316" lon="5.11481">
        <ele>615.38</ele>
        <time>2019-03-03T10:05:22Z</time>
      </trkpt>
      <trkpt lat="44.88321" lon="5.11492">
        <ele>617.78</ele>
        <time>2019-03-03T10:05:33Z</time>
      </trkpt>
      <trkpt lat="44.88326" lon="5.11503">
        <ele>620.19</ele>
        <time>2019-03-03T10:05:45Z</time>
      </trkpt>
      <trkpt lat="44.88331" lon="5.11519">
        <ele>623.07</ele>
        <time>2019-03-03T10:05:58Z</time>
      </trkpt>
      <trkpt lat="44.88332" lon="5.11529">
        <ele>625.47</ele>
        <time>2019-03-03T10:06:10Z</time>
      </trkpt>
      <trkpt lat="44.88334" lon="5.11538">
        <ele>628.84</ele>
        <time>2019-03-03T10:06:23Z</time>
      </trkpt>
      <trkpt lat="44.88334" lon="5.11551">
        <ele>632.2</ele>
        <time>2019-03-03T10:06:38Z</time>
      </trkpt>
      <trkpt lat="44.88336" lon="5.11562">
        <ele>634.61</ele>
        <time>2019-03-03T10:06:51Z</time>
      </trkpt>
      <trkpt lat="44.88338" lon="5.11572">
        <ele>637.01</ele>
        <time>2019-03-03T10:07:05Z</time>
      </trkpt>
      <trkpt lat="44.8834" lon="5.11582">
        <ele>640.86</ele>
        <time>2019-03-03T10:07:20Z</time>
      </trkpt>
      <trkpt lat="44.88343" lon="5.11594">
        <ele>643.26</ele>
        <time>2019-03-03T10:07:33Z</time>
      </trkpt>
      <trkpt lat="44.88345" lon="5.11607">
        <ele>645.66</ele>
        <time>2019-03-03T10:07:47Z</time>
      </trkpt>
      <trkpt lat="44.88349" lon="5.11615">
        <ele>648.55</ele>
        <time>2019-03-03T10:08:01Z</time>
      </trkpt>
      <trkpt lat="44.88351" lon="5.11625">
        <ele>650.95</ele>
        <time>2019-03-03T10:08:13Z</time>
      </trkpt>
      <trkpt lat="44.88356" lon="5.11643">
        <ele>651.91</ele>
        <time>2019-03-03T10:08:26Z</time>
      </trkpt>
      <trkpt lat="44.88354" lon="5.1165">
        <ele>654.31</ele>
        <time>2019-03-03T10:08:39Z</time>
      </trkpt>
      <trkpt lat="44.88356" lon="5.1166">
        <ele>656.72</ele>
        <time>2019-03-03T10:08:52Z</time>
      </trkpt>
      <trkpt lat="44.88363" lon="5.11669">
        <ele>660.08</ele>
        <time>2019-03-03T10:09:04Z</time>
      </trkpt>
      <trkpt lat="44.88367" lon="5.11682">
        <ele>662.01</ele>
        <time>2019-03-03T10:09:17Z</time>
      </trkpt>
      <trkpt lat="44.88367" lon="5.11689">
        <ele>665.37</ele>
        <time>2019-03-03T10:09:30Z</time>
      </trkpt>
      <trkpt lat="44.88368" lon="5.11702">
        <ele>667.29</ele>
        <time>2019-03-03T10:09:43Z</time>
      </trkpt>
      <trkpt lat="44.88371" lon="5.11714">
        <ele>670.18</ele>
        <time>2019-03-03T10:09:58Z</time>
      </trkpt>
      <trkpt lat="44.8837" lon="5.11718">
        <ele>674.02</ele>
        <time>2019-03-03T10:10:14Z</time>
      </trkpt>
      <trkpt lat="44.88368" lon="5.11724">
        <ele>676.91</ele>
        <time>2019-03-03T10:10:29Z</time>
      </trkpt>
      <trkpt lat="44.88368" lon="5.11732">
        <ele>679.31</ele>
        <time>2019-03-03T10:10:45Z</time>
      </trkpt>
      <trkpt lat="44.88368" lon="5.11743">
        <ele>682.19</ele>
        <time>2019-03-03T10:11:02Z</time>
      </trkpt>
      <trkpt lat="44.88368" lon="5.11752">
        <ele>685.08</ele>
        <time>2019-03-03T10:11:15Z</time>
      </trkpt>
      <trkpt lat="44.88368" lon="5.11762">
        <ele>688.44</ele>
        <time>2019-03-03T10:11:30Z</time>
      </trkpt>
      <trkpt lat="44.88368" lon="5.11773">
        <ele>690.84</ele>
        <time>2019-03-03T10:11:43Z</time>
      </trkpt>
      <trkpt lat="44.88366" lon="5.1178">
        <ele>693.73</ele>
        <time>2019-03-03T10:11:57Z</time>
      </trkpt>
      <trkpt lat="44.88365" lon="5.11786">
        <ele>696.61</ele>
        <time>2019-03-03T10:12:12Z</time>
      </trkpt>
      <trkpt lat="44.88363" lon="5.11794">
        <ele>699.5</ele>
        <time>2019-03-03T10:12:27Z</time>
      </trkpt>
      <trkpt lat="44.88364" lon="5.11809">
        <ele>701.9</ele>
        <time>2019-03-03T10:12:44Z</time>
      </trkpt>
      <trkpt lat="44.88365" lon="5.11817">
        <ele>705.75</ele>
        <time>2019-03-03T10:13:00Z</time>
      </trkpt>
      <trkpt lat="44.88361" lon="5.11821">
        <ele>708.15</ele>
        <time>2019-03-03T10:13:15Z</time>
      </trkpt>
      <trkpt lat="44.8836" lon="5.11833">
        <ele>711.51</ele>
        <time>2019-03-03T10:13:33Z</time>
      </trkpt>
      <trkpt lat="44.88361" lon="5.11845">
        <ele>713.92</ele>
        <time>2019-03-03T10:13:46Z</time>
      </trkpt>
      <trkpt lat="44.8836" lon="5.1185">
        <ele>714.88</ele>
        <time>2019-03-03T10:14:00Z</time>
      </trkpt>
      <trkpt lat="44.8836" lon="5.1185">
        <ele>714.88</ele>
        <time>2019-03-03T10:14:17Z</time>
      </trkpt>
      <trkpt lat="44.88361" lon="5.11862">
        <ele>716.32</ele>
        <time>2019-03-03T10:14:31Z</time>
      </trkpt>
      <trkpt lat="44.8836" lon="5.11871">
        <ele>718.72</ele>
        <time>2019-03-03T10:14:46Z</time>
      </trkpt>
      <trkpt lat="44.88363" lon="5.1188">
        <ele>721.61</ele>
        <time>2019-03-03T10:15:01Z</time>
      </trkpt>
      <trkpt lat="44.88368" lon="5.11889">
        <ele>724.49</ele>
        <time>2019-03-03T10:15:17Z</time>
      </trkpt>
      <trkpt lat="44.88371" lon="5.11896">
        <ele>727.86</ele>
        <time>2019-03-03T10:15:32Z</time>
      </trkpt>
      <trkpt lat="44.88376" lon="5.11901">
        <ele>729.78</ele>
        <time>2019-03-03T10:15:44Z</time>
      </trkpt>
      <trkpt lat="44.88383" lon="5.11911">
        <ele>732.18</ele>
        <time>2019-03-03T10:15:59Z</time>
      </trkpt>
      <trkpt lat="44.88384" lon="5.1192">
        <ele>733.62</ele>
        <time>2019-03-03T10:16:13Z</time>
      </trkpt>
      <trkpt lat="44.88384" lon="5.11921">
        <ele>733.62</ele>
        <time>2019-03-03T10:16:26Z</time>
      </trkpt>
      <trkpt lat="44.88388" lon="5.11928">
        <ele>733.62</ele>
        <time>2019-03-03T10:16:39Z</time>
      </trkpt>
      <trkpt lat="44.88392" lon="5.11935">
        <ele>734.1</ele>
        <time>2019-03-03T10:16:55Z</time>
      </trkpt>
      <trkpt lat="44.88397" lon="5.11947">
        <ele>737.47</ele>
        <time>2019-03-03T10:17:09Z</time>
      </trkpt>
      <trkpt lat="44.884" lon="5.11957">
        <ele>739.39</ele>
        <time>2019-03-03T10:17:22Z</time>
      </trkpt>
      <trkpt lat="44.88409" lon="5.11964">
        <ele>742.76</ele>
        <time>2019-03-03T10:17:36Z</time>
      </trkpt>
      <trkpt lat="44.88416" lon="5.1197">
        <ele>744.68</ele>
        <time>2019-03-03T10:17:50Z</time>
      </trkpt>
      <trkpt lat="44.88419" lon="5.11971">
        <ele>744.68</ele>
        <time>2019-03-03T10:18:08Z</time>
      </trkpt>
      <trkpt lat="44.88423" lon="5.1197">
        <ele>746.12</ele>
        <time>2019-03-03T10:22:13Z</time>
      </trkpt>
      <trkpt lat="44.88428" lon="5.11972">
        <ele>743.24</ele>
        <time>2019-03-03T10:22:26Z</time>
      </trkpt>
      <trkpt lat="44.88434" lon="5.11976">
        <ele>743.24</ele>
        <time>2019-03-03T10:22:39Z</time>
      </trkpt>
      <trkpt lat="44.88435" lon="5.11978">
        <ele>742.76</ele>
        <time>2019-03-03T10:22:42Z</time>
      </trkpt>
      <trkpt lat="44.88441" lon="5.11989">
        <ele>743.24</ele>
        <time>2019-03-03T10:22:56Z</time>
      </trkpt>
      <trkpt lat="44.88444" lon="5.11989">
        <ele>742.28</ele>
        <time>2019-03-03T10:22:59Z</time>
      </trkpt>
      <trkpt lat="44.88453" lon="5.12002">
        <ele>739.87</ele>
        <time>2019-03-03T10:23:14Z</time>
      </trkpt>
      <trkpt lat="44.88458" lon="5.12015">
        <ele>741.31</ele>
        <time>2019-03-03T10:23:26Z</time>
      </trkpt>
      <trkpt lat="44.88475" lon="5.12027">
        <ele>742.28</ele>
        <time>2019-03-03T10:25:19Z</time>
      </trkpt>
      <trkpt lat="44.88491" lon="5.12033">
        <ele>742.28</ele>
        <time>2019-03-03T10:25:47Z</time>
      </trkpt>
      <trkpt lat="44.88501" lon="5.12032">
        <ele>742.28</ele>
        <time>2019-03-03T10:26:25Z</time>
      </trkpt>
      <trkpt lat="44.88505" lon="5.12023">
        <ele>742.76</ele>
        <time>2019-03-03T10:26:56Z</time>
      </trkpt>
      <trkpt lat="44.88505" lon="5.12015">
        <ele>743.24</ele>
        <time>2019-03-03T10:27:28Z</time>
      </trkpt>
      <trkpt lat="44.88504" lon="5.12012">
        <ele>743.72</ele>
        <time>2019-03-03T10:28:03Z</time>
      </trkpt>
      <trkpt lat="44.885" lon="5.12003">
        <ele>747.56</ele>
        <time>2019-03-03T10:32:23Z</time>
      </trkpt>
      <trkpt lat="44.88497" lon="5.12001">
        <ele>747.56</ele>
        <time>2019-03-03T10:32:46Z</time>
      </trkpt>
      <trkpt lat="44.88493" lon="5.12006">
        <ele>748.04</ele>
        <time>2019-03-03T10:33:02Z</time>
      </trkpt>
      <trkpt lat="44.88489" lon="5.12006">
        <ele>747.08</ele>
        <time>2019-03-03T10:33:15Z</time>
      </trkpt>
      <trkpt lat="44.88487" lon="5.12012">
        <ele>747.08</ele>
        <time>2019-03-03T10:33:39Z</time>
      </trkpt>
      <trkpt lat="44.88481" lon="5.12013">
        <ele>747.56</ele>
        <time>2019-03-03T10:34:06Z</time>
      </trkpt>
      <trkpt lat="44.88477" lon="5.12008">
        <ele>746.6</ele>
        <time>2019-03-03T10:34:12Z</time>
      </trkpt>
      <trkpt lat="44.88468" lon="5.12003">
        <ele>745.64</ele>
        <time>2019-03-03T10:34:26Z</time>
      </trkpt>
      <trkpt lat="44.88459" lon="5.11996">
        <ele>747.56</ele>
        <time>2019-03-03T10:34:42Z</time>
      </trkpt>
      <trkpt lat="44.8845" lon="5.11989">
        <ele>749.97</ele>
        <time>2019-03-03T10:34:57Z</time>
      </trkpt>
      <trkpt lat="44.88439" lon="5.11983">
        <ele>748.52</ele>
        <time>2019-03-03T10:35:12Z</time>
      </trkpt>
      <trkpt lat="44.88431" lon="5.11977">
        <ele>749</ele>
        <time>2019-03-03T10:35:28Z</time>
      </trkpt>
      <trkpt lat="44.88427" lon="5.11976">
        <ele>750.93</ele>
        <time>2019-03-03T10:35:42Z</time>
      </trkpt>
      <trkpt lat="44.88422" lon="5.11976">
        <ele>752.85</ele>
        <time>2019-03-03T10:35:56Z</time>
      </trkpt>
      <trkpt lat="44.88424" lon="5.1198">
        <ele>755.73</ele>
        <time>2019-03-03T10:36:14Z</time>
      </trkpt>
      <trkpt lat="44.8843" lon="5.11986">
        <ele>757.18</ele>
        <time>2019-03-03T10:36:30Z</time>
      </trkpt>
      <trkpt lat="44.88437" lon="5.11991">
        <ele>758.62</ele>
        <time>2019-03-03T10:36:46Z</time>
      </trkpt>
      <trkpt lat="44.88441" lon="5.11995">
        <ele>761.02</ele>
        <time>2019-03-03T10:37:02Z</time>
      </trkpt>
      <trkpt lat="44.88444" lon="5.12001">
        <ele>763.42</ele>
        <time>2019-03-03T10:37:19Z</time>
      </trkpt>
      <trkpt lat="44.88447" lon="5.12009">
        <ele>765.83</ele>
        <time>2019-03-03T10:37:34Z</time>
      </trkpt>
      <trkpt lat="44.88455" lon="5.12016">
        <ele>767.27</ele>
        <time>2019-03-03T10:37:48Z</time>
      </trkpt>
      <trkpt lat="44.88459" lon="5.12026">
        <ele>769.19</ele>
        <time>2019-03-03T10:38:03Z</time>
      </trkpt>
      <trkpt lat="44.88464" lon="5.12039">
        <ele>771.6</ele>
        <time>2019-03-03T10:38:19Z</time>
      </trkpt>
      <trkpt lat="44.88463" lon="5.12053">
        <ele>774.48</ele>
        <time>2019-03-03T10:38:36Z</time>
      </trkpt>
      <trkpt lat="44.8846" lon="5.12062">
        <ele>776.4</ele>
        <time>2019-03-03T10:38:53Z</time>
      </trkpt>
      <trkpt lat="44.88458" lon="5.12074">
        <ele>778.81</ele>
        <time>2019-03-03T10:39:10Z</time>
      </trkpt>
      <trkpt lat="44.8846" lon="5.12086">
        <ele>781.69</ele>
        <time>2019-03-03T10:39:28Z</time>
      </trkpt>
      <trkpt lat="44.88466" lon="5.12089">
        <ele>783.61</ele>
        <time>2019-03-03T10:39:44Z</time>
      </trkpt>
      <trkpt lat="44.88472" lon="5.12094">
        <ele>786.02</ele>
        <time>2019-03-03T10:39:58Z</time>
      </trkpt>
      <trkpt lat="44.88475" lon="5.12101">
        <ele>788.42</ele>
        <time>2019-03-03T10:40:13Z</time>
      </trkpt>
      <trkpt lat="44.88473" lon="5.12105">
        <ele>790.34</ele>
        <time>2019-03-03T10:40:29Z</time>
      </trkpt>
      <trkpt lat="44.88469" lon="5.12105">
        <ele>792.26</ele>
        <time>2019-03-03T10:40:44Z</time>
      </trkpt>
      <trkpt lat="44.88467" lon="5.12109">
        <ele>793.71</ele>
        <time>2019-03-03T10:41:01Z</time>
      </trkpt>
      <trkpt lat="44.88464" lon="5.1211">
        <ele>795.15</ele>
        <time>2019-03-03T10:41:20Z</time>
      </trkpt>
      <trkpt lat="44.88465" lon="5.12111">
        <ele>796.11</ele>
        <time>2019-03-03T10:41:36Z</time>
      </trkpt>
      <trkpt lat="44.88458" lon="5.12112">
        <ele>798.99</ele>
        <time>2019-03-03T10:41:50Z</time>
      </trkpt>
      <trkpt lat="44.88452" lon="5.12114">
        <ele>802.36</ele>
        <time>2019-03-03T10:42:04Z</time>
      </trkpt>
      <trkpt lat="44.88449" lon="5.12115">
        <ele>802.84</ele>
        <time>2019-03-03T10:42:20Z</time>
      </trkpt>
      <trkpt lat="44.8845" lon="5.12117">
        <ele>803.32</ele>
        <time>2019-03-03T10:42:39Z</time>
      </trkpt>
      <trkpt lat="44.88449" lon="5.12119">
        <ele>803.8</ele>
        <time>2019-03-03T10:43:01Z</time>
      </trkpt>
      <trkpt lat="44.88446" lon="5.12118">
        <ele>803.8</ele>
        <time>2019-03-03T10:43:17Z</time>
      </trkpt>
      <trkpt lat="44.88444" lon="5.12116">
        <ele>803.8</ele>
        <time>2019-03-03T10:43:40Z</time>
      </trkpt>
      <trkpt lat="44.88437" lon="5.12118">
        <ele>805.24</ele>
        <time>2019-03-03T10:43:55Z</time>
      </trkpt>
      <trkpt lat="44.8843" lon="5.12128">
        <ele>807.64</ele>
        <time>2019-03-03T10:44:10Z</time>
      </trkpt>
      <trkpt lat="44.88423" lon="5.12135">
        <ele>810.53</ele>
        <time>2019-03-03T10:44:24Z</time>
      </trkpt>
      <trkpt lat="44.88409" lon="5.12138">
        <ele>811.97</ele>
        <time>2019-03-03T10:44:39Z</time>
      </trkpt>
      <trkpt lat="44.88393" lon="5.12141">
        <ele>813.41</ele>
        <time>2019-03-03T10:44:56Z</time>
      </trkpt>
      <trkpt lat="44.88384" lon="5.12143">
        <ele>814.37</ele>
        <time>2019-03-03T10:45:08Z</time>
      </trkpt>
      <trkpt lat="44.88375" lon="5.12142">
        <ele>814.85</ele>
        <time>2019-03-03T10:45:21Z</time>
      </trkpt>
      <trkpt lat="44.88361" lon="5.1215">
        <ele>816.3</ele>
        <time>2019-03-03T10:45:36Z</time>
      </trkpt>
      <trkpt lat="44.88353" lon="5.12154">
        <ele>816.3</ele>
        <time>2019-03-03T10:45:44Z</time>
      </trkpt>
      <trkpt lat="44.8835" lon="5.12155">
        <ele>816.78</ele>
        <time>2019-03-03T10:45:47Z</time>
      </trkpt>
      <trkpt lat="44.88335" lon="5.12162">
        <ele>816.78</ele>
        <time>2019-03-03T10:46:03Z</time>
      </trkpt>
      <trkpt lat="44.88333" lon="5.12155">
        <ele>816.78</ele>
        <time>2019-03-03T10:46:15Z</time>
      </trkpt>
      <trkpt lat="44.88332" lon="5.12152">
        <ele>815.34</ele>
        <time>2019-03-03T10:46:18Z</time>
      </trkpt>
      <trkpt lat="44.88326" lon="5.12138">
        <ele>812.93</ele>
        <time>2019-03-03T10:46:31Z</time>
      </trkpt>
      <trkpt lat="44.88326" lon="5.12137">
        <ele>812.93</ele>
        <time>2019-03-03T10:46:32Z</time>
      </trkpt>
      <trkpt lat="44.88322" lon="5.12131">
        <ele>812.93</ele>
        <time>2019-03-03T10:46:36Z</time>
      </trkpt>
      <trkpt lat="44.88318" lon="5.12127">
        <ele>811.97</ele>
        <time>2019-03-03T10:46:41Z</time>
      </trkpt>
      <trkpt lat="44.8831" lon="5.12123">
        <ele>811.97</ele>
        <time>2019-03-03T10:46:48Z</time>
      </trkpt>
      <trkpt lat="44.8829" lon="5.12119">
        <ele>811.97</ele>
        <time>2019-03-03T10:47:04Z</time>
      </trkpt>
      <trkpt lat="44.88287" lon="5.12116">
        <ele>811.97</ele>
        <time>2019-03-03T10:47:08Z</time>
      </trkpt>
      <trkpt lat="44.88276" lon="5.12104">
        <ele>811.49</ele>
        <time>2019-03-03T10:47:21Z</time>
      </trkpt>
      <trkpt lat="44.88274" lon="5.12101">
        <ele>811.49</ele>
        <time>2019-03-03T10:47:24Z</time>
      </trkpt>
      <trkpt lat="44.88265" lon="5.12102">
        <ele>812.93</ele>
        <time>2019-03-03T10:47:38Z</time>
      </trkpt>
      <trkpt lat="44.88255" lon="5.12102">
        <ele>814.37</ele>
        <time>2019-03-03T10:47:52Z</time>
      </trkpt>
      <trkpt lat="44.88241" lon="5.12104">
        <ele>818.22</ele>
        <time>2019-03-03T10:48:53Z</time>
      </trkpt>
      <trkpt lat="44.88238" lon="5.12103">
        <ele>818.22</ele>
        <time>2019-03-03T10:49:35Z</time>
      </trkpt>
      <trkpt lat="44.88238" lon="5.12103">
        <ele>818.22</ele>
        <time>2019-03-03T10:50:21Z</time>
      </trkpt>
      <trkpt lat="44.88244" lon="5.12105">
        <ele>818.22</ele>
        <time>2019-03-03T10:50:40Z</time>
      </trkpt>
      <trkpt lat="44.88245" lon="5.12106">
        <ele>818.22</ele>
        <time>2019-03-03T10:51:04Z</time>
      </trkpt>
      <trkpt lat="44.88249" lon="5.12106">
        <ele>816.78</ele>
        <time>2019-03-03T10:51:14Z</time>
      </trkpt>
      <trkpt lat="44.8826" lon="5.12104">
        <ele>814.37</ele>
        <time>2019-03-03T10:51:28Z</time>
      </trkpt>
      <trkpt lat="44.88262" lon="5.12095">
        <ele>812.93</ele>
        <time>2019-03-03T10:51:40Z</time>
      </trkpt>
      <trkpt lat="44.88262" lon="5.12094">
        <ele>812.45</ele>
        <time>2019-03-03T10:51:41Z</time>
      </trkpt>
      <trkpt lat="44.88262" lon="5.1209">
        <ele>811.97</ele>
        <time>2019-03-03T10:51:44Z</time>
      </trkpt>
      <trkpt lat="44.88261" lon="5.12075">
        <ele>810.05</ele>
        <time>2019-03-03T10:51:59Z</time>
      </trkpt>
      <trkpt lat="44.88258" lon="5.12078">
        <ele>807.64</ele>
        <time>2019-03-03T10:52:15Z</time>
      </trkpt>
      <trkpt lat="44.88255" lon="5.1208">
        <ele>805.72</ele>
        <time>2019-03-03T10:52:34Z</time>
      </trkpt>
      <trkpt lat="44.8825" lon="5.12086">
        <ele>803.8</ele>
        <time>2019-03-03T10:52:50Z</time>
      </trkpt>
      <trkpt lat="44.88247" lon="5.12089">
        <ele>803.8</ele>
        <time>2019-03-03T10:53:06Z</time>
      </trkpt>
      <trkpt lat="44.88241" lon="5.12093">
        <ele>801.88</ele>
        <time>2019-03-03T10:53:22Z</time>
      </trkpt>
      <trkpt lat="44.88242" lon="5.12089">
        <ele>801.88</ele>
        <time>2019-03-03T10:53:40Z</time>
      </trkpt>
      <trkpt lat="44.8824" lon="5.12088">
        <ele>801.88</ele>
        <time>2019-03-03T10:53:55Z</time>
      </trkpt>
      <trkpt lat="44.88238" lon="5.12089">
        <ele>801.88</ele>
        <time>2019-03-03T10:54:22Z</time>
      </trkpt>
      <trkpt lat="44.88237" lon="5.12081">
        <ele>801.88</ele>
        <time>2019-03-03T10:54:43Z</time>
      </trkpt>
      <trkpt lat="44.88238" lon="5.12082">
        <ele>801.88</ele>
        <time>2019-03-03T10:55:03Z</time>
      </trkpt>
      <trkpt lat="44.88239" lon="5.12075">
        <ele>803.32</ele>
        <time>2019-03-03T10:55:20Z</time>
      </trkpt>
      <trkpt lat="44.88243" lon="5.12061">
        <ele>803.32</ele>
        <time>2019-03-03T10:55:41Z</time>
      </trkpt>
      <trkpt lat="44.88243" lon="5.1206">
        <ele>802.84</ele>
        <time>2019-03-03T10:56:03Z</time>
      </trkpt>
      <trkpt lat="44.88248" lon="5.12052">
        <ele>802.84</ele>
        <time>2019-03-03T10:56:25Z</time>
      </trkpt>
      <trkpt lat="44.88248" lon="5.12054">
        <ele>802.84</ele>
        <time>2019-03-03T10:56:54Z</time>
      </trkpt>
      <trkpt lat="44.88247" lon="5.1206">
        <ele>802.84</ele>
        <time>2019-03-03T10:57:09Z</time>
      </trkpt>
      <trkpt lat="44.88249" lon="5.12066">
        <ele>804.28</ele>
        <time>2019-03-03T10:57:26Z</time>
      </trkpt>
      <trkpt lat="44.88253" lon="5.12079">
        <ele>805.72</ele>
        <time>2019-03-03T10:57:42Z</time>
      </trkpt>
      <trkpt lat="44.88257" lon="5.12076">
        <ele>808.61</ele>
        <time>2019-03-03T10:57:57Z</time>
      </trkpt>
      <trkpt lat="44.88261" lon="5.12069">
        <ele>811.49</ele>
        <time>2019-03-03T10:58:09Z</time>
      </trkpt>
      <trkpt lat="44.88267" lon="5.12081">
        <ele>812.45</ele>
        <time>2019-03-03T10:58:19Z</time>
      </trkpt>
      <trkpt lat="44.88265" lon="5.12099">
        <ele>814.37</ele>
        <time>2019-03-03T10:58:35Z</time>
      </trkpt>
      <trkpt lat="44.88261" lon="5.12107">
        <ele>815.34</ele>
        <time>2019-03-03T10:58:47Z</time>
      </trkpt>
      <trkpt lat="44.88256" lon="5.1211">
        <ele>812.93</ele>
        <time>2019-03-03T10:59:02Z</time>
      </trkpt>
      <trkpt lat="44.8825" lon="5.12112">
        <ele>811.49</ele>
        <time>2019-03-03T10:59:15Z</time>
      </trkpt>
      <trkpt lat="44.88249" lon="5.12111">
        <ele>811.49</ele>
        <time>2019-03-03T10:59:38Z</time>
      </trkpt>
      <trkpt lat="44.88248" lon="5.12114">
        <ele>811.49</ele>
        <time>2019-03-03T10:59:54Z</time>
      </trkpt>
      <trkpt lat="44.88255" lon="5.12113">
        <ele>813.89</ele>
        <time>2019-03-03T11:02:06Z</time>
      </trkpt>
      <trkpt lat="44.88262" lon="5.12102">
        <ele>814.85</ele>
        <time>2019-03-03T11:02:20Z</time>
      </trkpt>
      <trkpt lat="44.88262" lon="5.12093">
        <ele>813.89</ele>
        <time>2019-03-03T11:02:27Z</time>
      </trkpt>
      <trkpt lat="44.88263" lon="5.12091">
        <ele>813.89</ele>
        <time>2019-03-03T11:02:28Z</time>
      </trkpt>
      <trkpt lat="44.88262" lon="5.12072">
        <ele>811.49</ele>
        <time>2019-03-03T11:02:43Z</time>
      </trkpt>
      <trkpt lat="44.88261" lon="5.12062">
        <ele>811.01</ele>
        <time>2019-03-03T11:05:45Z</time>
      </trkpt>
      <trkpt lat="44.88259" lon="5.12051">
        <ele>809.09</ele>
        <time>2019-03-03T11:05:54Z</time>
      </trkpt>
      <trkpt lat="44.88267" lon="5.12042">
        <ele>807.64</ele>
        <time>2019-03-03T11:06:08Z</time>
      </trkpt>
      <trkpt lat="44.88272" lon="5.1204">
        <ele>806.2</ele>
        <time>2019-03-03T11:06:15Z</time>
      </trkpt>
      <trkpt lat="44.88283" lon="5.12026">
        <ele>803.8</ele>
        <time>2019-03-03T11:06:28Z</time>
      </trkpt>
      <trkpt lat="44.88284" lon="5.12022">
        <ele>802.84</ele>
        <time>2019-03-03T11:06:32Z</time>
      </trkpt>
      <trkpt lat="44.88288" lon="5.12012">
        <ele>801.4</ele>
        <time>2019-03-03T11:07:18Z</time>
      </trkpt>
      <trkpt lat="44.8829" lon="5.12006">
        <ele>800.44</ele>
        <time>2019-03-03T11:07:34Z</time>
      </trkpt>
      <trkpt lat="44.8829" lon="5.11999">
        <ele>799.47</ele>
        <time>2019-03-03T11:07:50Z</time>
      </trkpt>
      <trkpt lat="44.88286" lon="5.11986">
        <ele>798.99</ele>
        <time>2019-03-03T11:08:04Z</time>
      </trkpt>
      <trkpt lat="44.88286" lon="5.11981">
        <ele>798.99</ele>
        <time>2019-03-03T11:08:19Z</time>
      </trkpt>
      <trkpt lat="44.88284" lon="5.11977">
        <ele>798.51</ele>
        <time>2019-03-03T11:08:35Z</time>
      </trkpt>
      <trkpt lat="44.88281" lon="5.11972">
        <ele>798.03</ele>
        <time>2019-03-03T11:08:52Z</time>
      </trkpt>
      <trkpt lat="44.88277" lon="5.11966">
        <ele>798.03</ele>
        <time>2019-03-03T11:09:06Z</time>
      </trkpt>
      <trkpt lat="44.88269" lon="5.11964">
        <ele>798.03</ele>
        <time>2019-03-03T11:09:15Z</time>
      </trkpt>
      <trkpt lat="44.88256" lon="5.11955">
        <ele>798.03</ele>
        <time>2019-03-03T11:09:26Z</time>
      </trkpt>
      <trkpt lat="44.88239" lon="5.1195">
        <ele>798.03</ele>
        <time>2019-03-03T11:09:41Z</time>
      </trkpt>
      <trkpt lat="44.88236" lon="5.11947">
        <ele>798.03</ele>
        <time>2019-03-03T11:09:45Z</time>
      </trkpt>
      <trkpt lat="44.88222" lon="5.11934">
        <ele>799.47</ele>
        <time>2019-03-03T11:10:00Z</time>
      </trkpt>
      <trkpt lat="44.88213" lon="5.11924">
        <ele>799.95</ele>
        <time>2019-03-03T11:10:14Z</time>
      </trkpt>
      <trkpt lat="44.88214" lon="5.11923">
        <ele>798.51</ele>
        <time>2019-03-03T11:11:27Z</time>
      </trkpt>
      <trkpt lat="44.88219" lon="5.11927">
        <ele>799.47</ele>
        <time>2019-03-03T11:11:41Z</time>
      </trkpt>
      <trkpt lat="44.88222" lon="5.11931">
        <ele>798.99</ele>
        <time>2019-03-03T11:13:00Z</time>
      </trkpt>
      <trkpt lat="44.88236" lon="5.11942">
        <ele>798.51</ele>
        <time>2019-03-03T11:13:14Z</time>
      </trkpt>
      <trkpt lat="44.88253" lon="5.11953">
        <ele>798.03</ele>
        <time>2019-03-03T11:13:29Z</time>
      </trkpt>
      <trkpt lat="44.88257" lon="5.11958">
        <ele>798.03</ele>
        <time>2019-03-03T11:13:33Z</time>
      </trkpt>
      <trkpt lat="44.88267" lon="5.11962">
        <ele>798.03</ele>
        <time>2019-03-03T11:13:41Z</time>
      </trkpt>
      <trkpt lat="44.88277" lon="5.11965">
        <ele>797.07</ele>
        <time>2019-03-03T11:13:52Z</time>
      </trkpt>
      <trkpt lat="44.88289" lon="5.11972">
        <ele>796.59</ele>
        <time>2019-03-03T11:14:05Z</time>
      </trkpt>
      <trkpt lat="44.88306" lon="5.11979">
        <ele>796.59</ele>
        <time>2019-03-03T11:14:19Z</time>
      </trkpt>
      <trkpt lat="44.88308" lon="5.1198">
        <ele>796.59</ele>
        <time>2019-03-03T11:14:20Z</time>
      </trkpt>
      <trkpt lat="44.88314" lon="5.11983">
        <ele>798.03</ele>
        <time>2019-03-03T11:14:24Z</time>
      </trkpt>
      <trkpt lat="44.88317" lon="5.11985">
        <ele>798.51</ele>
        <time>2019-03-03T11:14:26Z</time>
      </trkpt>
      <trkpt lat="44.88331" lon="5.11988">
        <ele>798.51</ele>
        <time>2019-03-03T11:14:38Z</time>
      </trkpt>
      <trkpt lat="44.88337" lon="5.11992">
        <ele>799.47</ele>
        <time>2019-03-03T11:14:43Z</time>
      </trkpt>
      <trkpt lat="44.88343" lon="5.12004">
        <ele>800.44</ele>
        <time>2019-03-03T11:14:49Z</time>
      </trkpt>
      <trkpt lat="44.88345" lon="5.12012">
        <ele>800.92</ele>
        <time>2019-03-03T11:14:53Z</time>
      </trkpt>
      <trkpt lat="44.88345" lon="5.12017">
        <ele>801.4</ele>
        <time>2019-03-03T11:14:56Z</time>
      </trkpt>
      <trkpt lat="44.88344" lon="5.12024">
        <ele>802.84</ele>
        <time>2019-03-03T11:15:00Z</time>
      </trkpt>
      <trkpt lat="44.88343" lon="5.12032">
        <ele>803.8</ele>
        <time>2019-03-03T11:15:04Z</time>
      </trkpt>
      <trkpt lat="44.88323" lon="5.12051">
        <ele>805.24</ele>
        <time>2019-03-03T11:15:22Z</time>
      </trkpt>
      <trkpt lat="44.88302" lon="5.1206">
        <ele>806.2</ele>
        <time>2019-03-03T11:15:39Z</time>
      </trkpt>
      <trkpt lat="44.88287" lon="5.12064">
        <ele>807.64</ele>
        <time>2019-03-03T11:15:51Z</time>
      </trkpt>
      <trkpt lat="44.88275" lon="5.12069">
        <ele>809.57</ele>
        <time>2019-03-03T11:16:03Z</time>
      </trkpt>
      <trkpt lat="44.88263" lon="5.12068">
        <ele>810.53</ele>
        <time>2019-03-03T11:16:19Z</time>
      </trkpt>
      <trkpt lat="44.88263" lon="5.1207">
        <ele>810.53</ele>
        <time>2019-03-03T11:16:35Z</time>
      </trkpt>
      <trkpt lat="44.88267" lon="5.12072">
        <ele>812.93</ele>
        <time>2019-03-03T11:23:09Z</time>
      </trkpt>
      <trkpt lat="44.88276" lon="5.12081">
        <ele>812.93</ele>
        <time>2019-03-03T11:23:21Z</time>
      </trkpt>
      <trkpt lat="44.88279" lon="5.12084">
        <ele>813.41</ele>
        <time>2019-03-03T11:23:25Z</time>
      </trkpt>
      <trkpt lat="44.88289" lon="5.1209">
        <ele>813.41</ele>
        <time>2019-03-03T11:23:37Z</time>
      </trkpt>
      <trkpt lat="44.88298" lon="5.12094">
        <ele>811.97</ele>
        <time>2019-03-03T11:23:45Z</time>
      </trkpt>
      <trkpt lat="44.88305" lon="5.12099">
        <ele>811.97</ele>
        <time>2019-03-03T11:23:51Z</time>
      </trkpt>
      <trkpt lat="44.8832" lon="5.1211">
        <ele>814.37</ele>
        <time>2019-03-03T11:24:06Z</time>
      </trkpt>
      <trkpt lat="44.88326" lon="5.12121">
        <ele>814.85</ele>
        <time>2019-03-03T11:24:15Z</time>
      </trkpt>
      <trkpt lat="44.88329" lon="5.12136">
        <ele>815.82</ele>
        <time>2019-03-03T11:24:29Z</time>
      </trkpt>
      <trkpt lat="44.88332" lon="5.12148">
        <ele>817.26</ele>
        <time>2019-03-03T11:24:42Z</time>
      </trkpt>
      <trkpt lat="44.88335" lon="5.12161">
        <ele>819.18</ele>
        <time>2019-03-03T11:24:53Z</time>
      </trkpt>
      <trkpt lat="44.88336" lon="5.12179">
        <ele>822.06</ele>
        <time>2019-03-03T11:25:07Z</time>
      </trkpt>
      <trkpt lat="44.88338" lon="5.12191">
        <ele>823.51</ele>
        <time>2019-03-03T11:25:19Z</time>
      </trkpt>
      <trkpt lat="44.88345" lon="5.12195">
        <ele>824.47</ele>
        <time>2019-03-03T11:25:31Z</time>
      </trkpt>
      <trkpt lat="44.88352" lon="5.122">
        <ele>825.43</ele>
        <time>2019-03-03T11:25:41Z</time>
      </trkpt>
      <trkpt lat="44.88363" lon="5.12211">
        <ele>826.87</ele>
        <time>2019-03-03T11:25:55Z</time>
      </trkpt>
      <trkpt lat="44.88367" lon="5.12217">
        <ele>827.83</ele>
        <time>2019-03-03T11:26:01Z</time>
      </trkpt>
      <trkpt lat="44.88369" lon="5.1222">
        <ele>828.31</ele>
        <time>2019-03-03T11:26:04Z</time>
      </trkpt>
      <trkpt lat="44.88376" lon="5.12234">
        <ele>829.76</ele>
        <time>2019-03-03T11:26:17Z</time>
      </trkpt>
      <trkpt lat="44.88382" lon="5.12246">
        <ele>831.68</ele>
        <time>2019-03-03T11:26:32Z</time>
      </trkpt>
      <trkpt lat="44.88389" lon="5.12259">
        <ele>833.12</ele>
        <time>2019-03-03T11:26:45Z</time>
      </trkpt>
      <trkpt lat="44.88397" lon="5.12271">
        <ele>836</ele>
        <time>2019-03-03T11:26:59Z</time>
      </trkpt>
      <trkpt lat="44.88405" lon="5.12285">
        <ele>838.41</ele>
        <time>2019-03-03T11:27:13Z</time>
      </trkpt>
      <trkpt lat="44.88411" lon="5.12297">
        <ele>841.29</ele>
        <time>2019-03-03T11:27:28Z</time>
      </trkpt>
      <trkpt lat="44.88416" lon="5.1231">
        <ele>844.18</ele>
        <time>2019-03-03T11:27:45Z</time>
      </trkpt>
      <trkpt lat="44.88418" lon="5.12312">
        <ele>845.14</ele>
        <time>2019-03-03T11:27:49Z</time>
      </trkpt>
      <trkpt lat="44.8842" lon="5.12314">
        <ele>845.62</ele>
        <time>2019-03-03T11:27:52Z</time>
      </trkpt>
      <trkpt lat="44.88427" lon="5.12316">
        <ele>847.06</ele>
        <time>2019-03-03T11:28:02Z</time>
      </trkpt>
      <trkpt lat="44.88432" lon="5.12325">
        <ele>849.46</ele>
        <time>2019-03-03T11:28:16Z</time>
      </trkpt>
      <trkpt lat="44.88436" lon="5.12336">
        <ele>851.87</ele>
        <time>2019-03-03T11:28:30Z</time>
      </trkpt>
      <trkpt lat="44.88434" lon="5.12343">
        <ele>853.79</ele>
        <time>2019-03-03T11:28:44Z</time>
      </trkpt>
      <trkpt lat="44.88434" lon="5.12349">
        <ele>855.23</ele>
        <time>2019-03-03T11:28:59Z</time>
      </trkpt>
      <trkpt lat="44.88445" lon="5.12359">
        <ele>857.63</ele>
        <time>2019-03-03T11:29:15Z</time>
      </trkpt>
      <trkpt lat="44.88451" lon="5.1237">
        <ele>859.56</ele>
        <time>2019-03-03T11:29:31Z</time>
      </trkpt>
      <trkpt lat="44.88453" lon="5.12372">
        <ele>860.52</ele>
        <time>2019-03-03T11:29:46Z</time>
      </trkpt>
      <trkpt lat="44.8846" lon="5.12371">
        <ele>861.48</ele>
        <time>2019-03-03T11:30:01Z</time>
      </trkpt>
      <trkpt lat="44.8847" lon="5.12377">
        <ele>861.48</ele>
        <time>2019-03-03T11:30:14Z</time>
      </trkpt>
      <trkpt lat="44.88481" lon="5.12387">
        <ele>863.88</ele>
        <time>2019-03-03T11:30:28Z</time>
      </trkpt>
      <trkpt lat="44.8849" lon="5.12395">
        <ele>865.32</ele>
        <time>2019-03-03T11:30:41Z</time>
      </trkpt>
      <trkpt lat="44.88495" lon="5.12405">
        <ele>866.77</ele>
        <time>2019-03-03T11:30:55Z</time>
      </trkpt>
      <trkpt lat="44.885" lon="5.12417">
        <ele>868.21</ele>
        <time>2019-03-03T11:31:10Z</time>
      </trkpt>
      <trkpt lat="44.88507" lon="5.12421">
        <ele>868.69</ele>
        <time>2019-03-03T11:31:24Z</time>
      </trkpt>
      <trkpt lat="44.88516" lon="5.12419">
        <ele>866.29</ele>
        <time>2019-03-03T11:31:40Z</time>
      </trkpt>
      <trkpt lat="44.8852" lon="5.12423">
        <ele>865.32</ele>
        <time>2019-03-03T11:31:49Z</time>
      </trkpt>
      <trkpt lat="44.88523" lon="5.12428">
        <ele>864.84</ele>
        <time>2019-03-03T11:31:53Z</time>
      </trkpt>
      <trkpt lat="44.88523" lon="5.12436">
        <ele>866.29</ele>
        <time>2019-03-03T11:31:59Z</time>
      </trkpt>
      <trkpt lat="44.88524" lon="5.12441">
        <ele>866.77</ele>
        <time>2019-03-03T11:32:03Z</time>
      </trkpt>
      <trkpt lat="44.88526" lon="5.12457">
        <ele>869.17</ele>
        <time>2019-03-03T11:32:17Z</time>
      </trkpt>
      <trkpt lat="44.88529" lon="5.12472">
        <ele>869.65</ele>
        <time>2019-03-03T11:32:31Z</time>
      </trkpt>
      <trkpt lat="44.8853" lon="5.12477">
        <ele>870.13</ele>
        <time>2019-03-03T11:32:35Z</time>
      </trkpt>
      <trkpt lat="44.88535" lon="5.12495">
        <ele>870.61</ele>
        <time>2019-03-03T11:32:51Z</time>
      </trkpt>
      <trkpt lat="44.88539" lon="5.12511">
        <ele>871.57</ele>
        <time>2019-03-03T11:33:06Z</time>
      </trkpt>
      <trkpt lat="44.88538" lon="5.12524">
        <ele>873.01</ele>
        <time>2019-03-03T11:33:19Z</time>
      </trkpt>
      <trkpt lat="44.88543" lon="5.12535">
        <ele>873.01</ele>
        <time>2019-03-03T11:33:31Z</time>
      </trkpt>
      <trkpt lat="44.88542" lon="5.12549">
        <ele>873.98</ele>
        <time>2019-03-03T11:33:44Z</time>
      </trkpt>
      <trkpt lat="44.88541" lon="5.1256">
        <ele>875.42</ele>
        <time>2019-03-03T11:33:57Z</time>
      </trkpt>
      <trkpt lat="44.8854" lon="5.12576">
        <ele>876.86</ele>
        <time>2019-03-03T11:34:10Z</time>
      </trkpt>
      <trkpt lat="44.8854" lon="5.12594">
        <ele>879.26</ele>
        <time>2019-03-03T11:34:27Z</time>
      </trkpt>
      <trkpt lat="44.88541" lon="5.12601">
        <ele>880.71</ele>
        <time>2019-03-03T11:34:34Z</time>
      </trkpt>
      <trkpt lat="44.88549" lon="5.12618">
        <ele>882.63</ele>
        <time>2019-03-03T11:34:51Z</time>
      </trkpt>
      <trkpt lat="44.88548" lon="5.12634">
        <ele>885.51</ele>
        <time>2019-03-03T11:35:06Z</time>
      </trkpt>
      <trkpt lat="44.88545" lon="5.12642">
        <ele>886.95</ele>
        <time>2019-03-03T11:35:20Z</time>
      </trkpt>
      <trkpt lat="44.88548" lon="5.1265">
        <ele>888.4</ele>
        <time>2019-03-03T11:35:33Z</time>
      </trkpt>
      <trkpt lat="44.88554" lon="5.12663">
        <ele>890.32</ele>
        <time>2019-03-03T11:35:46Z</time>
      </trkpt>
      <trkpt lat="44.88558" lon="5.12669">
        <ele>891.28</ele>
        <time>2019-03-03T11:35:54Z</time>
      </trkpt>
      <trkpt lat="44.8856" lon="5.12674">
        <ele>892.24</ele>
        <time>2019-03-03T11:35:58Z</time>
      </trkpt>
      <trkpt lat="44.88562" lon="5.12676">
        <ele>892.72</ele>
        <time>2019-03-03T11:36:01Z</time>
      </trkpt>
      <trkpt lat="44.88573" lon="5.12686">
        <ele>894.64</ele>
        <time>2019-03-03T11:36:17Z</time>
      </trkpt>
      <trkpt lat="44.88579" lon="5.12692">
        <ele>895.61</ele>
        <time>2019-03-03T11:36:24Z</time>
      </trkpt>
      <trkpt lat="44.88589" lon="5.12707">
        <ele>897.53</ele>
        <time>2019-03-03T11:36:39Z</time>
      </trkpt>
      <trkpt lat="44.88598" lon="5.12718">
        <ele>898.97</ele>
        <time>2019-03-03T11:36:52Z</time>
      </trkpt>
      <trkpt lat="44.88609" lon="5.12729">
        <ele>899.93</ele>
        <time>2019-03-03T11:37:05Z</time>
      </trkpt>
      <trkpt lat="44.8862" lon="5.12742">
        <ele>901.85</ele>
        <time>2019-03-03T11:37:19Z</time>
      </trkpt>
      <trkpt lat="44.88628" lon="5.12754">
        <ele>903.78</ele>
        <time>2019-03-03T11:37:32Z</time>
      </trkpt>
      <trkpt lat="44.88631" lon="5.1276">
        <ele>904.74</ele>
        <time>2019-03-03T11:37:37Z</time>
      </trkpt>
      <trkpt lat="44.88637" lon="5.12774">
        <ele>906.18</ele>
        <time>2019-03-03T11:37:51Z</time>
      </trkpt>
      <trkpt lat="44.88646" lon="5.12787">
        <ele>907.62</ele>
        <time>2019-03-03T11:38:06Z</time>
      </trkpt>
      <trkpt lat="44.88658" lon="5.128">
        <ele>908.58</ele>
        <time>2019-03-03T11:38:22Z</time>
      </trkpt>
      <trkpt lat="44.88667" lon="5.1281">
        <ele>908.58</ele>
        <time>2019-03-03T11:38:40Z</time>
      </trkpt>
      <trkpt lat="44.8867" lon="5.1281">
        <ele>908.58</ele>
        <time>2019-03-03T11:38:43Z</time>
      </trkpt>
      <trkpt lat="44.8868" lon="5.12811">
        <ele>909.54</ele>
        <time>2019-03-03T11:38:57Z</time>
      </trkpt>
      <trkpt lat="44.88691" lon="5.12816">
        <ele>909.54</ele>
        <time>2019-03-03T11:39:11Z</time>
      </trkpt>
      <trkpt lat="44.88699" lon="5.12817">
        <ele>909.54</ele>
        <time>2019-03-03T11:39:25Z</time>
      </trkpt>
      <trkpt lat="44.88704" lon="5.12821">
        <ele>912.91</ele>
        <time>2019-03-03T12:27:40Z</time>
      </trkpt>
      <trkpt lat="44.88705" lon="5.12822">
        <ele>912.43</ele>
        <time>2019-03-03T12:27:57Z</time>
      </trkpt>
      <trkpt lat="44.88712" lon="5.12831">
        <ele>910.99</ele>
        <time>2019-03-03T12:28:11Z</time>
      </trkpt>
      <trkpt lat="44.88725" lon="5.12848">
        <ele>909.06</ele>
        <time>2019-03-03T12:28:29Z</time>
      </trkpt>
      <trkpt lat="44.88734" lon="5.1286">
        <ele>906.66</ele>
        <time>2019-03-03T12:28:43Z</time>
      </trkpt>
      <trkpt lat="44.88739" lon="5.12871">
        <ele>904.26</ele>
        <time>2019-03-03T12:28:56Z</time>
      </trkpt>
      <trkpt lat="44.88735" lon="5.12884">
        <ele>902.82</ele>
        <time>2019-03-03T12:29:08Z</time>
      </trkpt>
      <trkpt lat="44.88739" lon="5.12906">
        <ele>899.93</ele>
        <time>2019-03-03T12:29:23Z</time>
      </trkpt>
      <trkpt lat="44.88737" lon="5.12918">
        <ele>898.49</ele>
        <time>2019-03-03T12:29:31Z</time>
      </trkpt>
      <trkpt lat="44.88737" lon="5.12925">
        <ele>897.53</ele>
        <time>2019-03-03T12:29:35Z</time>
      </trkpt>
      <trkpt lat="44.88732" lon="5.12948">
        <ele>893.68</ele>
        <time>2019-03-03T12:29:51Z</time>
      </trkpt>
      <trkpt lat="44.8873" lon="5.12954">
        <ele>893.2</ele>
        <time>2019-03-03T12:29:56Z</time>
      </trkpt>
      <trkpt lat="44.88727" lon="5.1297">
        <ele>889.84</ele>
        <time>2019-03-03T12:30:08Z</time>
      </trkpt>
      <trkpt lat="44.88715" lon="5.12979">
        <ele>886.47</ele>
        <time>2019-03-03T12:30:22Z</time>
      </trkpt>
      <trkpt lat="44.88712" lon="5.12982">
        <ele>885.99</ele>
        <time>2019-03-03T12:30:25Z</time>
      </trkpt>
      <trkpt lat="44.88706" lon="5.12989">
        <ele>884.07</ele>
        <time>2019-03-03T12:30:32Z</time>
      </trkpt>
      <trkpt lat="44.88703" lon="5.12999">
        <ele>880.22</ele>
        <time>2019-03-03T12:30:44Z</time>
      </trkpt>
      <trkpt lat="44.88708" lon="5.13019">
        <ele>878.3</ele>
        <time>2019-03-03T12:31:01Z</time>
      </trkpt>
      <trkpt lat="44.88707" lon="5.13027">
        <ele>878.3</ele>
        <time>2019-03-03T12:31:15Z</time>
      </trkpt>
      <trkpt lat="44.88708" lon="5.13043">
        <ele>880.22</ele>
        <time>2019-03-03T12:31:28Z</time>
      </trkpt>
      <trkpt lat="44.88708" lon="5.13045">
        <ele>880.71</ele>
        <time>2019-03-03T12:31:30Z</time>
      </trkpt>
      <trkpt lat="44.88706" lon="5.13066">
        <ele>883.59</ele>
        <time>2019-03-03T12:31:47Z</time>
      </trkpt>
      <trkpt lat="44.88704" lon="5.13083">
        <ele>886.95</ele>
        <time>2019-03-03T12:32:02Z</time>
      </trkpt>
      <trkpt lat="44.88706" lon="5.13094">
        <ele>889.84</ele>
        <time>2019-03-03T12:32:16Z</time>
      </trkpt>
      <trkpt lat="44.8871" lon="5.13104">
        <ele>892.72</ele>
        <time>2019-03-03T12:32:30Z</time>
      </trkpt>
      <trkpt lat="44.88711" lon="5.13116">
        <ele>896.09</ele>
        <time>2019-03-03T12:32:46Z</time>
      </trkpt>
      <trkpt lat="44.88712" lon="5.13125">
        <ele>898.49</ele>
        <time>2019-03-03T12:33:01Z</time>
      </trkpt>
      <trkpt lat="44.88715" lon="5.13131">
        <ele>900.41</ele>
        <time>2019-03-03T12:33:18Z</time>
      </trkpt>
      <trkpt lat="44.88713" lon="5.13141">
        <ele>901.37</ele>
        <time>2019-03-03T12:33:32Z</time>
      </trkpt>
      <trkpt lat="44.8871" lon="5.13154">
        <ele>903.78</ele>
        <time>2019-03-03T12:33:47Z</time>
      </trkpt>
      <trkpt lat="44.8871" lon="5.13167">
        <ele>906.18</ele>
        <time>2019-03-03T12:34:02Z</time>
      </trkpt>
      <trkpt lat="44.88711" lon="5.13176">
        <ele>908.1</ele>
        <time>2019-03-03T12:34:15Z</time>
      </trkpt>
      <trkpt lat="44.88707" lon="5.13185">
        <ele>910.99</ele>
        <time>2019-03-03T12:34:28Z</time>
      </trkpt>
      <trkpt lat="44.88704" lon="5.13194">
        <ele>912.91</ele>
        <time>2019-03-03T12:34:41Z</time>
      </trkpt>
      <trkpt lat="44.887" lon="5.13205">
        <ele>915.31</ele>
        <time>2019-03-03T12:34:55Z</time>
      </trkpt>
      <trkpt lat="44.88694" lon="5.13213">
        <ele>916.27</ele>
        <time>2019-03-03T12:35:04Z</time>
      </trkpt>
      <trkpt lat="44.88689" lon="5.13227">
        <ele>919.16</ele>
        <time>2019-03-03T12:35:19Z</time>
      </trkpt>
      <trkpt lat="44.88686" lon="5.13244">
        <ele>921.08</ele>
        <time>2019-03-03T12:35:35Z</time>
      </trkpt>
      <trkpt lat="44.88682" lon="5.13254">
        <ele>923</ele>
        <time>2019-03-03T12:35:48Z</time>
      </trkpt>
      <trkpt lat="44.88681" lon="5.1326">
        <ele>923.96</ele>
        <time>2019-03-03T12:35:57Z</time>
      </trkpt>
      <trkpt lat="44.88681" lon="5.13267">
        <ele>924.93</ele>
        <time>2019-03-03T12:36:03Z</time>
      </trkpt>
      <trkpt lat="44.88681" lon="5.1328">
        <ele>927.33</ele>
        <time>2019-03-03T12:36:15Z</time>
      </trkpt>
      <trkpt lat="44.88679" lon="5.13284">
        <ele>926.85</ele>
        <time>2019-03-03T12:36:18Z</time>
      </trkpt>
      <trkpt lat="44.88678" lon="5.13298">
        <ele>927.81</ele>
        <time>2019-03-03T12:36:31Z</time>
      </trkpt>
      <trkpt lat="44.8868" lon="5.13312">
        <ele>929.73</ele>
        <time>2019-03-03T12:36:46Z</time>
      </trkpt>
      <trkpt lat="44.88686" lon="5.1332">
        <ele>931.65</ele>
        <time>2019-03-03T12:36:59Z</time>
      </trkpt>
      <trkpt lat="44.88691" lon="5.13334">
        <ele>933.58</ele>
        <time>2019-03-03T12:37:14Z</time>
      </trkpt>
      <trkpt lat="44.88689" lon="5.13339">
        <ele>934.54</ele>
        <time>2019-03-03T12:37:59Z</time>
      </trkpt>
      <trkpt lat="44.8868" lon="5.13347">
        <ele>934.54</ele>
        <time>2019-03-03T12:38:10Z</time>
      </trkpt>
      <trkpt lat="44.88678" lon="5.13352">
        <ele>934.54</ele>
        <time>2019-03-03T12:38:22Z</time>
      </trkpt>
      <trkpt lat="44.88675" lon="5.13355">
        <ele>934.54</ele>
        <time>2019-03-03T12:38:26Z</time>
      </trkpt>
      <trkpt lat="44.88663" lon="5.13371">
        <ele>935.02</ele>
        <time>2019-03-03T12:38:42Z</time>
      </trkpt>
      <trkpt lat="44.88658" lon="5.13383">
        <ele>935.5</ele>
        <time>2019-03-03T12:38:58Z</time>
      </trkpt>
      <trkpt lat="44.88647" lon="5.13388">
        <ele>935.98</ele>
        <time>2019-03-03T12:39:13Z</time>
      </trkpt>
      <trkpt lat="44.88638" lon="5.13398">
        <ele>937.9</ele>
        <time>2019-03-03T12:39:29Z</time>
      </trkpt>
      <trkpt lat="44.88637" lon="5.13404">
        <ele>938.86</ele>
        <time>2019-03-03T12:39:34Z</time>
      </trkpt>
      <trkpt lat="44.88647" lon="5.13414">
        <ele>940.79</ele>
        <time>2019-03-03T12:39:48Z</time>
      </trkpt>
      <trkpt lat="44.88656" lon="5.13424">
        <ele>943.19</ele>
        <time>2019-03-03T12:40:04Z</time>
      </trkpt>
      <trkpt lat="44.88664" lon="5.13435">
        <ele>945.59</ele>
        <time>2019-03-03T12:40:18Z</time>
      </trkpt>
      <trkpt lat="44.88672" lon="5.13445">
        <ele>947.52</ele>
        <time>2019-03-03T12:40:32Z</time>
      </trkpt>
      <trkpt lat="44.88681" lon="5.13455">
        <ele>949.44</ele>
        <time>2019-03-03T12:40:46Z</time>
      </trkpt>
      <trkpt lat="44.88692" lon="5.13465">
        <ele>950.88</ele>
        <time>2019-03-03T12:41:02Z</time>
      </trkpt>
      <trkpt lat="44.88704" lon="5.13472">
        <ele>952.32</ele>
        <time>2019-03-03T12:41:16Z</time>
      </trkpt>
      <trkpt lat="44.88706" lon="5.13487">
        <ele>952.8</ele>
        <time>2019-03-03T12:41:29Z</time>
      </trkpt>
      <trkpt lat="44.8871" lon="5.13503">
        <ele>953.77</ele>
        <time>2019-03-03T12:41:44Z</time>
      </trkpt>
      <trkpt lat="44.88719" lon="5.13516">
        <ele>954.25</ele>
        <time>2019-03-03T12:42:00Z</time>
      </trkpt>
      <trkpt lat="44.8873" lon="5.13532">
        <ele>954.25</ele>
        <time>2019-03-03T12:42:15Z</time>
      </trkpt>
      <trkpt lat="44.88735" lon="5.13544">
        <ele>953.28</ele>
        <time>2019-03-03T12:42:27Z</time>
      </trkpt>
      <trkpt lat="44.88736" lon="5.13555">
        <ele>951.84</ele>
        <time>2019-03-03T12:42:40Z</time>
      </trkpt>
      <trkpt lat="44.88738" lon="5.1357">
        <ele>950.88</ele>
        <time>2019-03-03T12:42:55Z</time>
      </trkpt>
      <trkpt lat="44.88731" lon="5.13584">
        <ele>948</ele>
        <time>2019-03-03T12:43:10Z</time>
      </trkpt>
      <trkpt lat="44.88729" lon="5.13586">
        <ele>947.04</ele>
        <time>2019-03-03T12:43:12Z</time>
      </trkpt>
      <trkpt lat="44.88724" lon="5.13593">
        <ele>944.63</ele>
        <time>2019-03-03T12:43:20Z</time>
      </trkpt>
      <trkpt lat="44.88722" lon="5.13608">
        <ele>943.67</ele>
        <time>2019-03-03T12:43:36Z</time>
      </trkpt>
      <trkpt lat="44.88722" lon="5.1361">
        <ele>943.67</ele>
        <time>2019-03-03T12:43:37Z</time>
      </trkpt>
      <trkpt lat="44.88729" lon="5.13625">
        <ele>943.19</ele>
        <time>2019-03-03T12:43:53Z</time>
      </trkpt>
      <trkpt lat="44.8874" lon="5.13648">
        <ele>941.75</ele>
        <time>2019-03-03T12:44:11Z</time>
      </trkpt>
      <trkpt lat="44.88749" lon="5.13655">
        <ele>941.75</ele>
        <time>2019-03-03T12:44:21Z</time>
      </trkpt>
      <trkpt lat="44.88755" lon="5.13669">
        <ele>941.75</ele>
        <time>2019-03-03T12:44:35Z</time>
      </trkpt>
      <trkpt lat="44.88755" lon="5.13672">
        <ele>941.27</ele>
        <time>2019-03-03T12:44:50Z</time>
      </trkpt>
      <trkpt lat="44.88756" lon="5.13678">
        <ele>941.27</ele>
        <time>2019-03-03T12:45:08Z</time>
      </trkpt>
      <trkpt lat="44.88767" lon="5.13698">
        <ele>939.83</ele>
        <time>2019-03-03T12:45:26Z</time>
      </trkpt>
      <trkpt lat="44.88775" lon="5.13708">
        <ele>939.83</ele>
        <time>2019-03-03T12:45:37Z</time>
      </trkpt>
      <trkpt lat="44.88786" lon="5.13727">
        <ele>939.35</ele>
        <time>2019-03-03T12:45:54Z</time>
      </trkpt>
      <trkpt lat="44.88789" lon="5.13731">
        <ele>939.35</ele>
        <time>2019-03-03T12:46:00Z</time>
      </trkpt>
      <trkpt lat="44.88797" lon="5.1374">
        <ele>939.35</ele>
        <time>2019-03-03T12:46:09Z</time>
      </trkpt>
      <trkpt lat="44.88806" lon="5.13755">
        <ele>940.79</ele>
        <time>2019-03-03T12:46:24Z</time>
      </trkpt>
      <trkpt lat="44.88814" lon="5.13769">
        <ele>943.19</ele>
        <time>2019-03-03T12:46:42Z</time>
      </trkpt>
      <trkpt lat="44.88822" lon="5.13783">
        <ele>946.56</ele>
        <time>2019-03-03T12:46:59Z</time>
      </trkpt>
      <trkpt lat="44.88833" lon="5.13791">
        <ele>949.44</ele>
        <time>2019-03-03T12:47:15Z</time>
      </trkpt>
      <trkpt lat="44.88839" lon="5.13794">
        <ele>950.4</ele>
        <time>2019-03-03T12:47:23Z</time>
      </trkpt>
      <trkpt lat="44.88851" lon="5.13801">
        <ele>950.88</ele>
        <time>2019-03-03T12:47:38Z</time>
      </trkpt>
      <trkpt lat="44.88864" lon="5.13808">
        <ele>950.88</ele>
        <time>2019-03-03T12:47:53Z</time>
      </trkpt>
      <trkpt lat="44.88877" lon="5.13814">
        <ele>950.88</ele>
        <time>2019-03-03T12:48:07Z</time>
      </trkpt>
      <trkpt lat="44.8889" lon="5.13821">
        <ele>952.32</ele>
        <time>2019-03-03T12:48:24Z</time>
      </trkpt>
      <trkpt lat="44.88894" lon="5.13835">
        <ele>953.77</ele>
        <time>2019-03-03T12:48:37Z</time>
      </trkpt>
      <trkpt lat="44.88894" lon="5.13839">
        <ele>954.25</ele>
        <time>2019-03-03T12:48:40Z</time>
      </trkpt>
      <trkpt lat="44.88891" lon="5.13859">
        <ele>955.69</ele>
        <time>2019-03-03T12:48:55Z</time>
      </trkpt>
      <trkpt lat="44.88892" lon="5.13866">
        <ele>956.17</ele>
        <time>2019-03-03T12:49:01Z</time>
      </trkpt>
      <trkpt lat="44.88894" lon="5.13887">
        <ele>958.09</ele>
        <time>2019-03-03T12:49:16Z</time>
      </trkpt>
      <trkpt lat="44.88888" lon="5.13906">
        <ele>960.01</ele>
        <time>2019-03-03T12:49:30Z</time>
      </trkpt>
      <trkpt lat="44.88886" lon="5.13921">
        <ele>962.42</ele>
        <time>2019-03-03T12:49:45Z</time>
      </trkpt>
      <trkpt lat="44.88887" lon="5.13922">
        <ele>962.9</ele>
        <time>2019-03-03T12:49:46Z</time>
      </trkpt>
      <trkpt lat="44.88893" lon="5.13929">
        <ele>962.9</ele>
        <time>2019-03-03T12:49:58Z</time>
      </trkpt>
      <trkpt lat="44.88895" lon="5.1394">
        <ele>964.34</ele>
        <time>2019-03-03T12:50:10Z</time>
      </trkpt>
      <trkpt lat="44.88897" lon="5.13951">
        <ele>966.26</ele>
        <time>2019-03-03T12:50:23Z</time>
      </trkpt>
      <trkpt lat="44.88896" lon="5.13964">
        <ele>967.7</ele>
        <time>2019-03-03T12:50:36Z</time>
      </trkpt>
      <trkpt lat="44.88896" lon="5.13968">
        <ele>968.67</ele>
        <time>2019-03-03T12:50:40Z</time>
      </trkpt>
      <trkpt lat="44.88904" lon="5.13983">
        <ele>970.11</ele>
        <time>2019-03-03T12:50:55Z</time>
      </trkpt>
      <trkpt lat="44.88911" lon="5.13998">
        <ele>971.07</ele>
        <time>2019-03-03T12:51:08Z</time>
      </trkpt>
      <trkpt lat="44.88919" lon="5.14011">
        <ele>971.55</ele>
        <time>2019-03-03T12:51:19Z</time>
      </trkpt>
      <trkpt lat="44.88923" lon="5.14026">
        <ele>972.99</ele>
        <time>2019-03-03T12:51:32Z</time>
      </trkpt>
      <trkpt lat="44.88929" lon="5.14034">
        <ele>972.99</ele>
        <time>2019-03-03T12:51:43Z</time>
      </trkpt>
      <trkpt lat="44.88934" lon="5.14034">
        <ele>972.99</ele>
        <time>2019-03-03T12:51:57Z</time>
      </trkpt>
      <trkpt lat="44.88944" lon="5.14037">
        <ele>971.55</ele>
        <time>2019-03-03T12:52:10Z</time>
      </trkpt>
      <trkpt lat="44.88962" lon="5.14047">
        <ele>969.15</ele>
        <time>2019-03-03T12:52:24Z</time>
      </trkpt>
      <trkpt lat="44.88984" lon="5.14058">
        <ele>968.18</ele>
        <time>2019-03-03T12:52:41Z</time>
      </trkpt>
      <trkpt lat="44.89005" lon="5.1407">
        <ele>970.11</ele>
        <time>2019-03-03T12:52:59Z</time>
      </trkpt>
      <trkpt lat="44.89018" lon="5.1408">
        <ele>972.51</ele>
        <time>2019-03-03T12:53:13Z</time>
      </trkpt>
      <trkpt lat="44.89025" lon="5.14091">
        <ele>975.39</ele>
        <time>2019-03-03T12:53:25Z</time>
      </trkpt>
      <trkpt lat="44.89027" lon="5.141">
        <ele>976.84</ele>
        <time>2019-03-03T12:53:39Z</time>
      </trkpt>
      <trkpt lat="44.89034" lon="5.14107">
        <ele>977.32</ele>
        <time>2019-03-03T12:53:57Z</time>
      </trkpt>
      <trkpt lat="44.89036" lon="5.14101">
        <ele>977.32</ele>
        <time>2019-03-03T12:54:04Z</time>
      </trkpt>
      <trkpt lat="44.89039" lon="5.14094">
        <ele>977.32</ele>
        <time>2019-03-03T12:54:20Z</time>
      </trkpt>
      <trkpt lat="44.8904" lon="5.14094">
        <ele>977.32</ele>
        <time>2019-03-03T12:54:34Z</time>
      </trkpt>
      <trkpt lat="44.89045" lon="5.14093">
        <ele>974.43</ele>
        <time>2019-03-03T12:54:44Z</time>
      </trkpt>
      <trkpt lat="44.8905" lon="5.14092">
        <ele>971.07</ele>
        <time>2019-03-03T12:54:58Z</time>
      </trkpt>
      <trkpt lat="44.89054" lon="5.14091">
        <ele>968.67</ele>
        <time>2019-03-03T12:55:09Z</time>
      </trkpt>
      <trkpt lat="44.89056" lon="5.14084">
        <ele>965.3</ele>
        <time>2019-03-03T12:55:22Z</time>
      </trkpt>
      <trkpt lat="44.89058" lon="5.14079">
        <ele>964.82</ele>
        <time>2019-03-03T12:55:40Z</time>
      </trkpt>
      <trkpt lat="44.89061" lon="5.14071">
        <ele>964.82</ele>
        <time>2019-03-03T12:55:56Z</time>
      </trkpt>
      <trkpt lat="44.89062" lon="5.1407">
        <ele>964.34</ele>
        <time>2019-03-03T12:56:17Z</time>
      </trkpt>
      <trkpt lat="44.89065" lon="5.14064">
        <ele>964.34</ele>
        <time>2019-03-03T12:56:35Z</time>
      </trkpt>
      <trkpt lat="44.89069" lon="5.14052">
        <ele>961.94</ele>
        <time>2019-03-03T12:56:50Z</time>
      </trkpt>
      <trkpt lat="44.89072" lon="5.14044">
        <ele>960.49</ele>
        <time>2019-03-03T12:57:03Z</time>
      </trkpt>
      <trkpt lat="44.89075" lon="5.14039">
        <ele>959.53</ele>
        <time>2019-03-03T12:57:17Z</time>
      </trkpt>
      <trkpt lat="44.89083" lon="5.14032">
        <ele>957.61</ele>
        <time>2019-03-03T13:00:15Z</time>
      </trkpt>
      <trkpt lat="44.89086" lon="5.14039">
        <ele>956.17</ele>
        <time>2019-03-03T13:00:27Z</time>
      </trkpt>
      <trkpt lat="44.89087" lon="5.14039">
        <ele>955.21</ele>
        <time>2019-03-03T13:00:41Z</time>
      </trkpt>
      <trkpt lat="44.89088" lon="5.14041">
        <ele>952.8</ele>
        <time>2019-03-03T13:00:57Z</time>
      </trkpt>
      <trkpt lat="44.89093" lon="5.14037">
        <ele>949.92</ele>
        <time>2019-03-03T13:01:14Z</time>
      </trkpt>
      <trkpt lat="44.89096" lon="5.14033">
        <ele>947.52</ele>
        <time>2019-03-03T13:01:31Z</time>
      </trkpt>
      <trkpt lat="44.89101" lon="5.14028">
        <ele>946.56</ele>
        <time>2019-03-03T13:01:43Z</time>
      </trkpt>
      <trkpt lat="44.89106" lon="5.14025">
        <ele>945.11</ele>
        <time>2019-03-03T13:01:58Z</time>
      </trkpt>
      <trkpt lat="44.89109" lon="5.14025">
        <ele>942.71</ele>
        <time>2019-03-03T13:02:12Z</time>
      </trkpt>
      <trkpt lat="44.89109" lon="5.14027">
        <ele>940.31</ele>
        <time>2019-03-03T13:02:29Z</time>
      </trkpt>
      <trkpt lat="44.89116" lon="5.14026">
        <ele>936.94</ele>
        <time>2019-03-03T13:02:46Z</time>
      </trkpt>
      <trkpt lat="44.89122" lon="5.14019">
        <ele>935.02</ele>
        <time>2019-03-03T13:03:02Z</time>
      </trkpt>
      <trkpt lat="44.89124" lon="5.1401">
        <ele>932.62</ele>
        <time>2019-03-03T13:03:15Z</time>
      </trkpt>
      <trkpt lat="44.89126" lon="5.14">
        <ele>930.69</ele>
        <time>2019-03-03T13:03:30Z</time>
      </trkpt>
      <trkpt lat="44.89128" lon="5.13993">
        <ele>928.77</ele>
        <time>2019-03-03T13:03:44Z</time>
      </trkpt>
      <trkpt lat="44.8913" lon="5.13987">
        <ele>928.29</ele>
        <time>2019-03-03T13:03:56Z</time>
      </trkpt>
      <trkpt lat="44.89132" lon="5.13982">
        <ele>927.81</ele>
        <time>2019-03-03T13:04:09Z</time>
      </trkpt>
      <trkpt lat="44.89137" lon="5.1397">
        <ele>924.45</ele>
        <time>2019-03-03T13:04:23Z</time>
      </trkpt>
      <trkpt lat="44.89136" lon="5.13959">
        <ele>924.93</ele>
        <time>2019-03-03T13:04:37Z</time>
      </trkpt>
      <trkpt lat="44.89138" lon="5.13948">
        <ele>924.93</ele>
        <time>2019-03-03T13:04:52Z</time>
      </trkpt>
      <trkpt lat="44.89138" lon="5.13939">
        <ele>923.96</ele>
        <time>2019-03-03T13:05:04Z</time>
      </trkpt>
      <trkpt lat="44.8914" lon="5.13936">
        <ele>925.41</ele>
        <time>2019-03-03T13:05:08Z</time>
      </trkpt>
      <trkpt lat="44.89141" lon="5.13924">
        <ele>926.85</ele>
        <time>2019-03-03T13:05:20Z</time>
      </trkpt>
      <trkpt lat="44.89142" lon="5.13922">
        <ele>927.81</ele>
        <time>2019-03-03T13:06:24Z</time>
      </trkpt>
      <trkpt lat="44.89144" lon="5.13922">
        <ele>928.77</ele>
        <time>2019-03-03T13:06:46Z</time>
      </trkpt>
      <trkpt lat="44.89148" lon="5.13916">
        <ele>929.25</ele>
        <time>2019-03-03T13:07:59Z</time>
      </trkpt>
      <trkpt lat="44.89153" lon="5.13909">
        <ele>926.85</ele>
        <time>2019-03-03T13:08:11Z</time>
      </trkpt>
      <trkpt lat="44.89158" lon="5.13904">
        <ele>924.45</ele>
        <time>2019-03-03T13:08:23Z</time>
      </trkpt>
      <trkpt lat="44.89161" lon="5.139">
        <ele>922.52</ele>
        <time>2019-03-03T13:08:35Z</time>
      </trkpt>
      <trkpt lat="44.89163" lon="5.13896">
        <ele>919.64</ele>
        <time>2019-03-03T13:08:50Z</time>
      </trkpt>
      <trkpt lat="44.89164" lon="5.1389">
        <ele>917.72</ele>
        <time>2019-03-03T13:09:06Z</time>
      </trkpt>
      <trkpt lat="44.89167" lon="5.13883">
        <ele>915.31</ele>
        <time>2019-03-03T13:09:23Z</time>
      </trkpt>
      <trkpt lat="44.89168" lon="5.13873">
        <ele>916.27</ele>
        <time>2019-03-03T13:09:40Z</time>
      </trkpt>
      <trkpt lat="44.89171" lon="5.13864">
        <ele>918.2</ele>
        <time>2019-03-03T13:09:56Z</time>
      </trkpt>
      <trkpt lat="44.89169" lon="5.13861">
        <ele>918.68</ele>
        <time>2019-03-03T13:10:16Z</time>
      </trkpt>
      <trkpt lat="44.89169" lon="5.13856">
        <ele>918.68</ele>
        <time>2019-03-03T13:10:34Z</time>
      </trkpt>
      <trkpt lat="44.89168" lon="5.13852">
        <ele>917.72</ele>
        <time>2019-03-03T13:10:52Z</time>
      </trkpt>
      <trkpt lat="44.89168" lon="5.13845">
        <ele>917.72</ele>
        <time>2019-03-03T13:11:05Z</time>
      </trkpt>
      <trkpt lat="44.89169" lon="5.13837">
        <ele>917.72</ele>
        <time>2019-03-03T13:11:20Z</time>
      </trkpt>
      <trkpt lat="44.89171" lon="5.1383">
        <ele>917.72</ele>
        <time>2019-03-03T13:11:34Z</time>
      </trkpt>
      <trkpt lat="44.89172" lon="5.13826">
        <ele>917.72</ele>
        <time>2019-03-03T13:11:49Z</time>
      </trkpt>
      <trkpt lat="44.89172" lon="5.13822">
        <ele>917.72</ele>
        <time>2019-03-03T13:12:02Z</time>
      </trkpt>
      <trkpt lat="44.89172" lon="5.13822">
        <ele>919.16</ele>
        <time>2019-03-03T13:12:04Z</time>
      </trkpt>
      <trkpt lat="44.89176" lon="5.13819">
        <ele>918.68</ele>
        <time>2019-03-03T13:12:19Z</time>
      </trkpt>
      <trkpt lat="44.89183" lon="5.13811">
        <ele>917.72</ele>
        <time>2019-03-03T13:12:31Z</time>
      </trkpt>
      <trkpt lat="44.89182" lon="5.13801">
        <ele>917.24</ele>
        <time>2019-03-03T13:12:50Z</time>
      </trkpt>
      <trkpt lat="44.89178" lon="5.13793">
        <ele>916.75</ele>
        <time>2019-03-03T13:13:03Z</time>
      </trkpt>
      <trkpt lat="44.89175" lon="5.1378">
        <ele>916.75</ele>
        <time>2019-03-03T13:13:17Z</time>
      </trkpt>
      <trkpt lat="44.89177" lon="5.13766">
        <ele>915.31</ele>
        <time>2019-03-03T13:13:31Z</time>
      </trkpt>
      <trkpt lat="44.89177" lon="5.13753">
        <ele>914.35</ele>
        <time>2019-03-03T13:13:45Z</time>
      </trkpt>
      <trkpt lat="44.89172" lon="5.13745">
        <ele>914.35</ele>
        <time>2019-03-03T13:14:00Z</time>
      </trkpt>
      <trkpt lat="44.8917" lon="5.13739">
        <ele>915.79</ele>
        <time>2019-03-03T13:14:12Z</time>
      </trkpt>
      <trkpt lat="44.89174" lon="5.13731">
        <ele>915.79</ele>
        <time>2019-03-03T13:14:27Z</time>
      </trkpt>
      <trkpt lat="44.8918" lon="5.13726">
        <ele>915.79</ele>
        <time>2019-03-03T13:14:41Z</time>
      </trkpt>
      <trkpt lat="44.89181" lon="5.13726">
        <ele>914.35</ele>
        <time>2019-03-03T13:14:45Z</time>
      </trkpt>
      <trkpt lat="44.89183" lon="5.13716">
        <ele>911.95</ele>
        <time>2019-03-03T13:15:04Z</time>
      </trkpt>
      <trkpt lat="44.89183" lon="5.13707">
        <ele>910.51</ele>
        <time>2019-03-03T13:15:18Z</time>
      </trkpt>
      <trkpt lat="44.89184" lon="5.13702">
        <ele>910.03</ele>
        <time>2019-03-03T13:15:34Z</time>
      </trkpt>
      <trkpt lat="44.89188" lon="5.13698">
        <ele>908.1</ele>
        <time>2019-03-03T13:15:51Z</time>
      </trkpt>
      <trkpt lat="44.89187" lon="5.13689">
        <ele>907.14</ele>
        <time>2019-03-03T13:16:04Z</time>
      </trkpt>
      <trkpt lat="44.89187" lon="5.13678">
        <ele>906.18</ele>
        <time>2019-03-03T13:16:19Z</time>
      </trkpt>
      <trkpt lat="44.89188" lon="5.13667">
        <ele>903.3</ele>
        <time>2019-03-03T13:16:34Z</time>
      </trkpt>
      <trkpt lat="44.89189" lon="5.13659">
        <ele>901.37</ele>
        <time>2019-03-03T13:16:53Z</time>
      </trkpt>
      <trkpt lat="44.8919" lon="5.1365">
        <ele>898.49</ele>
        <time>2019-03-03T13:17:08Z</time>
      </trkpt>
      <trkpt lat="44.89189" lon="5.13641">
        <ele>897.53</ele>
        <time>2019-03-03T13:17:21Z</time>
      </trkpt>
      <trkpt lat="44.89188" lon="5.13633">
        <ele>897.53</ele>
        <time>2019-03-03T13:17:36Z</time>
      </trkpt>
      <trkpt lat="44.89189" lon="5.13627">
        <ele>896.09</ele>
        <time>2019-03-03T13:17:49Z</time>
      </trkpt>
      <trkpt lat="44.89191" lon="5.1362">
        <ele>894.16</ele>
        <time>2019-03-03T13:18:05Z</time>
      </trkpt>
      <trkpt lat="44.89192" lon="5.13612">
        <ele>892.72</ele>
        <time>2019-03-03T13:18:20Z</time>
      </trkpt>
      <trkpt lat="44.8919" lon="5.1361">
        <ele>893.68</ele>
        <time>2019-03-03T13:18:32Z</time>
      </trkpt>
      <trkpt lat="44.89187" lon="5.13599">
        <ele>895.12</ele>
        <time>2019-03-03T13:18:49Z</time>
      </trkpt>
      <trkpt lat="44.89186" lon="5.13592">
        <ele>895.61</ele>
        <time>2019-03-03T13:19:04Z</time>
      </trkpt>
      <trkpt lat="44.89186" lon="5.1359">
        <ele>894.16</ele>
        <time>2019-03-03T13:19:07Z</time>
      </trkpt>
      <trkpt lat="44.89181" lon="5.13584">
        <ele>895.61</ele>
        <time>2019-03-03T13:19:21Z</time>
      </trkpt>
      <trkpt lat="44.89179" lon="5.13577">
        <ele>897.53</ele>
        <time>2019-03-03T13:19:37Z</time>
      </trkpt>
      <trkpt lat="44.89178" lon="5.1357">
        <ele>897.53</ele>
        <time>2019-03-03T13:20:09Z</time>
      </trkpt>
      <trkpt lat="44.89181" lon="5.13551">
        <ele>899.45</ele>
        <time>2019-03-03T13:32:48Z</time>
      </trkpt>
      <trkpt lat="44.89181" lon="5.13543">
        <ele>896.57</ele>
        <time>2019-03-03T13:33:01Z</time>
      </trkpt>
      <trkpt lat="44.89177" lon="5.13535">
        <ele>895.61</ele>
        <time>2019-03-03T13:33:14Z</time>
      </trkpt>
      <trkpt lat="44.89174" lon="5.13532">
        <ele>897.05</ele>
        <time>2019-03-03T13:33:19Z</time>
      </trkpt>
      <trkpt lat="44.89167" lon="5.13525">
        <ele>899.45</ele>
        <time>2019-03-03T13:33:35Z</time>
      </trkpt>
      <trkpt lat="44.89163" lon="5.13519">
        <ele>901.37</ele>
        <time>2019-03-03T13:33:48Z</time>
      </trkpt>
      <trkpt lat="44.89161" lon="5.13509">
        <ele>901.85</ele>
        <time>2019-03-03T13:34:05Z</time>
      </trkpt>
      <trkpt lat="44.89162" lon="5.13508">
        <ele>903.3</ele>
        <time>2019-03-03T13:34:23Z</time>
      </trkpt>
      <trkpt lat="44.8916" lon="5.13505">
        <ele>905.7</ele>
        <time>2019-03-03T13:34:38Z</time>
      </trkpt>
      <trkpt lat="44.89156" lon="5.13506">
        <ele>908.1</ele>
        <time>2019-03-03T13:34:51Z</time>
      </trkpt>
      <trkpt lat="44.89156" lon="5.13502">
        <ele>910.51</ele>
        <time>2019-03-03T13:35:10Z</time>
      </trkpt>
      <trkpt lat="44.89154" lon="5.135">
        <ele>911.95</ele>
        <time>2019-03-03T13:35:24Z</time>
      </trkpt>
      <trkpt lat="44.8915" lon="5.13499">
        <ele>915.31</ele>
        <time>2019-03-03T13:35:40Z</time>
      </trkpt>
      <trkpt lat="44.89145" lon="5.13498">
        <ele>917.24</ele>
        <time>2019-03-03T13:35:53Z</time>
      </trkpt>
      <trkpt lat="44.8914" lon="5.13498">
        <ele>919.64</ele>
        <time>2019-03-03T13:36:08Z</time>
      </trkpt>
      <trkpt lat="44.89136" lon="5.13494">
        <ele>921.56</ele>
        <time>2019-03-03T13:36:21Z</time>
      </trkpt>
      <trkpt lat="44.89136" lon="5.13489">
        <ele>924.45</ele>
        <time>2019-03-03T13:36:35Z</time>
      </trkpt>
      <trkpt lat="44.89137" lon="5.13485">
        <ele>927.81</ele>
        <time>2019-03-03T13:36:47Z</time>
      </trkpt>
      <trkpt lat="44.89134" lon="5.13479">
        <ele>930.21</ele>
        <time>2019-03-03T13:37:03Z</time>
      </trkpt>
      <trkpt lat="44.89134" lon="5.13474">
        <ele>932.62</ele>
        <time>2019-03-03T13:37:19Z</time>
      </trkpt>
      <trkpt lat="44.89139" lon="5.13468">
        <ele>935.02</ele>
        <time>2019-03-03T13:37:34Z</time>
      </trkpt>
      <trkpt lat="44.89138" lon="5.1346">
        <ele>937.42</ele>
        <time>2019-03-03T13:37:47Z</time>
      </trkpt>
      <trkpt lat="44.89137" lon="5.13453">
        <ele>937.42</ele>
        <time>2019-03-03T13:38:02Z</time>
      </trkpt>
      <trkpt lat="44.89134" lon="5.13453">
        <ele>940.79</ele>
        <time>2019-03-03T13:45:50Z</time>
      </trkpt>
      <trkpt lat="44.89127" lon="5.13452">
        <ele>938.86</ele>
        <time>2019-03-03T13:45:59Z</time>
      </trkpt>
      <trkpt lat="44.8912" lon="5.13449">
        <ele>938.38</ele>
        <time>2019-03-03T13:46:08Z</time>
      </trkpt>
      <trkpt lat="44.89118" lon="5.13449">
        <ele>938.38</ele>
        <time>2019-03-03T13:46:11Z</time>
      </trkpt>
      <trkpt lat="44.89104" lon="5.13446">
        <ele>937.9</ele>
        <time>2019-03-03T13:46:25Z</time>
      </trkpt>
      <trkpt lat="44.89102" lon="5.13445">
        <ele>937.9</ele>
        <time>2019-03-03T13:46:27Z</time>
      </trkpt>
      <trkpt lat="44.8909" lon="5.13439">
        <ele>937.9</ele>
        <time>2019-03-03T13:46:37Z</time>
      </trkpt>
      <trkpt lat="44.89088" lon="5.13437">
        <ele>937.9</ele>
        <time>2019-03-03T13:46:39Z</time>
      </trkpt>
      <trkpt lat="44.8907" lon="5.13422">
        <ele>935.98</ele>
        <time>2019-03-03T13:46:56Z</time>
      </trkpt>
      <trkpt lat="44.89065" lon="5.1342">
        <ele>934.54</ele>
        <time>2019-03-03T13:47:01Z</time>
      </trkpt>
      <trkpt lat="44.89062" lon="5.13419">
        <ele>934.54</ele>
        <time>2019-03-03T13:47:03Z</time>
      </trkpt>
      <trkpt lat="44.89056" lon="5.13421">
        <ele>932.14</ele>
        <time>2019-03-03T13:47:09Z</time>
      </trkpt>
      <trkpt lat="44.89052" lon="5.13423">
        <ele>931.17</ele>
        <time>2019-03-03T13:47:12Z</time>
      </trkpt>
      <trkpt lat="44.89042" lon="5.13429">
        <ele>931.17</ele>
        <time>2019-03-03T13:47:23Z</time>
      </trkpt>
      <trkpt lat="44.89038" lon="5.13432">
        <ele>931.17</ele>
        <time>2019-03-03T13:47:27Z</time>
      </trkpt>
      <trkpt lat="44.89033" lon="5.13435">
        <ele>931.17</ele>
        <time>2019-03-03T13:47:32Z</time>
      </trkpt>
      <trkpt lat="44.8903" lon="5.13439">
        <ele>931.17</ele>
        <time>2019-03-03T13:47:36Z</time>
      </trkpt>
      <trkpt lat="44.89013" lon="5.13447">
        <ele>930.21</ele>
        <time>2019-03-03T13:47:52Z</time>
      </trkpt>
      <trkpt lat="44.88994" lon="5.13443">
        <ele>927.33</ele>
        <time>2019-03-03T13:48:08Z</time>
      </trkpt>
      <trkpt lat="44.88993" lon="5.13441">
        <ele>926.85</ele>
        <time>2019-03-03T13:48:10Z</time>
      </trkpt>
      <trkpt lat="44.8898" lon="5.1342">
        <ele>925.89</ele>
        <time>2019-03-03T13:48:23Z</time>
      </trkpt>
      <trkpt lat="44.88979" lon="5.13407">
        <ele>925.41</ele>
        <time>2019-03-03T13:48:32Z</time>
      </trkpt>
      <trkpt lat="44.88989" lon="5.13389">
        <ele>923</ele>
        <time>2019-03-03T13:48:48Z</time>
      </trkpt>
      <trkpt lat="44.8899" lon="5.13386">
        <ele>923</ele>
        <time>2019-03-03T13:48:50Z</time>
      </trkpt>
      <trkpt lat="44.88991" lon="5.13369">
        <ele>922.04</ele>
        <time>2019-03-03T13:49:07Z</time>
      </trkpt>
      <trkpt lat="44.88991" lon="5.13367">
        <ele>921.56</ele>
        <time>2019-03-03T13:49:09Z</time>
      </trkpt>
      <trkpt lat="44.88985" lon="5.1335">
        <ele>920.6</ele>
        <time>2019-03-03T13:49:19Z</time>
      </trkpt>
      <trkpt lat="44.88972" lon="5.13327">
        <ele>918.68</ele>
        <time>2019-03-03T13:49:36Z</time>
      </trkpt>
      <trkpt lat="44.88954" lon="5.13301">
        <ele>916.75</ele>
        <time>2019-03-03T13:49:56Z</time>
      </trkpt>
      <trkpt lat="44.88945" lon="5.13276">
        <ele>914.83</ele>
        <time>2019-03-03T13:50:13Z</time>
      </trkpt>
      <trkpt lat="44.88943" lon="5.13265">
        <ele>913.87</ele>
        <time>2019-03-03T13:50:20Z</time>
      </trkpt>
      <trkpt lat="44.88942" lon="5.13229">
        <ele>911.47</ele>
        <time>2019-03-03T13:50:39Z</time>
      </trkpt>
      <trkpt lat="44.88941" lon="5.132">
        <ele>909.54</ele>
        <time>2019-03-03T13:50:56Z</time>
      </trkpt>
      <trkpt lat="44.88942" lon="5.13181">
        <ele>907.62</ele>
        <time>2019-03-03T13:51:13Z</time>
      </trkpt>
      <trkpt lat="44.88944" lon="5.13169">
        <ele>904.74</ele>
        <time>2019-03-03T13:51:29Z</time>
      </trkpt>
      <trkpt lat="44.88945" lon="5.13156">
        <ele>901.85</ele>
        <time>2019-03-03T13:51:42Z</time>
      </trkpt>
      <trkpt lat="44.88942" lon="5.1314">
        <ele>898.49</ele>
        <time>2019-03-03T13:51:56Z</time>
      </trkpt>
      <trkpt lat="44.88938" lon="5.13122">
        <ele>895.12</ele>
        <time>2019-03-03T13:52:12Z</time>
      </trkpt>
      <trkpt lat="44.88933" lon="5.13107">
        <ele>892.24</ele>
        <time>2019-03-03T13:52:24Z</time>
      </trkpt>
      <trkpt lat="44.88932" lon="5.13096">
        <ele>891.28</ele>
        <time>2019-03-03T13:52:36Z</time>
      </trkpt>
      <trkpt lat="44.88933" lon="5.13092">
        <ele>890.32</ele>
        <time>2019-03-03T13:52:38Z</time>
      </trkpt>
      <trkpt lat="44.88935" lon="5.13078">
        <ele>891.28</ele>
        <time>2019-03-03T13:52:50Z</time>
      </trkpt>
      <trkpt lat="44.88937" lon="5.13079">
        <ele>890.32</ele>
        <time>2019-03-03T13:53:07Z</time>
      </trkpt>
      <trkpt lat="44.88936" lon="5.13079">
        <ele>889.84</ele>
        <time>2019-03-03T13:53:23Z</time>
      </trkpt>
      <trkpt lat="44.88938" lon="5.1308">
        <ele>889.84</ele>
        <time>2019-03-03T13:53:43Z</time>
      </trkpt>
      <trkpt lat="44.8894" lon="5.13081">
        <ele>889.84</ele>
        <time>2019-03-03T13:54:00Z</time>
      </trkpt>
      <trkpt lat="44.88945" lon="5.13082">
        <ele>888.88</ele>
        <time>2019-03-03T13:54:16Z</time>
      </trkpt>
      <trkpt lat="44.88951" lon="5.13087">
        <ele>888.4</ele>
        <time>2019-03-03T13:54:27Z</time>
      </trkpt>
      <trkpt lat="44.88965" lon="5.13109">
        <ele>886.47</ele>
        <time>2019-03-03T13:54:45Z</time>
      </trkpt>
      <trkpt lat="44.88971" lon="5.13119">
        <ele>885.99</ele>
        <time>2019-03-03T13:54:54Z</time>
      </trkpt>
      <trkpt lat="44.88977" lon="5.13136">
        <ele>884.55</ele>
        <time>2019-03-03T13:55:08Z</time>
      </trkpt>
      <trkpt lat="44.8898" lon="5.13153">
        <ele>883.59</ele>
        <time>2019-03-03T13:55:21Z</time>
      </trkpt>
      <trkpt lat="44.8898" lon="5.13156">
        <ele>883.59</ele>
        <time>2019-03-03T13:55:23Z</time>
      </trkpt>
      <trkpt lat="44.88987" lon="5.13182">
        <ele>882.15</ele>
        <time>2019-03-03T13:55:39Z</time>
      </trkpt>
      <trkpt lat="44.88989" lon="5.13192">
        <ele>881.67</ele>
        <time>2019-03-03T13:55:44Z</time>
      </trkpt>
      <trkpt lat="44.88991" lon="5.13224">
        <ele>879.74</ele>
        <time>2019-03-03T13:56:01Z</time>
      </trkpt>
      <trkpt lat="44.88991" lon="5.13227">
        <ele>879.26</ele>
        <time>2019-03-03T13:56:03Z</time>
      </trkpt>
      <trkpt lat="44.88994" lon="5.13235">
        <ele>878.78</ele>
        <time>2019-03-03T13:56:08Z</time>
      </trkpt>
      <trkpt lat="44.89003" lon="5.13257">
        <ele>877.34</ele>
        <time>2019-03-03T13:56:23Z</time>
      </trkpt>
      <trkpt lat="44.89013" lon="5.1325">
        <ele>874.46</ele>
        <time>2019-03-03T13:56:35Z</time>
      </trkpt>
      <trkpt lat="44.89017" lon="5.13226">
        <ele>873.01</ele>
        <time>2019-03-03T13:56:50Z</time>
      </trkpt>
      <trkpt lat="44.89019" lon="5.13201">
        <ele>872.05</ele>
        <time>2019-03-03T13:57:04Z</time>
      </trkpt>
      <trkpt lat="44.89025" lon="5.13188">
        <ele>871.09</ele>
        <time>2019-03-03T13:57:16Z</time>
      </trkpt>
      <trkpt lat="44.8902" lon="5.1316">
        <ele>868.21</ele>
        <time>2019-03-03T13:57:32Z</time>
      </trkpt>
      <trkpt lat="44.89016" lon="5.13148">
        <ele>867.25</ele>
        <time>2019-03-03T13:57:39Z</time>
      </trkpt>
      <trkpt lat="44.89014" lon="5.13143">
        <ele>866.77</ele>
        <time>2019-03-03T13:57:42Z</time>
      </trkpt>
      <trkpt lat="44.89003" lon="5.13116">
        <ele>865.8</ele>
        <time>2019-03-03T13:57:57Z</time>
      </trkpt>
      <trkpt lat="44.88999" lon="5.13106">
        <ele>865.32</ele>
        <time>2019-03-03T13:58:03Z</time>
      </trkpt>
      <trkpt lat="44.88995" lon="5.13072">
        <ele>863.4</ele>
        <time>2019-03-03T13:58:20Z</time>
      </trkpt>
      <trkpt lat="44.88996" lon="5.13036">
        <ele>861.48</ele>
        <time>2019-03-03T13:58:38Z</time>
      </trkpt>
      <trkpt lat="44.88999" lon="5.13002">
        <ele>859.56</ele>
        <time>2019-03-03T13:58:56Z</time>
      </trkpt>
      <trkpt lat="44.89001" lon="5.1297">
        <ele>857.63</ele>
        <time>2019-03-03T13:59:15Z</time>
      </trkpt>
      <trkpt lat="44.89003" lon="5.12944">
        <ele>856.19</ele>
        <time>2019-03-03T13:59:31Z</time>
      </trkpt>
      <trkpt lat="44.89005" lon="5.12912">
        <ele>854.27</ele>
        <time>2019-03-03T13:59:49Z</time>
      </trkpt>
      <trkpt lat="44.89005" lon="5.12906">
        <ele>853.79</ele>
        <time>2019-03-03T13:59:53Z</time>
      </trkpt>
      <trkpt lat="44.89006" lon="5.12872">
        <ele>851.87</ele>
        <time>2019-03-03T14:00:12Z</time>
      </trkpt>
      <trkpt lat="44.89012" lon="5.12831">
        <ele>849.94</ele>
        <time>2019-03-03T14:00:33Z</time>
      </trkpt>
      <trkpt lat="44.89015" lon="5.12796">
        <ele>847.06</ele>
        <time>2019-03-03T14:00:51Z</time>
      </trkpt>
      <trkpt lat="44.89012" lon="5.12784">
        <ele>846.1</ele>
        <time>2019-03-03T14:00:59Z</time>
      </trkpt>
      <trkpt lat="44.89009" lon="5.12778">
        <ele>845.62</ele>
        <time>2019-03-03T14:01:03Z</time>
      </trkpt>
      <trkpt lat="44.88994" lon="5.12747">
        <ele>843.69</ele>
        <time>2019-03-03T14:01:21Z</time>
      </trkpt>
      <trkpt lat="44.8898" lon="5.12715">
        <ele>841.77</ele>
        <time>2019-03-03T14:01:39Z</time>
      </trkpt>
      <trkpt lat="44.88972" lon="5.12697">
        <ele>840.81</ele>
        <time>2019-03-03T14:01:51Z</time>
      </trkpt>
      <trkpt lat="44.88964" lon="5.12674">
        <ele>838.89</ele>
        <time>2019-03-03T14:02:07Z</time>
      </trkpt>
      <trkpt lat="44.88954" lon="5.12651">
        <ele>837.45</ele>
        <time>2019-03-03T14:02:22Z</time>
      </trkpt>
      <trkpt lat="44.88939" lon="5.12627">
        <ele>835.04</ele>
        <time>2019-03-03T14:02:39Z</time>
      </trkpt>
      <trkpt lat="44.88937" lon="5.12626">
        <ele>835.04</ele>
        <time>2019-03-03T14:02:41Z</time>
      </trkpt>
      <trkpt lat="44.88931" lon="5.12624">
        <ele>834.56</ele>
        <time>2019-03-03T14:02:45Z</time>
      </trkpt>
      <trkpt lat="44.88907" lon="5.12614">
        <ele>833.12</ele>
        <time>2019-03-03T14:03:03Z</time>
      </trkpt>
      <trkpt lat="44.88893" lon="5.12598">
        <ele>831.68</ele>
        <time>2019-03-03T14:03:17Z</time>
      </trkpt>
      <trkpt lat="44.8888" lon="5.12571">
        <ele>829.27</ele>
        <time>2019-03-03T14:03:34Z</time>
      </trkpt>
      <trkpt lat="44.88871" lon="5.12545">
        <ele>827.83</ele>
        <time>2019-03-03T14:03:50Z</time>
      </trkpt>
      <trkpt lat="44.88861" lon="5.12512">
        <ele>825.43</ele>
        <time>2019-03-03T14:04:07Z</time>
      </trkpt>
      <trkpt lat="44.88848" lon="5.12478">
        <ele>823.51</ele>
        <time>2019-03-03T14:04:26Z</time>
      </trkpt>
      <trkpt lat="44.88842" lon="5.12457">
        <ele>822.55</ele>
        <time>2019-03-03T14:04:39Z</time>
      </trkpt>
      <trkpt lat="44.8884" lon="5.12425">
        <ele>820.14</ele>
        <time>2019-03-03T14:04:56Z</time>
      </trkpt>
      <trkpt lat="44.88838" lon="5.12386">
        <ele>818.7</ele>
        <time>2019-03-03T14:05:16Z</time>
      </trkpt>
      <trkpt lat="44.88836" lon="5.12355">
        <ele>817.26</ele>
        <time>2019-03-03T14:05:33Z</time>
      </trkpt>
      <trkpt lat="44.88834" lon="5.12328">
        <ele>815.34</ele>
        <time>2019-03-03T14:05:49Z</time>
      </trkpt>
      <trkpt lat="44.88833" lon="5.12324">
        <ele>814.85</ele>
        <time>2019-03-03T14:05:51Z</time>
      </trkpt>
      <trkpt lat="44.88838" lon="5.12297">
        <ele>813.89</ele>
        <time>2019-03-03T14:06:06Z</time>
      </trkpt>
      <trkpt lat="44.88841" lon="5.12295">
        <ele>812.93</ele>
        <time>2019-03-03T14:06:09Z</time>
      </trkpt>
      <trkpt lat="44.88847" lon="5.12305">
        <ele>811.49</ele>
        <time>2019-03-03T14:06:18Z</time>
      </trkpt>
      <trkpt lat="44.88849" lon="5.12333">
        <ele>810.05</ele>
        <time>2019-03-03T14:06:34Z</time>
      </trkpt>
      <trkpt lat="44.88849" lon="5.12335">
        <ele>810.05</ele>
        <time>2019-03-03T14:06:35Z</time>
      </trkpt>
      <trkpt lat="44.88852" lon="5.12343">
        <ele>809.57</ele>
        <time>2019-03-03T14:06:40Z</time>
      </trkpt>
      <trkpt lat="44.88854" lon="5.12353">
        <ele>808.61</ele>
        <time>2019-03-03T14:06:45Z</time>
      </trkpt>
      <trkpt lat="44.88858" lon="5.12385">
        <ele>807.16</ele>
        <time>2019-03-03T14:07:02Z</time>
      </trkpt>
      <trkpt lat="44.88861" lon="5.12402">
        <ele>806.2</ele>
        <time>2019-03-03T14:07:12Z</time>
      </trkpt>
      <trkpt lat="44.88863" lon="5.12409">
        <ele>806.2</ele>
        <time>2019-03-03T14:07:16Z</time>
      </trkpt>
      <trkpt lat="44.88867" lon="5.12422">
        <ele>805.24</ele>
        <time>2019-03-03T14:07:24Z</time>
      </trkpt>
      <trkpt lat="44.88876" lon="5.12448">
        <ele>803.8</ele>
        <time>2019-03-03T14:07:40Z</time>
      </trkpt>
      <trkpt lat="44.88888" lon="5.1247">
        <ele>802.36</ele>
        <time>2019-03-03T14:07:56Z</time>
      </trkpt>
      <trkpt lat="44.88899" lon="5.12493">
        <ele>800.92</ele>
        <time>2019-03-03T14:08:12Z</time>
      </trkpt>
      <trkpt lat="44.88909" lon="5.12521">
        <ele>798.99</ele>
        <time>2019-03-03T14:08:29Z</time>
      </trkpt>
      <trkpt lat="44.88919" lon="5.12542">
        <ele>797.55</ele>
        <time>2019-03-03T14:08:43Z</time>
      </trkpt>
      <trkpt lat="44.88929" lon="5.12549">
        <ele>796.11</ele>
        <time>2019-03-03T14:08:52Z</time>
      </trkpt>
      <trkpt lat="44.88942" lon="5.12549">
        <ele>795.15</ele>
        <time>2019-03-03T14:08:59Z</time>
      </trkpt>
      <trkpt lat="44.88951" lon="5.12549">
        <ele>794.67</ele>
        <time>2019-03-03T14:09:11Z</time>
      </trkpt>
      <trkpt lat="44.8895" lon="5.12547">
        <ele>794.19</ele>
        <time>2019-03-03T14:10:13Z</time>
      </trkpt>
      <trkpt lat="44.88947" lon="5.12539">
        <ele>792.74</ele>
        <time>2019-03-03T14:10:28Z</time>
      </trkpt>
      <trkpt lat="44.88939" lon="5.12535">
        <ele>791.3</ele>
        <time>2019-03-03T14:10:41Z</time>
      </trkpt>
      <trkpt lat="44.88934" lon="5.12529">
        <ele>788.42</ele>
        <time>2019-03-03T14:10:54Z</time>
      </trkpt>
      <trkpt lat="44.88929" lon="5.12521">
        <ele>785.53</ele>
        <time>2019-03-03T14:11:08Z</time>
      </trkpt>
      <trkpt lat="44.8893" lon="5.12516">
        <ele>782.65</ele>
        <time>2019-03-03T14:11:20Z</time>
      </trkpt>
      <trkpt lat="44.88931" lon="5.12508">
        <ele>779.77</ele>
        <time>2019-03-03T14:11:35Z</time>
      </trkpt>
      <trkpt lat="44.88929" lon="5.12502">
        <ele>776.88</ele>
        <time>2019-03-03T14:11:45Z</time>
      </trkpt>
      <trkpt lat="44.88929" lon="5.12495">
        <ele>773.52</ele>
        <time>2019-03-03T14:11:54Z</time>
      </trkpt>
      <trkpt lat="44.88928" lon="5.12486">
        <ele>772.08</ele>
        <time>2019-03-03T14:12:03Z</time>
      </trkpt>
      <trkpt lat="44.88928" lon="5.12481">
        <ele>770.63</ele>
        <time>2019-03-03T14:12:06Z</time>
      </trkpt>
      <trkpt lat="44.88925" lon="5.12462">
        <ele>767.27</ele>
        <time>2019-03-03T14:12:20Z</time>
      </trkpt>
      <trkpt lat="44.88919" lon="5.12441">
        <ele>764.39</ele>
        <time>2019-03-03T14:12:35Z</time>
      </trkpt>
      <trkpt lat="44.88914" lon="5.12428">
        <ele>761.5</ele>
        <time>2019-03-03T14:12:47Z</time>
      </trkpt>
      <trkpt lat="44.88918" lon="5.12409">
        <ele>758.14</ele>
        <time>2019-03-03T14:13:00Z</time>
      </trkpt>
      <trkpt lat="44.88918" lon="5.12402">
        <ele>757.66</ele>
        <time>2019-03-03T14:13:04Z</time>
      </trkpt>
      <trkpt lat="44.88921" lon="5.12382">
        <ele>754.29</ele>
        <time>2019-03-03T14:13:16Z</time>
      </trkpt>
      <trkpt lat="44.88924" lon="5.1236">
        <ele>751.89</ele>
        <time>2019-03-03T14:13:29Z</time>
      </trkpt>
      <trkpt lat="44.88922" lon="5.12343">
        <ele>749.49</ele>
        <time>2019-03-03T14:13:41Z</time>
      </trkpt>
      <trkpt lat="44.88919" lon="5.12319">
        <ele>747.56</ele>
        <time>2019-03-03T14:13:55Z</time>
      </trkpt>
      <trkpt lat="44.88919" lon="5.12293">
        <ele>744.68</ele>
        <time>2019-03-03T14:14:08Z</time>
      </trkpt>
      <trkpt lat="44.8892" lon="5.12269">
        <ele>741.79</ele>
        <time>2019-03-03T14:14:23Z</time>
      </trkpt>
      <trkpt lat="44.88918" lon="5.1225">
        <ele>738.91</ele>
        <time>2019-03-03T14:14:37Z</time>
      </trkpt>
      <trkpt lat="44.88917" lon="5.12236">
        <ele>736.51</ele>
        <time>2019-03-03T14:14:48Z</time>
      </trkpt>
      <trkpt lat="44.88915" lon="5.12214">
        <ele>734.1</ele>
        <time>2019-03-03T14:15:02Z</time>
      </trkpt>
      <trkpt lat="44.88914" lon="5.12193">
        <ele>733.62</ele>
        <time>2019-03-03T14:15:13Z</time>
      </trkpt>
      <trkpt lat="44.88909" lon="5.12175">
        <ele>731.7</ele>
        <time>2019-03-03T14:15:26Z</time>
      </trkpt>
      <trkpt lat="44.88909" lon="5.12163">
        <ele>730.74</ele>
        <time>2019-03-03T14:15:44Z</time>
      </trkpt>
      <trkpt lat="44.88909" lon="5.12146">
        <ele>729.78</ele>
        <time>2019-03-03T14:15:58Z</time>
      </trkpt>
      <trkpt lat="44.88908" lon="5.12134">
        <ele>725.93</ele>
        <time>2019-03-03T14:16:10Z</time>
      </trkpt>
      <trkpt lat="44.88909" lon="5.12123">
        <ele>723.05</ele>
        <time>2019-03-03T14:16:21Z</time>
      </trkpt>
      <trkpt lat="44.88907" lon="5.12114">
        <ele>719.68</ele>
        <time>2019-03-03T14:16:32Z</time>
      </trkpt>
      <trkpt lat="44.88902" lon="5.12104">
        <ele>716.8</ele>
        <time>2019-03-03T14:16:42Z</time>
      </trkpt>
      <trkpt lat="44.88897" lon="5.12095">
        <ele>713.92</ele>
        <time>2019-03-03T14:16:53Z</time>
      </trkpt>
      <trkpt lat="44.88888" lon="5.12083">
        <ele>711.03</ele>
        <time>2019-03-03T14:17:06Z</time>
      </trkpt>
      <trkpt lat="44.8888" lon="5.12069">
        <ele>708.63</ele>
        <time>2019-03-03T14:17:19Z</time>
      </trkpt>
      <trkpt lat="44.88873" lon="5.12049">
        <ele>705.26</ele>
        <time>2019-03-03T14:17:34Z</time>
      </trkpt>
      <trkpt lat="44.88868" lon="5.12032">
        <ele>703.34</ele>
        <time>2019-03-03T14:17:46Z</time>
      </trkpt>
      <trkpt lat="44.88864" lon="5.12009">
        <ele>700.94</ele>
        <time>2019-03-03T14:18:00Z</time>
      </trkpt>
      <trkpt lat="44.88864" lon="5.12001">
        <ele>700.46</ele>
        <time>2019-03-03T14:18:04Z</time>
      </trkpt>
      <trkpt lat="44.88863" lon="5.1198">
        <ele>697.57</ele>
        <time>2019-03-03T14:18:19Z</time>
      </trkpt>
      <trkpt lat="44.88865" lon="5.11964">
        <ele>694.21</ele>
        <time>2019-03-03T14:18:31Z</time>
      </trkpt>
      <trkpt lat="44.88863" lon="5.11943">
        <ele>691.81</ele>
        <time>2019-03-03T14:18:45Z</time>
      </trkpt>
      <trkpt lat="44.88857" lon="5.1193">
        <ele>689.88</ele>
        <time>2019-03-03T14:18:57Z</time>
      </trkpt>
      <trkpt lat="44.88855" lon="5.11926">
        <ele>688.92</ele>
        <time>2019-03-03T14:19:00Z</time>
      </trkpt>
      <trkpt lat="44.88846" lon="5.11906">
        <ele>686.52</ele>
        <time>2019-03-03T14:19:13Z</time>
      </trkpt>
      <trkpt lat="44.88838" lon="5.11899">
        <ele>683.63</ele>
        <time>2019-03-03T14:19:25Z</time>
      </trkpt>
      <trkpt lat="44.88831" lon="5.11879">
        <ele>680.75</ele>
        <time>2019-03-03T14:19:37Z</time>
      </trkpt>
      <trkpt lat="44.88823" lon="5.11863">
        <ele>678.35</ele>
        <time>2019-03-03T14:19:50Z</time>
      </trkpt>
      <trkpt lat="44.8882" lon="5.11838">
        <ele>674.5</ele>
        <time>2019-03-03T14:20:03Z</time>
      </trkpt>
      <trkpt lat="44.88822" lon="5.11818">
        <ele>672.58</ele>
        <time>2019-03-03T14:20:12Z</time>
      </trkpt>
      <trkpt lat="44.88825" lon="5.11794">
        <ele>670.66</ele>
        <time>2019-03-03T14:20:22Z</time>
      </trkpt>
      <trkpt lat="44.88824" lon="5.11774">
        <ele>667.77</ele>
        <time>2019-03-03T14:20:34Z</time>
      </trkpt>
      <trkpt lat="44.88824" lon="5.11773">
        <ele>666.81</ele>
        <time>2019-03-03T14:20:35Z</time>
      </trkpt>
      <trkpt lat="44.88819" lon="5.1176">
        <ele>664.41</ele>
        <time>2019-03-03T14:20:45Z</time>
      </trkpt>
      <trkpt lat="44.88817" lon="5.11748">
        <ele>662.49</ele>
        <time>2019-03-03T14:20:52Z</time>
      </trkpt>
      <trkpt lat="44.88812" lon="5.11725">
        <ele>659.12</ele>
        <time>2019-03-03T14:21:05Z</time>
      </trkpt>
      <trkpt lat="44.8881" lon="5.11703">
        <ele>657.2</ele>
        <time>2019-03-03T14:21:19Z</time>
      </trkpt>
      <trkpt lat="44.8881" lon="5.11695">
        <ele>655.76</ele>
        <time>2019-03-03T14:21:24Z</time>
      </trkpt>
      <trkpt lat="44.88809" lon="5.11683">
        <ele>654.8</ele>
        <time>2019-03-03T14:21:28Z</time>
      </trkpt>
      <trkpt lat="44.88805" lon="5.11668">
        <ele>652.87</ele>
        <time>2019-03-03T14:21:37Z</time>
      </trkpt>
      <trkpt lat="44.88804" lon="5.11647">
        <ele>652.39</ele>
        <time>2019-03-03T14:23:05Z</time>
      </trkpt>
      <trkpt lat="44.88803" lon="5.1164">
        <ele>651.91</ele>
        <time>2019-03-03T14:23:09Z</time>
      </trkpt>
      <trkpt lat="44.88805" lon="5.11635">
        <ele>651.91</ele>
        <time>2019-03-03T14:23:12Z</time>
      </trkpt>
      <trkpt lat="44.88806" lon="5.11632">
        <ele>651.91</ele>
        <time>2019-03-03T14:23:14Z</time>
      </trkpt>
      <trkpt lat="44.88807" lon="5.11629">
        <ele>651.91</ele>
        <time>2019-03-03T14:23:16Z</time>
      </trkpt>
      <trkpt lat="44.88807" lon="5.11627">
        <ele>651.91</ele>
        <time>2019-03-03T14:23:17Z</time>
      </trkpt>
      <trkpt lat="44.88811" lon="5.11602">
        <ele>650.47</ele>
        <time>2019-03-03T14:23:30Z</time>
      </trkpt>
      <trkpt lat="44.88813" lon="5.11592">
        <ele>649.03</ele>
        <time>2019-03-03T14:23:42Z</time>
      </trkpt>
      <trkpt lat="44.88813" lon="5.11589">
        <ele>649.03</ele>
        <time>2019-03-03T14:24:00Z</time>
      </trkpt>
      <trkpt lat="44.88815" lon="5.11584">
        <ele>649.03</ele>
        <time>2019-03-03T14:24:14Z</time>
      </trkpt>
      <trkpt lat="44.88816" lon="5.1157">
        <ele>648.55</ele>
        <time>2019-03-03T14:24:25Z</time>
      </trkpt>
      <trkpt lat="44.88819" lon="5.11551">
        <ele>647.1</ele>
        <time>2019-03-03T14:24:39Z</time>
      </trkpt>
      <trkpt lat="44.88823" lon="5.11533">
        <ele>645.66</ele>
        <time>2019-03-03T14:24:51Z</time>
      </trkpt>
      <trkpt lat="44.88829" lon="5.11518">
        <ele>643.26</ele>
        <time>2019-03-03T14:25:04Z</time>
      </trkpt>
      <trkpt lat="44.88834" lon="5.11506">
        <ele>639.89</ele>
        <time>2019-03-03T14:25:14Z</time>
      </trkpt>
      <trkpt lat="44.88836" lon="5.11497">
        <ele>637.01</ele>
        <time>2019-03-03T14:25:21Z</time>
      </trkpt>
      <trkpt lat="44.88837" lon="5.11493">
        <ele>635.57</ele>
        <time>2019-03-03T14:25:24Z</time>
      </trkpt>
      <trkpt lat="44.88839" lon="5.11489">
        <ele>635.09</ele>
        <time>2019-03-03T14:25:28Z</time>
      </trkpt>
      <trkpt lat="44.8885" lon="5.11475">
        <ele>633.17</ele>
        <time>2019-03-03T14:25:42Z</time>
      </trkpt>
      <trkpt lat="44.88852" lon="5.1147">
        <ele>632.68</ele>
        <time>2019-03-03T14:25:45Z</time>
      </trkpt>
      <trkpt lat="44.88857" lon="5.11462">
        <ele>631.72</ele>
        <time>2019-03-03T14:25:56Z</time>
      </trkpt>
      <trkpt lat="44.8886" lon="5.1146">
        <ele>631.24</ele>
        <time>2019-03-03T14:26:08Z</time>
      </trkpt>
      <trkpt lat="44.88866" lon="5.11458">
        <ele>632.68</ele>
        <time>2019-03-03T14:26:31Z</time>
      </trkpt>
      <trkpt lat="44.88876" lon="5.11469">
        <ele>635.09</ele>
        <time>2019-03-03T14:26:49Z</time>
      </trkpt>
      <trkpt lat="44.88881" lon="5.11471">
        <ele>635.09</ele>
        <time>2019-03-03T14:26:54Z</time>
      </trkpt>
      <trkpt lat="44.88897" lon="5.11468">
        <ele>635.09</ele>
        <time>2019-03-03T14:27:09Z</time>
      </trkpt>
      <trkpt lat="44.88914" lon="5.11458">
        <ele>635.09</ele>
        <time>2019-03-03T14:27:23Z</time>
      </trkpt>
      <trkpt lat="44.88926" lon="5.11453">
        <ele>635.57</ele>
        <time>2019-03-03T14:27:38Z</time>
      </trkpt>
      <trkpt lat="44.88941" lon="5.11444">
        <ele>636.53</ele>
        <time>2019-03-03T14:27:52Z</time>
      </trkpt>
      <trkpt lat="44.88962" lon="5.11434">
        <ele>637.49</ele>
        <time>2019-03-03T14:28:07Z</time>
      </trkpt>
      <trkpt lat="44.88979" lon="5.11426">
        <ele>638.45</ele>
        <time>2019-03-03T14:28:20Z</time>
      </trkpt>
      <trkpt lat="44.88991" lon="5.11417">
        <ele>638.93</ele>
        <time>2019-03-03T14:28:34Z</time>
      </trkpt>
      <trkpt lat="44.89005" lon="5.11408">
        <ele>640.38</ele>
        <time>2019-03-03T14:28:48Z</time>
      </trkpt>
      <trkpt lat="44.89022" lon="5.11396">
        <ele>640.86</ele>
        <time>2019-03-03T14:29:03Z</time>
      </trkpt>
      <trkpt lat="44.89036" lon="5.11382">
        <ele>640.86</ele>
        <time>2019-03-03T14:29:16Z</time>
      </trkpt>
      <trkpt lat="44.89042" lon="5.11376">
        <ele>640.38</ele>
        <time>2019-03-03T14:29:21Z</time>
      </trkpt>
      <trkpt lat="44.89058" lon="5.11361">
        <ele>640.38</ele>
        <time>2019-03-03T14:29:34Z</time>
      </trkpt>
      <trkpt lat="44.89072" lon="5.11344">
        <ele>640.38</ele>
        <time>2019-03-03T14:29:47Z</time>
      </trkpt>
      <trkpt lat="44.89085" lon="5.11325">
        <ele>638.93</ele>
        <time>2019-03-03T14:30:01Z</time>
      </trkpt>
      <trkpt lat="44.89089" lon="5.11318">
        <ele>637.97</ele>
        <time>2019-03-03T14:30:05Z</time>
      </trkpt>
      <trkpt lat="44.89094" lon="5.11296">
        <ele>634.61</ele>
        <time>2019-03-03T14:30:19Z</time>
      </trkpt>
      <trkpt lat="44.89094" lon="5.11293">
        <ele>634.13</ele>
        <time>2019-03-03T14:30:21Z</time>
      </trkpt>
      <trkpt lat="44.89094" lon="5.11292">
        <ele>634.13</ele>
        <time>2019-03-03T14:30:22Z</time>
      </trkpt>
      <trkpt lat="44.89091" lon="5.1127">
        <ele>630.76</ele>
        <time>2019-03-03T14:30:34Z</time>
      </trkpt>
      <trkpt lat="44.89091" lon="5.11266">
        <ele>630.28</ele>
        <time>2019-03-03T14:30:36Z</time>
      </trkpt>
      <trkpt lat="44.89089" lon="5.11251">
        <ele>626.92</ele>
        <time>2019-03-03T14:30:46Z</time>
      </trkpt>
      <trkpt lat="44.89088" lon="5.1124">
        <ele>624.51</ele>
        <time>2019-03-03T14:30:55Z</time>
      </trkpt>
      <trkpt lat="44.89088" lon="5.11237">
        <ele>624.99</ele>
        <time>2019-03-03T14:30:56Z</time>
      </trkpt>
      <trkpt lat="44.89088" lon="5.11222">
        <ele>621.63</ele>
        <time>2019-03-03T14:31:04Z</time>
      </trkpt>
      <trkpt lat="44.89094" lon="5.11199">
        <ele>619.23</ele>
        <time>2019-03-03T14:31:15Z</time>
      </trkpt>
      <trkpt lat="44.89099" lon="5.11187">
        <ele>617.78</ele>
        <time>2019-03-03T14:31:22Z</time>
      </trkpt>
      <trkpt lat="44.89109" lon="5.11168">
        <ele>615.86</ele>
        <time>2019-03-03T14:31:34Z</time>
      </trkpt>
      <trkpt lat="44.89112" lon="5.11162">
        <ele>615.38</ele>
        <time>2019-03-03T14:31:37Z</time>
      </trkpt>
      <trkpt lat="44.89113" lon="5.1116">
        <ele>615.38</ele>
        <time>2019-03-03T14:31:38Z</time>
      </trkpt>
      <trkpt lat="44.89122" lon="5.11146">
        <ele>612.98</ele>
        <time>2019-03-03T14:31:47Z</time>
      </trkpt>
      <trkpt lat="44.89123" lon="5.11144">
        <ele>612.5</ele>
        <time>2019-03-03T14:31:48Z</time>
      </trkpt>
      <trkpt lat="44.89135" lon="5.11123">
        <ele>610.57</ele>
        <time>2019-03-03T14:32:01Z</time>
      </trkpt>
      <trkpt lat="44.89149" lon="5.11103">
        <ele>608.65</ele>
        <time>2019-03-03T14:32:15Z</time>
      </trkpt>
      <trkpt lat="44.89164" lon="5.11089">
        <ele>607.69</ele>
        <time>2019-03-03T14:32:29Z</time>
      </trkpt>
      <trkpt lat="44.89181" lon="5.11078">
        <ele>607.69</ele>
        <time>2019-03-03T14:32:43Z</time>
      </trkpt>
      <trkpt lat="44.89197" lon="5.11065">
        <ele>607.21</ele>
        <time>2019-03-03T14:32:56Z</time>
      </trkpt>
      <trkpt lat="44.89212" lon="5.11055">
        <ele>605.77</ele>
        <time>2019-03-03T14:33:09Z</time>
      </trkpt>
      <trkpt lat="44.89222" lon="5.11042">
        <ele>602.4</ele>
        <time>2019-03-03T14:33:19Z</time>
      </trkpt>
      <trkpt lat="44.8923" lon="5.11028">
        <ele>600</ele>
        <time>2019-03-03T14:33:30Z</time>
      </trkpt>
      <trkpt lat="44.8924" lon="5.11009">
        <ele>597.12</ele>
        <time>2019-03-03T14:33:44Z</time>
      </trkpt>
      <trkpt lat="44.89248" lon="5.10989">
        <ele>595.67</ele>
        <time>2019-03-03T14:33:58Z</time>
      </trkpt>
      <trkpt lat="44.89257" lon="5.10972">
        <ele>595.19</ele>
        <time>2019-03-03T14:34:09Z</time>
      </trkpt>
      <trkpt lat="44.89268" lon="5.10955">
        <ele>594.71</ele>
        <time>2019-03-03T14:34:24Z</time>
      </trkpt>
      <trkpt lat="44.89284" lon="5.10945">
        <ele>594.71</ele>
        <time>2019-03-03T14:34:36Z</time>
      </trkpt>
      <trkpt lat="44.89303" lon="5.10931">
        <ele>594.23</ele>
        <time>2019-03-03T14:34:51Z</time>
      </trkpt>
      <trkpt lat="44.89322" lon="5.10916">
        <ele>594.23</ele>
        <time>2019-03-03T14:35:07Z</time>
      </trkpt>
      <trkpt lat="44.89343" lon="5.10902">
        <ele>593.75</ele>
        <time>2019-03-03T14:35:22Z</time>
      </trkpt>
      <trkpt lat="44.89358" lon="5.10893">
        <ele>593.27</ele>
        <time>2019-03-03T14:35:37Z</time>
      </trkpt>
      <trkpt lat="44.89375" lon="5.10887">
        <ele>592.31</ele>
        <time>2019-03-03T14:35:52Z</time>
      </trkpt>
      <trkpt lat="44.89394" lon="5.10885">
        <ele>589.91</ele>
        <time>2019-03-03T14:36:07Z</time>
      </trkpt>
      <trkpt lat="44.8941" lon="5.10883">
        <ele>588.95</ele>
        <time>2019-03-03T14:36:18Z</time>
      </trkpt>
      <trkpt lat="44.89422" lon="5.10877">
        <ele>588.46</ele>
        <time>2019-03-03T14:36:27Z</time>
      </trkpt>
      <trkpt lat="44.89423" lon="5.10876">
        <ele>587.98</ele>
        <time>2019-03-03T14:36:28Z</time>
      </trkpt>
      <trkpt lat="44.89424" lon="5.10874">
        <ele>587.98</ele>
        <time>2019-03-03T14:36:29Z</time>
      </trkpt>
      <trkpt lat="44.89425" lon="5.10873">
        <ele>587.5</ele>
        <time>2019-03-03T14:36:30Z</time>
      </trkpt>
      <trkpt lat="44.89427" lon="5.10872">
        <ele>587.5</ele>
        <time>2019-03-03T14:36:31Z</time>
      </trkpt>
      <trkpt lat="44.89439" lon="5.10863">
        <ele>583.66</ele>
        <time>2019-03-03T14:36:42Z</time>
      </trkpt>
      <trkpt lat="44.89453" lon="5.10853">
        <ele>580.77</ele>
        <time>2019-03-03T14:36:56Z</time>
      </trkpt>
      <trkpt lat="44.89459" lon="5.1085">
        <ele>579.81</ele>
        <time>2019-03-03T14:37:01Z</time>
      </trkpt>
      <trkpt lat="44.89461" lon="5.1085">
        <ele>579.81</ele>
        <time>2019-03-03T14:37:02Z</time>
      </trkpt>
      <trkpt lat="44.89476" lon="5.10842">
        <ele>576.93</ele>
        <time>2019-03-03T14:37:14Z</time>
      </trkpt>
      <trkpt lat="44.89492" lon="5.1083">
        <ele>574.53</ele>
        <time>2019-03-03T14:37:28Z</time>
      </trkpt>
      <trkpt lat="44.89511" lon="5.10819">
        <ele>572.12</ele>
        <time>2019-03-03T14:37:43Z</time>
      </trkpt>
      <trkpt lat="44.89525" lon="5.10807">
        <ele>570.2</ele>
        <time>2019-03-03T14:37:56Z</time>
      </trkpt>
      <trkpt lat="44.89538" lon="5.1079">
        <ele>567.32</ele>
        <time>2019-03-03T14:38:11Z</time>
      </trkpt>
      <trkpt lat="44.89543" lon="5.10781">
        <ele>566.35</ele>
        <time>2019-03-03T14:38:16Z</time>
      </trkpt>
      <trkpt lat="44.89548" lon="5.10763">
        <ele>564.43</ele>
        <time>2019-03-03T14:38:25Z</time>
      </trkpt>
      <trkpt lat="44.89557" lon="5.10741">
        <ele>562.51</ele>
        <time>2019-03-03T14:38:38Z</time>
      </trkpt>
      <trkpt lat="44.89562" lon="5.1072">
        <ele>560.59</ele>
        <time>2019-03-03T14:38:51Z</time>
      </trkpt>
      <trkpt lat="44.8957" lon="5.10694">
        <ele>557.7</ele>
        <time>2019-03-03T14:39:06Z</time>
      </trkpt>
      <trkpt lat="44.89577" lon="5.10683">
        <ele>554.34</ele>
        <time>2019-03-03T14:39:16Z</time>
      </trkpt>
      <trkpt lat="44.89585" lon="5.10664">
        <ele>551.45</ele>
        <time>2019-03-03T14:39:30Z</time>
      </trkpt>
      <trkpt lat="44.89591" lon="5.10649">
        <ele>548.09</ele>
        <time>2019-03-03T14:39:40Z</time>
      </trkpt>
      <trkpt lat="44.89596" lon="5.10629">
        <ele>544.72</ele>
        <time>2019-03-03T14:39:54Z</time>
      </trkpt>
      <trkpt lat="44.89602" lon="5.10613">
        <ele>542.32</ele>
        <time>2019-03-03T14:40:05Z</time>
      </trkpt>
      <trkpt lat="44.89611" lon="5.10597">
        <ele>539.92</ele>
        <time>2019-03-03T14:40:18Z</time>
      </trkpt>
      <trkpt lat="44.89617" lon="5.10581">
        <ele>536.55</ele>
        <time>2019-03-03T14:40:30Z</time>
      </trkpt>
      <trkpt lat="44.89625" lon="5.1057">
        <ele>534.63</ele>
        <time>2019-03-03T14:40:40Z</time>
      </trkpt>
      <trkpt lat="44.89634" lon="5.10553">
        <ele>532.23</ele>
        <time>2019-03-03T14:40:52Z</time>
      </trkpt>
      <trkpt lat="44.8964" lon="5.10535">
        <ele>529.82</ele>
        <time>2019-03-03T14:41:05Z</time>
      </trkpt>
      <trkpt lat="44.8965" lon="5.10512">
        <ele>526.94</ele>
        <time>2019-03-03T14:41:19Z</time>
      </trkpt>
      <trkpt lat="44.89658" lon="5.10488">
        <ele>524.06</ele>
        <time>2019-03-03T14:41:34Z</time>
      </trkpt>
      <trkpt lat="44.8966" lon="5.10469">
        <ele>523.58</ele>
        <time>2019-03-03T14:41:47Z</time>
      </trkpt>
      <trkpt lat="44.89666" lon="5.10444">
        <ele>521.65</ele>
        <time>2019-03-03T14:42:01Z</time>
      </trkpt>
      <trkpt lat="44.89667" lon="5.10439">
        <ele>521.65</ele>
        <time>2019-03-03T14:42:04Z</time>
      </trkpt>
      <trkpt lat="44.89669" lon="5.10437">
        <ele>521.17</ele>
        <time>2019-03-03T14:42:06Z</time>
      </trkpt>
      <trkpt lat="44.89677" lon="5.10421">
        <ele>518.29</ele>
        <time>2019-03-03T14:42:21Z</time>
      </trkpt>
      <trkpt lat="44.89685" lon="5.1041">
        <ele>516.37</ele>
        <time>2019-03-03T14:42:32Z</time>
      </trkpt>
      <trkpt lat="44.89695" lon="5.10394">
        <ele>513.96</ele>
        <time>2019-03-03T14:42:45Z</time>
      </trkpt>
      <trkpt lat="44.89704" lon="5.10381">
        <ele>512.52</ele>
        <time>2019-03-03T14:42:56Z</time>
      </trkpt>
      <trkpt lat="44.89713" lon="5.10364">
        <ele>509.64</ele>
        <time>2019-03-03T14:43:08Z</time>
      </trkpt>
      <trkpt lat="44.89716" lon="5.10359">
        <ele>508.19</ele>
        <time>2019-03-03T14:43:13Z</time>
      </trkpt>
      <trkpt lat="44.89724" lon="5.10346">
        <ele>504.83</ele>
        <time>2019-03-03T14:43:25Z</time>
      </trkpt>
      <trkpt lat="44.89733" lon="5.10333">
        <ele>501.46</ele>
        <time>2019-03-03T14:43:37Z</time>
      </trkpt>
      <trkpt lat="44.8974" lon="5.10322">
        <ele>500.5</ele>
        <time>2019-03-03T14:43:44Z</time>
      </trkpt>
      <trkpt lat="44.89753" lon="5.10311">
        <ele>498.58</ele>
        <time>2019-03-03T14:43:56Z</time>
      </trkpt>
      <trkpt lat="44.89767" lon="5.103">
        <ele>496.18</ele>
        <time>2019-03-03T14:44:09Z</time>
      </trkpt>
      <trkpt lat="44.89775" lon="5.10286">
        <ele>493.29</ele>
        <time>2019-03-03T14:44:21Z</time>
      </trkpt>
      <trkpt lat="44.89789" lon="5.10274">
        <ele>491.37</ele>
        <time>2019-03-03T14:44:33Z</time>
      </trkpt>
      <trkpt lat="44.898" lon="5.10265">
        <ele>488.49</ele>
        <time>2019-03-03T14:44:46Z</time>
      </trkpt>
      <trkpt lat="44.89803" lon="5.10261">
        <ele>487.53</ele>
        <time>2019-03-03T14:44:51Z</time>
      </trkpt>
      <trkpt lat="44.89813" lon="5.10246">
        <ele>485.12</ele>
        <time>2019-03-03T14:45:03Z</time>
      </trkpt>
      <trkpt lat="44.89823" lon="5.1023">
        <ele>482.24</ele>
        <time>2019-03-03T14:45:14Z</time>
      </trkpt>
      <trkpt lat="44.89834" lon="5.10212">
        <ele>479.84</ele>
        <time>2019-03-03T14:45:29Z</time>
      </trkpt>
      <trkpt lat="44.89842" lon="5.102">
        <ele>477.91</ele>
        <time>2019-03-03T14:45:42Z</time>
      </trkpt>
      <trkpt lat="44.89849" lon="5.10184">
        <ele>476.47</ele>
        <time>2019-03-03T14:45:53Z</time>
      </trkpt>
      <trkpt lat="44.89856" lon="5.10176">
        <ele>475.99</ele>
        <time>2019-03-03T14:46:06Z</time>
      </trkpt>
      <trkpt lat="44.89861" lon="5.10166">
        <ele>477.91</ele>
        <time>2019-03-03T14:51:02Z</time>
      </trkpt>
      <trkpt lat="44.89864" lon="5.10159">
        <ele>478.39</ele>
        <time>2019-03-03T14:51:15Z</time>
      </trkpt>
      <trkpt lat="44.89867" lon="5.10154">
        <ele>476.95</ele>
        <time>2019-03-03T14:51:21Z</time>
      </trkpt>
      <trkpt lat="44.89873" lon="5.10146">
        <ele>476.47</ele>
        <time>2019-03-03T14:51:33Z</time>
      </trkpt>
      <trkpt lat="44.89884" lon="5.10123">
        <ele>476.47</ele>
        <time>2019-03-03T14:51:49Z</time>
      </trkpt>
      <trkpt lat="44.89884" lon="5.10119">
        <ele>477.91</ele>
        <time>2019-03-03T14:51:51Z</time>
      </trkpt>
      <trkpt lat="44.89895" lon="5.10098">
        <ele>478.39</ele>
        <time>2019-03-03T14:52:06Z</time>
      </trkpt>
      <trkpt lat="44.89901" lon="5.10089">
        <ele>478.87</ele>
        <time>2019-03-03T14:52:13Z</time>
      </trkpt>
      <trkpt lat="44.89908" lon="5.10079">
        <ele>479.35</ele>
        <time>2019-03-03T14:52:19Z</time>
      </trkpt>
      <trkpt lat="44.89919" lon="5.10059">
        <ele>481.28</ele>
        <time>2019-03-03T14:52:34Z</time>
      </trkpt>
      <trkpt lat="44.89922" lon="5.10047">
        <ele>484.64</ele>
        <time>2019-03-03T14:52:43Z</time>
      </trkpt>
      <trkpt lat="44.89924" lon="5.10033">
        <ele>488.01</ele>
        <time>2019-03-03T14:52:55Z</time>
      </trkpt>
      <trkpt lat="44.89926" lon="5.10022">
        <ele>490.89</ele>
        <time>2019-03-03T14:53:07Z</time>
      </trkpt>
      <trkpt lat="44.89924" lon="5.10007">
        <ele>490.41</ele>
        <time>2019-03-03T14:54:17Z</time>
      </trkpt>
      <trkpt lat="44.89929" lon="5.09995">
        <ele>488.49</ele>
        <time>2019-03-03T14:54:34Z</time>
      </trkpt>
      <trkpt lat="44.89931" lon="5.09991">
        <ele>488.49</ele>
        <time>2019-03-03T14:54:38Z</time>
      </trkpt>
      <trkpt lat="44.89945" lon="5.09971">
        <ele>488.01</ele>
        <time>2019-03-03T14:54:55Z</time>
      </trkpt>
      <trkpt lat="44.89946" lon="5.0997">
        <ele>488.01</ele>
        <time>2019-03-03T14:54:56Z</time>
      </trkpt>
      <trkpt lat="44.89954" lon="5.09958">
        <ele>490.41</ele>
        <time>2019-03-03T14:55:10Z</time>
      </trkpt>
      <trkpt lat="44.89958" lon="5.09954">
        <ele>491.37</ele>
        <time>2019-03-03T14:56:27Z</time>
      </trkpt>
      <trkpt lat="44.89959" lon="5.09948">
        <ele>491.37</ele>
        <time>2019-03-03T14:57:48Z</time>
      </trkpt>
      <trkpt lat="44.89956" lon="5.09955">
        <ele>491.85</ele>
        <time>2019-03-03T14:59:42Z</time>
      </trkpt>
      <trkpt lat="44.89953" lon="5.09963">
        <ele>491.85</ele>
        <time>2019-03-03T14:59:55Z</time>
      </trkpt>
      <trkpt lat="44.89944" lon="5.09975">
        <ele>489.93</ele>
        <time>2019-03-03T15:00:14Z</time>
      </trkpt>
      <trkpt lat="44.89936" lon="5.0999">
        <ele>489.45</ele>
        <time>2019-03-03T15:00:30Z</time>
      </trkpt>
      <trkpt lat="44.89938" lon="5.09998">
        <ele>490.89</ele>
        <time>2019-03-03T15:00:37Z</time>
      </trkpt>
      <trkpt lat="44.89939" lon="5.10006">
        <ele>492.81</ele>
        <time>2019-03-03T15:00:54Z</time>
      </trkpt>
      <trkpt lat="44.89938" lon="5.10016">
        <ele>492.33</ele>
        <time>2019-03-03T15:01:08Z</time>
      </trkpt>
      <trkpt lat="44.89936" lon="5.10026">
        <ele>489.45</ele>
        <time>2019-03-03T15:01:24Z</time>
      </trkpt>
      <trkpt lat="44.89933" lon="5.10036">
        <ele>486.56</ele>
        <time>2019-03-03T15:01:36Z</time>
      </trkpt>
      <trkpt lat="44.89926" lon="5.10047">
        <ele>483.2</ele>
        <time>2019-03-03T15:01:51Z</time>
      </trkpt>
      <trkpt lat="44.8992" lon="5.1007">
        <ele>479.84</ele>
        <time>2019-03-03T15:02:09Z</time>
      </trkpt>
      <trkpt lat="44.89909" lon="5.10089">
        <ele>479.84</ele>
        <time>2019-03-03T15:02:24Z</time>
      </trkpt>
      <trkpt lat="44.89898" lon="5.10106">
        <ele>479.35</ele>
        <time>2019-03-03T15:02:39Z</time>
      </trkpt>
      <trkpt lat="44.8989" lon="5.10121">
        <ele>478.87</ele>
        <time>2019-03-03T15:02:52Z</time>
      </trkpt>
      <trkpt lat="44.89881" lon="5.10138">
        <ele>477.91</ele>
        <time>2019-03-03T15:03:06Z</time>
      </trkpt>
      <trkpt lat="44.8987" lon="5.10146">
        <ele>477.91</ele>
        <time>2019-03-03T15:03:19Z</time>
      </trkpt>
      <trkpt lat="44.89866" lon="5.10159">
        <ele>479.35</ele>
        <time>2019-03-03T15:03:30Z</time>
      </trkpt>
      <trkpt lat="44.89862" lon="5.10168">
        <ele>478.39</ele>
        <time>2019-03-03T15:03:42Z</time>
      </trkpt>
      <trkpt lat="44.8986" lon="5.10159">
        <ele>475.51</ele>
        <time>2019-03-03T15:03:55Z</time>
      </trkpt>
      <trkpt lat="44.8986" lon="5.10145">
        <ele>472.14</ele>
        <time>2019-03-03T15:04:09Z</time>
      </trkpt>
      <trkpt lat="44.89862" lon="5.10131">
        <ele>469.26</ele>
        <time>2019-03-03T15:04:22Z</time>
      </trkpt>
      <trkpt lat="44.89864" lon="5.10118">
        <ele>466.38</ele>
        <time>2019-03-03T15:04:35Z</time>
      </trkpt>
      <trkpt lat="44.89865" lon="5.10106">
        <ele>463.49</ele>
        <time>2019-03-03T15:04:45Z</time>
      </trkpt>
      <trkpt lat="44.89864" lon="5.10098">
        <ele>462.53</ele>
        <time>2019-03-03T15:04:50Z</time>
      </trkpt>
      <trkpt lat="44.89866" lon="5.10084">
        <ele>460.13</ele>
        <time>2019-03-03T15:04:59Z</time>
      </trkpt>
      <trkpt lat="44.89865" lon="5.10077">
        <ele>459.17</ele>
        <time>2019-03-03T15:05:03Z</time>
      </trkpt>
      <trkpt lat="44.89866" lon="5.1006">
        <ele>455.8</ele>
        <time>2019-03-03T15:05:15Z</time>
      </trkpt>
      <trkpt lat="44.89867" lon="5.10045">
        <ele>452.92</ele>
        <time>2019-03-03T15:05:26Z</time>
      </trkpt>
      <trkpt lat="44.89868" lon="5.10044">
        <ele>452.92</ele>
        <time>2019-03-03T15:05:27Z</time>
      </trkpt>
      <trkpt lat="44.89868" lon="5.10028">
        <ele>449.55</ele>
        <time>2019-03-03T15:05:39Z</time>
      </trkpt>
      <trkpt lat="44.89866" lon="5.10009">
        <ele>446.67</ele>
        <time>2019-03-03T15:05:49Z</time>
      </trkpt>
      <trkpt lat="44.89864" lon="5.09986">
        <ele>443.79</ele>
        <time>2019-03-03T15:06:01Z</time>
      </trkpt>
      <trkpt lat="44.89862" lon="5.09975">
        <ele>440.9</ele>
        <time>2019-03-03T15:06:12Z</time>
      </trkpt>
      <trkpt lat="44.89861" lon="5.09972">
        <ele>439.94</ele>
        <time>2019-03-03T15:06:14Z</time>
      </trkpt>
      <trkpt lat="44.8986" lon="5.0996">
        <ele>437.06</ele>
        <time>2019-03-03T15:06:25Z</time>
      </trkpt>
      <trkpt lat="44.89858" lon="5.09952">
        <ele>435.61</ele>
        <time>2019-03-03T15:06:31Z</time>
      </trkpt>
      <trkpt lat="44.89855" lon="5.09937">
        <ele>432.25</ele>
        <time>2019-03-03T15:06:43Z</time>
      </trkpt>
      <trkpt lat="44.89855" lon="5.09932">
        <ele>431.77</ele>
        <time>2019-03-03T15:06:46Z</time>
      </trkpt>
      <trkpt lat="44.89861" lon="5.09912">
        <ele>427.92</ele>
        <time>2019-03-03T15:06:59Z</time>
      </trkpt>
      <trkpt lat="44.89863" lon="5.09907">
        <ele>427.44</ele>
        <time>2019-03-03T15:07:03Z</time>
      </trkpt>
      <trkpt lat="44.89867" lon="5.09891">
        <ele>424.08</ele>
        <time>2019-03-03T15:07:15Z</time>
      </trkpt>
      <trkpt lat="44.89867" lon="5.09888">
        <ele>423.6</ele>
        <time>2019-03-03T15:07:17Z</time>
      </trkpt>
      <trkpt lat="44.89868" lon="5.09876">
        <ele>422.16</ele>
        <time>2019-03-03T15:07:23Z</time>
      </trkpt>
      <trkpt lat="44.89869" lon="5.09871">
        <ele>421.19</ele>
        <time>2019-03-03T15:07:26Z</time>
      </trkpt>
      <trkpt lat="44.89872" lon="5.09848">
        <ele>417.83</ele>
        <time>2019-03-03T15:07:40Z</time>
      </trkpt>
      <trkpt lat="44.8988" lon="5.09828">
        <ele>415.91</ele>
        <time>2019-03-03T15:07:53Z</time>
      </trkpt>
      <trkpt lat="44.89883" lon="5.09819">
        <ele>414.95</ele>
        <time>2019-03-03T15:08:00Z</time>
      </trkpt>
      <trkpt lat="44.89895" lon="5.09798">
        <ele>412.06</ele>
        <time>2019-03-03T15:08:15Z</time>
      </trkpt>
      <trkpt lat="44.89904" lon="5.0978">
        <ele>410.14</ele>
        <time>2019-03-03T15:08:29Z</time>
      </trkpt>
      <trkpt lat="44.89907" lon="5.09776">
        <ele>409.66</ele>
        <time>2019-03-03T15:08:32Z</time>
      </trkpt>
      <trkpt lat="44.89919" lon="5.09756">
        <ele>406.77</ele>
        <time>2019-03-03T15:08:45Z</time>
      </trkpt>
      <trkpt lat="44.89925" lon="5.09743">
        <ele>403.41</ele>
        <time>2019-03-03T15:08:56Z</time>
      </trkpt>
      <trkpt lat="44.89929" lon="5.09731">
        <ele>403.41</ele>
        <time>2019-03-03T15:09:13Z</time>
      </trkpt>
      <trkpt lat="44.89931" lon="5.09721">
        <ele>401.49</ele>
        <time>2019-03-03T15:10:26Z</time>
      </trkpt>
      <trkpt lat="44.89932" lon="5.09704">
        <ele>398.12</ele>
        <time>2019-03-03T15:10:39Z</time>
      </trkpt>
      <trkpt lat="44.89933" lon="5.09696">
        <ele>396.68</ele>
        <time>2019-03-03T15:10:44Z</time>
      </trkpt>
      <trkpt lat="44.89936" lon="5.09679">
        <ele>393.32</ele>
        <time>2019-03-03T15:10:58Z</time>
      </trkpt>
      <trkpt lat="44.89943" lon="5.09664">
        <ele>389.95</ele>
        <time>2019-03-03T15:11:10Z</time>
      </trkpt>
      <trkpt lat="44.89943" lon="5.09652">
        <ele>387.07</ele>
        <time>2019-03-03T15:11:23Z</time>
      </trkpt>
      <trkpt lat="44.8994" lon="5.09634">
        <ele>384.18</ele>
        <time>2019-03-03T15:11:38Z</time>
      </trkpt>
      <trkpt lat="44.89935" lon="5.09616">
        <ele>381.3</ele>
        <time>2019-03-03T15:11:54Z</time>
      </trkpt>
      <trkpt lat="44.89934" lon="5.09609">
        <ele>380.82</ele>
        <time>2019-03-03T15:12:09Z</time>
      </trkpt>
      <trkpt lat="44.89938" lon="5.09599">
        <ele>380.82</ele>
        <time>2019-03-03T15:12:28Z</time>
      </trkpt>
    </trkseg>
  </trk>
</gpx>